Provisional Data: Grays Run near Gray, PA


Please select a monitoring station.
Please select start date.
Please select start date.

Toggle Unit: C/F Toggle Unit: C/F
Sample Time Temperature (C) Temperature (F) Specific Conductivity (mS/cm) pH   Turbidity (NTU+) DO (mg/L)
5/4/2021 12:00:00 AM 10.64 51.152 0.028 6.68 3.73 10.66
5/4/2021 12:15:00 AM 10.62 51.116 0.028 6.68 3.78 10.66
5/4/2021 12:30:00 AM 10.61 51.098 0.028 6.66 3.83 10.66
5/4/2021 12:45:00 AM 10.6 51.08 0.028 6.67 3.7 10.66
5/4/2021 1:00:00 AM 10.58 51.044 0.028 6.68 3.64 10.67
5/4/2021 1:15:00 AM 10.56 51.008 0.028 6.66 3.73 10.67
5/4/2021 1:30:00 AM 10.54 50.972 0.028 6.66 3.78 10.68
5/4/2021 1:45:00 AM 10.53 50.954 0.028 6.66 3.65 10.68
5/4/2021 2:00:00 AM 10.51 50.918 0.028 6.67 3.71 10.69
5/4/2021 2:15:00 AM 10.49 50.882 0.028 6.68 3.77 10.7
5/4/2021 2:30:00 AM 10.48 50.864 0.028 6.69 3.64 10.7
5/4/2021 2:45:00 AM 10.46 50.828 0.028 6.69 3.58 10.7
5/4/2021 3:00:00 AM 10.45 50.81 0.028 6.68 3.67 10.71
5/4/2021 3:15:00 AM 10.43 50.774 0.028 6.68 3.77 10.72
5/4/2021 3:30:00 AM 10.41 50.738 0.028 6.67 3.56 10.72
5/4/2021 3:45:00 AM 10.4 50.72 0.028 6.67 3.9 10.72
5/4/2021 4:00:00 AM 10.39 50.702 0.028 6.67 3.79 10.73
5/4/2021 4:15:00 AM 10.37 50.666 0.028 6.67 3.69 10.72
5/4/2021 4:30:00 AM 10.37 50.666 0.028 6.66 3.71 10.72
5/4/2021 4:45:00 AM 10.36 50.648 0.028 6.65 3.76 10.73
5/4/2021 5:00:00 AM 10.35 50.63 0.028 6.65 3.46 10.72
5/4/2021 5:15:00 AM 10.34 50.612 0.028 6.65 3.58 10.72
5/4/2021 5:30:00 AM 10.33 50.594 0.028 6.64 3.36 10.73
5/4/2021 5:45:00 AM 10.32 50.576 0.028 6.64 3.45 10.73
5/4/2021 6:00:00 AM 10.3 50.54 0.028 6.64 3.45 10.73
5/4/2021 6:15:00 AM 10.3 50.54 0.028 6.63 3.66 10.74
5/4/2021 6:30:00 AM 10.29 50.522 0.028 6.64 3.53 10.74
5/4/2021 6:45:00 AM 10.28 50.504 0.028 6.65 3.53 10.75
5/4/2021 7:00:00 AM 10.27 50.486 0.028 6.64 3.38 10.76
5/4/2021 7:15:00 AM 10.27 50.486 0.028 6.64 3.66 10.78
5/4/2021 7:30:00 AM 10.27 50.486 0.028 6.65 3.39 10.8
5/4/2021 7:45:00 AM 10.27 50.486 0.028 6.65 3.44 10.81
5/4/2021 8:00:00 AM 10.27 50.486 0.028 6.67 3.88 10.83
5/4/2021 8:15:00 AM 10.28 50.504 0.028 6.69 3.89 10.86
5/4/2021 8:30:00 AM 10.29 50.522 0.028 6.67 3.65 10.87
5/4/2021 8:45:00 AM 10.31 50.558 0.028 6.71 4.46 10.91
5/4/2021 9:00:00 AM 10.33 50.594 0.028 6.73 3.33 10.9
5/4/2021 9:15:00 AM 10.35 50.63 0.028 6.74 3.36 10.91
5/4/2021 9:30:00 AM 10.39 50.702 0.028 6.76 3.37 10.93
5/4/2021 9:45:00 AM 10.44 50.792 0.028 6.77 3.78 10.95
5/4/2021 10:00:00 AM 10.49 50.882 0.028 6.79 3.58 10.95
5/4/2021 10:15:00 AM 10.56 51.008 0.028 6.8 3.64 10.94
5/4/2021 10:30:00 AM 10.64 51.152 0.028 6.81 3.71 10.93
5/4/2021 10:45:00 AM 10.77 51.386 0.028 6.83 3.36 10.91
5/4/2021 11:00:00 AM 10.91 51.638 0.028 6.83 3.59 10.88
5/4/2021 11:15:00 AM 11.03 51.854 0.028 6.84 3.94 10.86
5/4/2021 11:30:00 AM 11.17 52.106 0.028 6.84 3.52 10.83
5/4/2021 11:45:00 AM 11.28 52.304 0.028 6.83 3.88 10.81
5/4/2021 12:00:00 PM 11.34 52.412 0.027 6.84 3.36 10.78
5/4/2021 12:15:00 PM 11.52 52.736 0.027 6.87 3.59 10.77
5/4/2021 12:30:00 PM 11.59 52.862 0.027 6.84 3.32 10.73
5/4/2021 12:45:00 PM 11.69 53.042 0.028 6.84 3.57 10.73
5/4/2021 1:00:00 PM 11.8 53.24 0.027 6.84 3.46 10.71
5/4/2021 1:15:00 PM 11.86 53.348 0.028 6.84 3.39 10.68
5/4/2021 1:30:00 PM 11.95 53.51 0.028 6.84 3.29 10.65
5/4/2021 1:45:00 PM 11.97 53.546 0.028 6.83 3.28 10.61
5/4/2021 2:00:00 PM 12 53.6 0.028 6.83 3.72 10.58
5/4/2021 2:15:00 PM 12.07 53.726 0.028 6.83 3.29 10.59
5/4/2021 2:30:00 PM 12.1 53.78 0.027 6.83 3.3 10.58
5/4/2021 2:45:00 PM 12.11 53.798 0.027 6.82 3.39 10.57
5/4/2021 3:00:00 PM 12.12 53.816 0.028 6.81 3.48 10.55
5/4/2021 3:15:00 PM 12.13 53.834 0.027 6.83 3.4 10.55
5/4/2021 3:30:00 PM 12.13 53.834 0.028 6.81 3.53 10.52
5/4/2021 3:45:00 PM 12.13 53.834 0.028 6.8 3.42 10.51
5/4/2021 4:00:00 PM 12.11 53.798 0.028 6.8 3.37 10.48
5/4/2021 4:15:00 PM 12.08 53.744 0.028 6.76 3.57 10.46
5/4/2021 4:30:00 PM 12.07 53.726 0.028 6.79 3.68 10.49
5/4/2021 4:45:00 PM 12.06 53.708 0.028 6.77 3.38 10.48
5/4/2021 5:00:00 PM 12.06 53.708 0.028 6.78 3.66 10.48
5/4/2021 5:15:00 PM 12.07 53.726 0.028 6.79 3.52 10.46
5/4/2021 5:30:00 PM 12.09 53.762 0.028 6.79 3.62 10.44
5/4/2021 5:45:00 PM 12.1 53.78 0.028 6.78 3.6 10.45
5/4/2021 6:00:00 PM 12.08 53.744 0.028 6.77 3.33 10.43
5/4/2021 6:15:00 PM 12.06 53.708 0.028 6.76 3.63 10.42
5/4/2021 6:30:00 PM 12.04 53.672 0.028 6.77 3.34 10.41
5/4/2021 6:45:00 PM 12.04 53.672 0.028 6.76 3.47 10.4
5/4/2021 7:00:00 PM 12.04 53.672 0.028 6.73 3.52 10.4
5/4/2021 7:15:00 PM 12.04 53.672 0.028 6.72 3.45 10.38
5/4/2021 7:30:00 PM 12.04 53.672 0.028 6.71 3.54 10.36
5/4/2021 7:45:00 PM 12.05 53.69 0.028 6.71 3.52 10.34
5/4/2021 8:00:00 PM 12.05 53.69 0.028 6.69 3.63 10.31
5/4/2021 8:15:00 PM 12.05 53.69 0.028 6.69 3.32 10.3
5/4/2021 8:30:00 PM 12.05 53.69 0.028 6.7 3.5 10.3
5/4/2021 8:45:00 PM 12.06 53.708 0.028 6.68 3.36 10.3
5/4/2021 9:00:00 PM 12.06 53.708 0.028 6.68 3.57 10.3
5/4/2021 9:15:00 PM 12.05 53.69 0.028 6.67 3.32 10.3
5/4/2021 9:30:00 PM 12.02 53.636 0.028 6.66 3.56 10.31
5/4/2021 9:45:00 PM 11.99 53.582 0.028 6.66 3.6 10.32
5/4/2021 10:00:00 PM 11.96 53.528 0.028 6.67 3.54 10.32
5/4/2021 10:15:00 PM 11.92 53.456 0.028 6.67 3.62 10.33
5/4/2021 10:30:00 PM 11.89 53.402 0.028 6.67 3.54 10.33
5/4/2021 10:45:00 PM 11.86 53.348 0.028 6.68 3.58 10.35
5/4/2021 11:00:00 PM 11.82 53.276 0.028 6.67 3.52 10.35
5/4/2021 11:15:00 PM 11.79 53.222 0.028 6.66 3.74 10.36
5/4/2021 11:30:00 PM 11.78 53.204 0.028 6.66 3.86 10.35
5/4/2021 11:45:00 PM 11.76 53.168 0.028 6.68 3.79 10.37
5/5/2021 12:00:00 AM 11.72 53.096 0.028 6.67 3.84 10.38
5/5/2021 12:15:00 AM 11.69 53.042 0.028 6.66 4.04 10.39
5/5/2021 12:30:00 AM 11.66 52.988 0.028 6.66 3.87 10.4
5/5/2021 12:45:00 AM 11.63 52.934 0.026 6.65 4.11 10.4
5/5/2021 1:00:00 AM 11.6 52.88 0.028 6.65 3.89 10.4
5/5/2021 1:15:00 AM 11.57 52.826 0.028 6.65 3.46 10.41
5/5/2021 1:30:00 AM 11.55 52.79 0.028 6.65 3.8 10.42
5/5/2021 1:45:00 AM 11.52 52.736 0.028 6.66 3.82 10.43
5/5/2021 2:00:00 AM 11.5 52.7 0.028 6.64 3.66 10.43
5/5/2021 2:15:00 AM 11.47 52.646 0.028 6.63 3.49 10.43
5/5/2021 2:30:00 AM 11.44 52.592 0.028 6.63 3.5 10.43
5/5/2021 2:45:00 AM 11.41 52.538 0.028 6.62 3.45 10.44
5/5/2021 3:00:00 AM 11.39 52.502 0.028 6.61 3.63 10.45
5/5/2021 3:15:00 AM 11.36 52.448 0.028 6.62 3.62 10.45
5/5/2021 3:30:00 AM 11.34 52.412 0.028 6.64 3.63 10.45
5/5/2021 3:45:00 AM 11.32 52.376 0.028 6.64 3.62 10.46
5/5/2021 4:00:00 AM 11.3 52.34 0.028 6.64 3.53 10.47
5/5/2021 4:15:00 AM 11.28 52.304 0.028 6.64 3.45 10.47
5/5/2021 4:30:00 AM 11.26 52.268 0.028 6.64 3.89 10.47
5/5/2021 4:45:00 AM 11.23 52.214 0.028 6.63 4.05 10.48
5/5/2021 5:00:00 AM 11.22 52.196 0.028 6.63 3.76 10.49
5/5/2021 5:15:00 AM 11.2 52.16 0.028 6.64 3.6 10.49
5/5/2021 5:30:00 AM 11.18 52.124 0.028 6.64 4.51 10.5
5/5/2021 5:45:00 AM 11.16 52.088 0.028 6.63 3.53 10.51
5/5/2021 6:00:00 AM 11.14 52.052 0.028 6.61 3.41 10.51
5/5/2021 6:15:00 AM 11.12 52.016 0.028 6.63 3.45 10.51
5/5/2021 6:30:00 AM 11.11 51.998 0.028 6.65 3.42 10.53
5/5/2021 6:45:00 AM 11.09 51.962 0.028 6.64 3.19 10.54
5/5/2021 7:00:00 AM 11.08 51.944 0.028 6.65 3.49 10.55
5/5/2021 7:15:00 AM 11.07 51.926 0.028 6.66 3.36 10.56
5/5/2021 7:30:00 AM 11.06 51.908 0.028 6.65 3.47 10.56
5/5/2021 7:45:00 AM 11.05 51.89 0.028 6.64 3.24 10.58
5/5/2021 8:00:00 AM 11.04 51.872 0.028 6.65 3.32 10.59
5/5/2021 8:15:00 AM 11.03 51.854 0.028 6.65 3.18 10.6
5/5/2021 8:30:00 AM 11.02 51.836 0.028 6.66 3.28 10.6
5/5/2021 8:45:00 AM 11.01 51.818 0.028 6.65 3.33 10.62
5/5/2021 9:00:00 AM 11.01 51.818 0.028 6.66 3.33 10.65
5/5/2021 9:15:00 AM 11.01 51.818 0.028 6.67 3.48 10.65
5/5/2021 9:30:00 AM 11.01 51.818 0.028 6.65 3.31 10.65
5/5/2021 9:45:00 AM 11.02 51.836 0.028 6.66 3.24 10.64
5/5/2021 10:00:00 AM 11.02 51.836 0.028 6.66 3.44 10.64
5/5/2021 10:15:00 AM 11.03 51.854 0.028 6.68 3.32 10.63
5/5/2021 10:30:00 AM 11.03 51.854 0.028 6.7 3.37 10.62
5/5/2021 10:45:00 AM 11.04 51.872 0.028 6.7 3.4 10.63
5/5/2021 11:00:00 AM 11.05 51.89 0.028 6.72 3.49 10.64
5/5/2021 11:15:00 AM 11.05 51.89 0.028 6.74 3.4 10.66
5/5/2021 11:30:00 AM 11.06 51.908 0.028 6.75 3.63 10.67
5/5/2021 11:45:00 AM 11.06 51.908 0.028 6.77 3.41 10.68
5/5/2021 12:00:00 PM 11.06 51.908 0.028 6.77 3.56 10.68
5/5/2021 12:15:00 PM 11.06 51.908 0.028 6.79 3.79 10.67
5/5/2021 12:30:00 PM 11.07 51.926 0.028 6.79 3.86 10.68
5/5/2021 12:45:00 PM 11.09 51.962 0.028 6.8 3.98 10.68
5/5/2021 1:00:00 PM 11.13 52.034 0.028 6.82 3.99 10.72
5/5/2021 1:15:00 PM 11.15 52.07 0.028 6.83 4.18 10.71
5/5/2021 1:30:00 PM 11.15 52.07 0.028 6.84 4.23 10.71
5/5/2021 1:45:00 PM 11.17 52.106 0.028 6.85 4.27 10.73
5/5/2021 2:00:00 PM 11.17 52.106 0.028 6.86 4.17 10.74
5/5/2021 2:15:00 PM 11.18 52.124 0.028 6.87 3.98 10.74
5/5/2021 2:30:00 PM 11.17 52.106 0.028 6.87 3.93 10.73
5/5/2021 2:45:00 PM 11.16 52.088 0.028 6.88 3.85 10.73
5/5/2021 3:00:00 PM 11.14 52.052 0.028 6.88 3.73 10.73
5/5/2021 3:15:00 PM 11.13 52.034 0.029 6.89 3.96 10.75
5/5/2021 3:30:00 PM 11.15 52.07 0.029 6.91 3.84 10.77
5/5/2021 3:45:00 PM 11.15 52.07 0.029 6.91 3.92 10.77
5/5/2021 4:00:00 PM 11.16 52.088 0.029 6.91 3.8 10.78
5/5/2021 4:15:00 PM 11.15 52.07 0.028 6.91 3.88 10.75
5/5/2021 4:30:00 PM 11.14 52.052 0.028 6.9 3.93 10.76
5/5/2021 4:45:00 PM 11.12 52.016 0.028 6.88 3.83 10.74
5/5/2021 5:00:00 PM 11.09 51.962 0.028 6.87 4.04 10.71
5/5/2021 5:15:00 PM 11.05 51.89 0.028 6.87 3.98 10.71
5/5/2021 5:30:00 PM 11.03 51.854 0.028 6.88 3.85 10.74
5/5/2021 5:45:00 PM 11.02 51.836 0.028 6.88 3.98 10.75
5/5/2021 6:00:00 PM 10.98 51.764 0.028 6.87 3.75 10.72
5/5/2021 6:15:00 PM 10.95 51.71 0.028 6.84 3.74 10.72
5/5/2021 6:30:00 PM 10.92 51.656 0.028 6.85 3.72 10.72
5/5/2021 6:45:00 PM 10.89 51.602 0.028 6.85 3.78 10.74
5/5/2021 7:00:00 PM 10.86 51.548 0.028 6.82 3.74 10.73
5/5/2021 7:15:00 PM 10.83 51.494 0.028 6.84 3.74 10.75
5/5/2021 7:30:00 PM 10.79 51.422 0.028 6.83 3.72 10.75
5/5/2021 7:45:00 PM 10.75 51.35 0.028 6.82 3.82 10.74
5/5/2021 8:00:00 PM 10.69 51.242 0.028 6.82 3.79 10.74
5/5/2021 8:15:00 PM 10.66 51.188 0.028 6.81 3.77 10.74
5/5/2021 8:30:00 PM 10.61 51.098 0.028 6.81 3.71 10.75
5/5/2021 8:45:00 PM 10.56 51.008 0.028 6.81 3.58 10.75
5/5/2021 9:00:00 PM 10.51 50.918 0.028 6.8 3.69 10.77
5/5/2021 9:15:00 PM 10.47 50.846 0.028 6.8 3.65 10.79
5/5/2021 9:30:00 PM 10.43 50.774 0.028 6.82 3.82 10.79
5/5/2021 9:45:00 PM 10.39 50.702 0.028 6.79 3.43 10.81
5/5/2021 10:00:00 PM 10.34 50.612 0.028 6.8 3.56 10.83
5/5/2021 10:15:00 PM 10.3 50.54 0.028 6.79 3.52 10.84
5/5/2021 10:30:00 PM 10.26 50.468 0.028 6.79 3.47 10.85
5/5/2021 10:45:00 PM 10.22 50.396 0.028 6.79 3.53 10.86
5/5/2021 11:00:00 PM 10.18 50.324 0.028 6.8 3.57 10.86
5/5/2021 11:15:00 PM 10.15 50.27 0.028 6.8 3.54 10.87
5/5/2021 11:30:00 PM 10.11 50.198 0.028 6.81 3.58 10.88
5/5/2021 11:45:00 PM 10.08 50.144 0.028 6.81 3.47 10.89
5/6/2021 12:00:00 AM 10.04 50.072 0.028 6.79 3.46 10.9
5/6/2021 12:15:00 AM 10 50 0.028 6.81 3.56 10.91
5/6/2021 12:30:00 AM 9.96 49.928 0.028 6.79 3.47 10.92
5/6/2021 12:45:00 AM 9.92 49.856 0.028 6.8 3.29 10.93
5/6/2021 1:00:00 AM 9.88 49.784 0.028 6.8 3.59 10.95
5/6/2021 1:15:00 AM 9.84 49.712 0.028 6.78 3.39 10.96
5/6/2021 1:30:00 AM 9.81 49.658 0.028 6.79 4813.87 10.97
5/6/2021 1:45:00 AM 9.77 49.586 0.028 6.8 3.31 10.98
5/6/2021 2:00:00 AM 9.73 49.514 0.028 6.8 3.6 10.99
5/6/2021 2:15:00 AM 9.69 49.442 0.028 6.79 3.35 11.01
5/6/2021 2:30:00 AM 9.65 49.37 0.028 6.78 3.36 11.01
5/6/2021 2:45:00 AM 9.61 49.298 0.028 6.78 3.6 11.02
5/6/2021 3:00:00 AM 9.58 49.244 0.028 6.79 3.37 11.03
5/6/2021 3:15:00 AM 9.55 49.19 0.028 6.79 3.39 11.04
5/6/2021 3:30:00 AM 9.52 49.136 0.028 6.79 3.28 11.05
5/6/2021 3:45:00 AM 9.49 49.082 0.028 6.8 3.48 11.06
5/6/2021 4:00:00 AM 9.46 49.028 0.028 6.79 3.4 11.07
5/6/2021 4:15:00 AM 9.43 48.974 0.028 6.8 3.29 11.08
5/6/2021 4:30:00 AM 9.4 48.92 0.028 6.79 3.51 11.08
5/6/2021 4:45:00 AM 9.37 48.866 0.028 6.81 3.39 11.08
5/6/2021 5:00:00 AM 9.35 48.83 0.028 6.8 3.48 11.1
5/6/2021 5:15:00 AM 9.32 48.776 0.028 6.79 3.35 11.11
5/6/2021 5:30:00 AM 9.3 48.74 0.028 6.8 3.49 11.12
5/6/2021 5:45:00 AM 9.28 48.704 0.028 6.81 3.5 11.12
5/6/2021 6:00:00 AM 9.25 48.65 0.028 6.8 3.39 11.13
5/6/2021 6:15:00 AM 9.23 48.614 0.028 6.79 3.31 11.15
5/6/2021 6:30:00 AM 9.2 48.56 0.028 6.8 3.34 11.16
5/6/2021 6:45:00 AM 9.17 48.506 0.028 6.8 3.46 11.19
5/6/2021 7:00:00 AM 9.13 48.434 0.028 6.81 3.5 11.2
5/6/2021 7:15:00 AM 9.1 48.38 0.028 6.81 3.5 11.22
5/6/2021 7:30:00 AM 9.06 48.308 0.028 6.81 3.43 11.24
5/6/2021 7:45:00 AM 9.05 48.29 0.028 6.81 3.38 11.27
5/6/2021 8:00:00 AM 9.03 48.254 0.028 6.82 3.31 11.29
5/6/2021 8:15:00 AM 9.02 48.236 0.028 6.83 3.45 11.3
5/6/2021 8:30:00 AM 9.01 48.218 0.028 6.82 3.32 11.31
5/6/2021 8:45:00 AM 9 48.2 0.028 6.84 3.5 11.32
5/6/2021 9:00:00 AM 9 48.2 0.028 6.85 3.6 11.36
5/6/2021 9:15:00 AM 9.04 48.272 0.028 6.86 3.51 11.39
5/6/2021 9:30:00 AM 9.08 48.344 0.028 6.88 3.49 11.41
5/6/2021 9:45:00 AM 9.1 48.38 0.028 6.85 3.31 11.39
5/6/2021 10:00:00 AM 9.12 48.416 0.027 6.87 3.24 11.37
5/6/2021 10:15:00 AM 9.19 48.542 0.027 6.87 3.43 11.39
5/6/2021 10:30:00 AM 9.26 48.668 0.027 6.87 3.26 11.38
5/6/2021 10:45:00 AM 9.31 48.758 0.027 6.87 3.36 11.37
5/6/2021 11:00:00 AM 9.38 48.884 0.027 6.88 3.44 11.36
5/6/2021 11:15:00 AM 9.49 49.082 0.027 6.9 3.32 11.36
5/6/2021 11:30:00 AM 9.55 49.19 0.027 6.9 3.32 11.35
5/6/2021 11:45:00 AM 9.64 49.352 0.027 6.89 3.22 11.32
5/6/2021 12:00:00 PM 9.74 49.532 0.027 6.9 3.3 11.3
5/6/2021 12:15:00 PM 9.95 49.91 0.027 6.91 3.31 11.28
5/6/2021 12:30:00 PM 10.12 50.216 0.027 6.91 3.31 11.23
5/6/2021 12:45:00 PM 10.23 50.414 0.027 6.9 3.47 11.19
5/6/2021 1:00:00 PM 10.33 50.594 0.027 6.9 3.33 11.16
5/6/2021 1:15:00 PM 10.4 50.72 0.027 6.89 3.4 11.13
5/6/2021 1:30:00 PM 10.48 50.864 0.027 6.9 3.09 11.12
5/6/2021 1:45:00 PM 10.57 51.026 0.027 6.9 3.28 11.1
5/6/2021 2:00:00 PM 10.64 51.152 0.027 6.91 3.37 11.08
5/6/2021 2:15:00 PM 10.72 51.296 0.027 6.89 3.25 11.06
5/6/2021 2:30:00 PM 10.75 51.35 0.027 6.89 3.43 11.03
5/6/2021 2:45:00 PM 10.79 51.422 0.027 6.89 3.4 11.02
5/6/2021 3:00:00 PM 10.83 51.494 0.027 6.9 3.33 11
5/6/2021 3:15:00 PM 10.87 51.566 0.027 6.88 3.28 10.98
5/6/2021 3:30:00 PM 10.88 51.584 0.027 6.88 3.18 10.96
5/6/2021 3:45:00 PM 10.86 51.548 0.027 6.88 3.33 10.95
5/6/2021 4:00:00 PM 10.84 51.512 0.027 6.87 3.22 10.93
5/6/2021 4:15:00 PM 10.84 51.512 0.027 6.86 3.4 10.93
5/6/2021 4:30:00 PM 10.84 51.512 0.027 6.87 3.54 10.93
5/6/2021 4:45:00 PM 10.84 51.512 0.027 6.88 3.19 10.93
5/6/2021 5:00:00 PM 10.83 51.494 0.027 6.86 3.32 10.92
5/6/2021 5:15:00 PM 10.79 51.422 0.027 6.86 3.39 10.91
5/6/2021 5:30:00 PM 10.75 51.35 0.027 6.85 3.31 10.91
5/6/2021 5:45:00 PM 10.72 51.296 0.027 6.85 3.5 10.9
5/6/2021 6:00:00 PM 10.68 51.224 0.027 6.83 3.28 10.89
5/6/2021 6:15:00 PM 10.66 51.188 0.027 6.85 3.23 10.88
5/6/2021 6:30:00 PM 10.62 51.116 0.027 6.82 3.17 10.87
5/6/2021 6:45:00 PM 10.6 51.08 0.027 6.82 3.3 10.87
5/6/2021 7:00:00 PM 10.57 51.026 0.027 6.83 3.2 10.86
5/6/2021 7:15:00 PM 10.54 50.972 0.028 6.8 3.26 10.85
5/6/2021 7:30:00 PM 10.51 50.918 0.028 6.8 3.48 10.84
5/6/2021 7:45:00 PM 10.47 50.846 0.028 6.81 3.24 10.83
5/6/2021 8:00:00 PM 10.44 50.792 0.028 6.79 3.26 10.83
5/6/2021 8:15:00 PM 10.39 50.702 0.028 6.78 3.09 10.83
5/6/2021 8:30:00 PM 10.34 50.612 0.028 6.77 3.56 10.83
5/6/2021 8:45:00 PM 10.28 50.504 0.028 6.77 3.27 10.84
5/6/2021 9:00:00 PM 10.22 50.396 0.028 6.78 3.33 10.85
5/6/2021 9:15:00 PM 10.16 50.288 0.028 6.77 3.31 10.87
5/6/2021 9:30:00 PM 10.1 50.18 0.028 6.77 3.28 10.88
5/6/2021 9:45:00 PM 10.04 50.072 0.028 6.76 3.28 10.89
5/6/2021 10:00:00 PM 9.98 49.964 0.028 6.78 3.36 10.91
5/6/2021 10:15:00 PM 9.91 49.838 0.028 6.78 3.49 10.93
5/6/2021 10:30:00 PM 9.85 49.73 0.028 6.75 3.36 10.95
5/6/2021 10:45:00 PM 9.78 49.604 0.028 6.76 3.39 10.96
5/6/2021 11:00:00 PM 9.72 49.496 0.028 6.76 3.34 10.98
5/6/2021 11:15:00 PM 9.65 49.37 0.028 6.75 3.48 11
5/6/2021 11:30:00 PM 9.59 49.262 0.028 6.77 3.2 11.02
5/6/2021 11:45:00 PM 9.53 49.154 0.028 6.76 3.45 11.03
5/7/2021 12:00:00 AM 9.47 49.046 0.028 6.76 3.28 11.05
5/7/2021 12:15:00 AM 9.41 48.938 0.028 6.76 3.37 11.07
5/7/2021 12:30:00 AM 9.34 48.812 0.028 6.76 3.22 11.08
5/7/2021 12:45:00 AM 9.28 48.704 0.028 6.77 3.44 11.1
5/7/2021 1:00:00 AM 9.22 48.596 0.028 6.76 3.29 11.12
5/7/2021 1:15:00 AM 9.16 48.488 0.028 6.77 3.31 11.14
5/7/2021 1:30:00 AM 9.11 48.398 0.028 6.77 3.3 11.15
5/7/2021 1:45:00 AM 9.05 48.29 0.028 6.77 3.29 11.17
5/7/2021 2:00:00 AM 8.99 48.182 0.028 6.78 3.3 11.18
5/7/2021 2:15:00 AM 8.93 48.074 0.028 6.77 3.35 11.2
5/7/2021 2:30:00 AM 8.87 47.966 0.028 6.77 3.37 11.21
5/7/2021 2:45:00 AM 8.81 47.858 0.028 6.77 3.28 11.23
5/7/2021 3:00:00 AM 8.75 47.75 0.028 6.77 3.28 11.24
5/7/2021 3:15:00 AM 8.69 47.642 0.028 6.77 3.27 11.26
5/7/2021 3:30:00 AM 8.64 47.552 0.028 6.79 3.32 11.27
5/7/2021 3:45:00 AM 8.58 47.444 0.028 6.79 3.23 11.28
5/7/2021 4:00:00 AM 8.53 47.354 0.028 6.73 3.42 11.3
5/7/2021 4:15:00 AM 8.47 47.246 0.028 6.79 3.23 11.32
5/7/2021 4:30:00 AM 8.42 47.156 0.028 6.79 3.38 11.33
5/7/2021 4:45:00 AM 8.36 47.048 0.028 6.79 3.32 11.35
5/7/2021 5:00:00 AM 8.31 46.958 0.028 6.79 3.21 11.36
5/7/2021 5:15:00 AM 8.25 46.85 0.028 6.8 3.28 11.38
5/7/2021 5:30:00 AM 8.2 46.76 0.028 6.8 3.14 11.39
5/7/2021 5:45:00 AM 8.16 46.688 0.028 6.8 10.81 11.4
5/7/2021 6:00:00 AM 8.11 46.598 0.028 6.8 3.3 11.42
5/7/2021 6:15:00 AM 8.07 46.526 0.028 6.8 3.2 11.44
5/7/2021 6:30:00 AM 8.03 46.454 0.028 6.79 3.19 11.46
5/7/2021 6:45:00 AM 8 46.4 0.028 6.8 3.19 11.49
5/7/2021 7:00:00 AM 7.97 46.346 0.028 6.81 3.33 11.52
5/7/2021 7:15:00 AM 7.96 46.328 0.028 6.82 3.05 11.55
5/7/2021 7:30:00 AM 7.94 46.292 0.028 6.82 3.21 11.57
5/7/2021 7:45:00 AM 7.93 46.274 0.028 6.82 3.37 11.59
5/7/2021 8:00:00 AM 7.93 46.274 0.028 6.83 3.11 11.61
5/7/2021 8:15:00 AM 7.94 46.292 0.027 6.83 3.18 11.63
5/7/2021 8:30:00 AM 7.96 46.328 0.027 6.86 3.21 11.64
5/7/2021 8:45:00 AM 7.99 46.382 0.027 6.84 3 11.64
5/7/2021 9:00:00 AM 8.02 46.436 0.027 6.87 3.19 11.65
5/7/2021 9:15:00 AM 8.07 46.526 0.027 6.86 3.07 11.65
5/7/2021 9:30:00 AM 8.12 46.616 0.027 6.87 3.07 11.65
5/7/2021 9:45:00 AM 8.18 46.724 0.027 6.87 3.25 11.65
5/7/2021 10:00:00 AM 8.25 46.85 0.027 6.89 2.99 11.64
5/7/2021 10:15:00 AM 8.32 46.976 0.027 6.88 3.37 11.63
5/7/2021 10:30:00 AM 8.4 47.12 0.027 6.9 3.03 11.61
5/7/2021 10:45:00 AM 8.5 47.3 0.027 6.89 3.3 11.6
5/7/2021 11:00:00 AM 8.62 47.516 0.027 6.9 3.11 11.58
5/7/2021 11:15:00 AM 8.74 47.732 0.027 6.9 3.32 11.55
5/7/2021 11:30:00 AM 8.86 47.948 0.027 6.91 3.39 11.52
5/7/2021 11:45:00 AM 8.97 48.146 0.027 6.91 3.25 11.49
5/7/2021 12:00:00 PM 9.03 48.254 0.027 6.9 3.3 11.46
5/7/2021 12:15:00 PM 9.08 48.344 0.027 6.89 3.22 11.43
5/7/2021 12:30:00 PM 9.14 48.452 0.027 6.89 3.09 11.4
5/7/2021 12:45:00 PM 9.2 48.56 0.027 6.9 3.24 11.38
5/7/2021 1:00:00 PM 9.25 48.65 0.027 6.89 3.09 11.36
5/7/2021 1:15:00 PM 9.29 48.722 0.027 6.89 3.22 11.34
5/7/2021 1:30:00 PM 9.32 48.776 0.027 6.88 3.29 11.34
5/7/2021 1:45:00 PM 9.34 48.812 0.027 6.89 3.07 11.32
5/7/2021 2:00:00 PM 9.35 48.83 0.027 6.86 3.12 11.3
5/7/2021 2:15:00 PM 9.34 48.812 0.027 6.86 3.4 11.27
5/7/2021 2:30:00 PM 9.33 48.794 0.027 6.86 3.17 11.26
5/7/2021 2:45:00 PM 9.32 48.776 0.027 6.84 3.13 11.26
5/7/2021 3:00:00 PM 9.33 48.794 0.027 6.85 3.12 11.28
5/7/2021 3:15:00 PM 9.33 48.794 0.027 6.86 3.02 11.28
5/7/2021 3:30:00 PM 9.32 48.776 0.025 6.84 3.03 11.26
5/7/2021 3:45:00 PM 9.34 48.812 0.027 6.86 3.09 11.28
5/7/2021 4:00:00 PM 9.36 48.848 0.027 6.87 3.28 11.28
5/7/2021 4:15:00 PM 9.37 48.866 0.027 6.86 3.1 11.26
5/7/2021 4:30:00 PM 9.4 48.92 0.027 6.87 3.01 11.26
5/7/2021 4:45:00 PM 9.41 48.938 0.027 6.85 3.2 11.24
5/7/2021 5:00:00 PM 9.41 48.938 0.027 6.84 3.59 11.22
5/7/2021 5:15:00 PM 9.4 48.92 0.027 6.83 3.25 11.2
5/7/2021 5:30:00 PM 9.39 48.902 0.027 6.81 3.01 11.19
5/7/2021 5:45:00 PM 9.37 48.866 0.027 6.82 3.09 11.18
5/7/2021 6:00:00 PM 9.36 48.848 0.027 6.82 3.17 11.16
5/7/2021 6:15:00 PM 9.34 48.812 0.027 6.81 3.01 11.15
5/7/2021 6:30:00 PM 9.32 48.776 0.027 6.8 3.63 11.14
5/7/2021 6:45:00 PM 9.31 48.758 0.027 6.8 3.23 11.12
5/7/2021 7:00:00 PM 9.29 48.722 0.027 6.81 3.48 11.12
5/7/2021 7:15:00 PM 9.27 48.686 0.027 6.77 5.22 11.11
5/7/2021 7:30:00 PM 9.26 48.668 0.028 6.77 5.55 11.12
5/7/2021 7:45:00 PM 9.23 48.614 0.027 6.77 4.12 11.11
5/7/2021 8:00:00 PM 9.21 48.578 0.027 6.77 3.42 11.1
5/7/2021 8:15:00 PM 9.18 48.524 0.027 6.76 3.37 11.1
5/7/2021 8:30:00 PM 9.16 48.488 0.027 6.77 3.4 11.1
5/7/2021 8:45:00 PM 9.13 48.434 0.027 6.76 3.3 11.11
5/7/2021 9:00:00 PM 9.1 48.38 0.027 6.74 3.39 11.11
5/7/2021 9:15:00 PM 9.07 48.326 0.027 6.73 3.39 11.12
5/7/2021 9:30:00 PM 9.04 48.272 0.027 6.76 3.67 11.13
5/7/2021 9:45:00 PM 9.01 48.218 0.027 6.76 3.54 11.14
5/7/2021 10:00:00 PM 8.99 48.182 0.027 6.74 3.32 11.14
5/7/2021 10:15:00 PM 8.96 48.128 0.027 6.76 3.5 11.15
5/7/2021 10:30:00 PM 8.94 48.092 0.027 6.75 3.49 11.16
5/7/2021 10:45:00 PM 8.91 48.038 0.027 6.76 3.65 11.18
5/7/2021 11:00:00 PM 8.89 48.002 0.027 6.78 3.79 11.18
5/7/2021 11:15:00 PM 8.87 47.966 0.027 6.76 3.81 11.19
5/7/2021 11:30:00 PM 8.84 47.912 0.028 6.77 3.94 11.2
5/7/2021 11:45:00 PM 8.81 47.858 0.027 6.78 3.93 11.21
5/8/2021 12:00:00 AM 8.79 47.822 0.028 6.76 3.86 11.22
5/8/2021 12:15:00 AM 8.77 47.786 0.028 6.77 3.79 11.23
5/8/2021 12:30:00 AM 8.75 47.75 0.028 6.78 3.9 11.23
5/8/2021 12:45:00 AM 8.73 47.714 0.028 6.77 3.73 11.24
5/8/2021 1:00:00 AM 8.71 47.678 0.028 6.77 3.98 11.25
5/8/2021 1:15:00 AM 8.69 47.642 0.028 6.77 3.91 11.26
5/8/2021 1:30:00 AM 8.67 47.606 0.028 6.78 3.81 11.27
5/8/2021 1:45:00 AM 8.64 47.552 0.028 6.77 3.85 11.27
5/8/2021 2:00:00 AM 8.61 47.498 0.028 6.78 3.83 11.28
5/8/2021 2:15:00 AM 8.59 47.462 0.028 6.78 3.91 11.29
5/8/2021 2:30:00 AM 8.57 47.426 0.028 6.77 3.89 11.29
5/8/2021 2:45:00 AM 8.54 47.372 0.028 6.77 3.94 11.3
5/8/2021 3:00:00 AM 8.51 47.318 0.028 6.77 3.97 11.31
5/8/2021 3:15:00 AM 8.49 47.282 0.028 6.82 3.9 11.31
5/8/2021 3:30:00 AM 8.47 47.246 0.027 6.78 3.98 11.32
5/8/2021 3:45:00 AM 8.45 47.21 0.027 6.79 3.74 11.33
5/8/2021 4:00:00 AM 8.43 47.174 0.027 6.78 3.92 11.33
5/8/2021 4:15:00 AM 8.41 47.138 0.027 6.8 3.84 11.34
5/8/2021 4:30:00 AM 8.38 47.084 0.027 6.8 3.55 11.35
5/8/2021 4:45:00 AM 8.36 47.048 0.027 6.78 4.05 11.35
5/8/2021 5:00:00 AM 8.34 47.012 0.027 6.76 3.69 11.36
5/8/2021 5:15:00 AM 8.32 46.976 0.027 6.77 3.54 11.36
5/8/2021 5:30:00 AM 8.3 46.94 0.027 6.77 3.53 11.37
5/8/2021 5:45:00 AM 8.28 46.904 0.027 6.77 3.71 11.37
5/8/2021 6:00:00 AM 8.26 46.868 0.027 6.77 3.57 11.38
5/8/2021 6:15:00 AM 8.25 46.85 0.027 6.78 3.59 11.39
5/8/2021 6:30:00 AM 8.23 46.814 0.027 6.78 3.55 11.4
5/8/2021 6:45:00 AM 8.21 46.778 0.027 6.76 3.6 11.41
5/8/2021 7:00:00 AM 8.2 46.76 0.027 6.77 3.42 11.42
5/8/2021 7:15:00 AM 8.19 46.742 0.027 6.78 3.7 11.44
5/8/2021 7:30:00 AM 8.18 46.724 0.027 6.78 3.36 11.46
5/8/2021 7:45:00 AM 8.18 46.724 0.027 6.79 3.39 11.47
5/8/2021 8:00:00 AM 8.17 46.706 0.027 6.79 3.49 11.47
5/8/2021 8:15:00 AM 8.18 46.724 0.027 6.79 3.47 11.51
5/8/2021 8:30:00 AM 8.18 46.724 0.027 6.79 3.48 11.53
5/8/2021 8:45:00 AM 8.2 46.76 0.027 6.79 3.21 11.54
5/8/2021 9:00:00 AM 8.22 46.796 0.027 6.81 3.59 11.57
5/8/2021 9:15:00 AM 8.27 46.886 0.027 6.83 3.31 11.57
5/8/2021 9:30:00 AM 8.31 46.958 0.027 6.81 3.36 11.57
5/8/2021 9:45:00 AM 8.31 46.958 0.027 6.82 3.46 11.54
5/8/2021 10:00:00 AM 8.33 46.994 0.027 6.81 3.61 11.56
5/8/2021 10:15:00 AM 8.35 47.03 0.027 6.83 3.46 11.56
5/8/2021 10:30:00 AM 8.36 47.048 0.027 6.82 3.33 11.54
5/8/2021 10:45:00 AM 8.37 47.066 0.027 6.82 3.22 11.53
5/8/2021 11:00:00 AM 8.37 47.066 0.027 6.8 3.32 11.5
5/8/2021 11:15:00 AM 8.38 47.084 0.027 6.79 3.41 11.49
5/8/2021 11:30:00 AM 8.41 47.138 0.027 6.83 3.3 11.51
5/8/2021 11:45:00 AM 8.46 47.228 0.027 6.83 3.36 11.53
5/8/2021 12:00:00 PM 8.49 47.282 0.027 6.82 4.82 11.53
5/8/2021 12:15:00 PM 8.51 47.318 0.027 6.82 3.32 11.51
5/8/2021 12:30:00 PM 8.51 47.318 0.027 6.8 3.3 11.48
5/8/2021 12:45:00 PM 8.52 47.336 0.027 6.81 3.4 11.48
5/8/2021 1:00:00 PM 8.67 47.606 0.027 6.84 3.29 11.51
5/8/2021 1:15:00 PM 8.74 47.732 0.027 6.81 3.54 11.49
5/8/2021 1:30:00 PM 8.71 47.678 0.027 6.82 3.47 11.47
5/8/2021 1:45:00 PM 8.77 47.786 0.027 6.82 3.69 11.5
5/8/2021 2:00:00 PM 8.8 47.84 0.027 6.82 3.6 11.49
5/8/2021 2:15:00 PM 8.86 47.948 0.027 6.85 3.55 11.49
5/8/2021 2:30:00 PM 8.94 48.092 0.027 6.83 3.72 11.47
5/8/2021 2:45:00 PM 8.95 48.11 0.027 6.81 3.74 11.43
5/8/2021 3:00:00 PM 8.99 48.182 0.027 6.83 3.6 11.42
5/8/2021 3:15:00 PM 8.98 48.164 0.027 6.8 3.51 11.39
5/8/2021 3:30:00 PM 8.98 48.164 0.027 6.82 3.63 11.38
5/8/2021 3:45:00 PM 9 48.2 0.027 6.8 3.67 11.39
5/8/2021 4:00:00 PM 8.99 48.182 0.027 6.81 3.43 11.38
5/8/2021 4:15:00 PM 9.02 48.236 0.027 6.81 3.59 11.38
5/8/2021 4:30:00 PM 9.05 48.29 0.027 6.8 3.55 11.35
5/8/2021 4:45:00 PM 9.06 48.308 0.027 6.79 3.57 11.32
5/8/2021 5:00:00 PM 9.06 48.308 0.027 6.8 3.55 11.31
5/8/2021 5:15:00 PM 9.06 48.308 0.027 6.78 3.56 11.28
5/8/2021 5:30:00 PM 9.05 48.29 0.027 6.79 3.44 11.28
5/8/2021 5:45:00 PM 9.04 48.272 0.027 6.8 3.72 11.3
5/8/2021 6:00:00 PM 9.06 48.308 0.027 6.8 3.74 11.31
5/8/2021 6:15:00 PM 9.06 48.308 0.027 6.79 3.79 11.3
5/8/2021 6:30:00 PM 9.06 48.308 0.027 6.78 3.53 11.28
5/8/2021 6:45:00 PM 9.05 48.29 0.027 6.76 3.61 11.27
5/8/2021 7:00:00 PM 9.04 48.272 0.027 6.78 3.48 11.26
5/8/2021 7:15:00 PM 9.02 48.236 0.027 6.78 3.52 11.27
5/8/2021 7:30:00 PM 8.99 48.182 0.027 6.75 3.43 11.27
5/8/2021 7:45:00 PM 8.95 48.11 0.027 6.76 3.46 11.27
5/8/2021 8:00:00 PM 8.91 48.038 0.027 6.74 3.59 11.27
5/8/2021 8:15:00 PM 8.87 47.966 0.027 6.74 3.68 11.28
5/8/2021 8:30:00 PM 8.83 47.894 0.027 6.73 3.66 11.28
5/8/2021 8:45:00 PM 8.79 47.822 0.027 6.74 3.43 11.28
5/8/2021 9:00:00 PM 8.76 47.768 0.027 6.73 3.49 11.28
5/8/2021 9:15:00 PM 8.73 47.714 0.027 6.74 3.28 11.29
5/8/2021 9:30:00 PM 8.69 47.642 0.027 6.75 3.58 11.31
5/8/2021 9:45:00 PM 8.65 47.57 0.027 6.73 3.4 11.32
5/8/2021 10:00:00 PM 8.6 47.48 0.027 6.73 3.53 11.33
5/8/2021 10:15:00 PM 8.56 47.408 0.027 6.74 3.42 11.35
5/8/2021 10:30:00 PM 8.51 47.318 0.027 6.74 3.33 11.37
5/8/2021 10:45:00 PM 8.47 47.246 0.027 6.73 3.38 11.38
5/8/2021 11:00:00 PM 8.42 47.156 0.027 6.73 3.5 11.39
5/8/2021 11:15:00 PM 8.37 47.066 0.027 6.74 3.48 11.41
5/8/2021 11:30:00 PM 8.33 46.994 0.027 6.74 3.54 11.42
5/8/2021 11:45:00 PM 8.28 46.904 0.027 6.73 3.52 11.43
5/9/2021 12:00:00 AM 8.24 46.832 0.027 6.74 3.53 11.44
5/9/2021 12:15:00 AM 8.19 46.742 0.027 6.75 3.38 11.46
5/9/2021 12:30:00 AM 8.15 46.67 0.027 6.73 3.55 11.47
5/9/2021 12:45:00 AM 8.1 46.58 0.027 6.75 3.3 11.49
5/9/2021 1:00:00 AM 8.05 46.49 0.027 6.75 3.3 11.5
5/9/2021 1:15:00 AM 8.01 46.418 0.027 6.75 3.43 11.51
5/9/2021 1:30:00 AM 7.96 46.328 0.027 6.75 3.45 11.53
5/9/2021 1:45:00 AM 7.91 46.238 0.027 6.76 3.53 11.54
5/9/2021 2:00:00 AM 7.87 46.166 0.027 6.75 3.4 11.56
5/9/2021 2:15:00 AM 7.82 46.076 0.027 6.76 3.43 11.57
5/9/2021 2:30:00 AM 7.78 46.004 0.027 6.75 3.33 11.58
5/9/2021 2:45:00 AM 7.74 45.932 0.027 6.75 3.55 11.59
5/9/2021 3:00:00 AM 7.7 45.86 0.027 6.76 3.6 11.6
5/9/2021 3:15:00 AM 7.66 45.788 0.027 6.75 3.3 11.62
5/9/2021 3:30:00 AM 7.62 45.716 0.027 6.75 3.27 11.62
5/9/2021 3:45:00 AM 7.59 45.662 0.027 6.76 3.51 11.63
5/9/2021 4:00:00 AM 7.55 45.59 0.027 6.75 3.51 11.65
5/9/2021 4:15:00 AM 7.52 45.536 0.027 6.76 3.28 11.66
5/9/2021 4:30:00 AM 7.48 45.464 0.027 6.75 3.45 11.67
5/9/2021 4:45:00 AM 7.45 45.41 0.027 6.76 3.28 11.68
5/9/2021 5:00:00 AM 7.41 45.338 0.027 6.75 3.37 11.7
5/9/2021 5:15:00 AM 7.37 45.266 0.027 6.75 3.33 11.71
5/9/2021 5:30:00 AM 7.33 45.194 0.027 6.76 3.3 11.72
5/9/2021 5:45:00 AM 7.29 45.122 0.027 6.77 3.36 11.74
5/9/2021 6:00:00 AM 7.26 45.068 0.027 6.75 3.37 11.75
5/9/2021 6:15:00 AM 7.23 45.014 0.027 6.76 3.33 11.77
5/9/2021 6:30:00 AM 7.19 44.942 0.027 6.77 3.26 11.79
5/9/2021 6:45:00 AM 7.15 44.87 0.027 6.77 3.5 11.81
5/9/2021 7:00:00 AM 7.12 44.816 0.027 6.77 3.35 11.84
5/9/2021 7:15:00 AM 7.09 44.762 0.027 6.78 3.36 11.87
5/9/2021 7:30:00 AM 7.07 44.726 0.027 6.78 3.36 11.89
5/9/2021 7:45:00 AM 7.06 44.708 0.027 6.78 3.26 11.92
5/9/2021 8:00:00 AM 7.07 44.726 0.027 6.79 3.31 11.94
5/9/2021 8:15:00 AM 7.08 44.744 0.027 6.8 3.32 11.96
5/9/2021 8:30:00 AM 7.09 44.762 0.027 6.81 3.09 11.95
5/9/2021 8:45:00 AM 7.09 44.762 0.027 6.81 3.2 11.94
5/9/2021 9:00:00 AM 7.12 44.816 0.027 6.82 3.28 11.95
5/9/2021 9:15:00 AM 7.17 44.906 0.027 6.82 3.35 11.95
5/9/2021 9:30:00 AM 7.23 45.014 0.027 6.83 3.39 11.94
5/9/2021 9:45:00 AM 7.32 45.176 0.027 6.83 3.21 11.93
5/9/2021 10:00:00 AM 7.42 45.356 0.027 6.84 3.31 11.92
5/9/2021 10:15:00 AM 7.51 45.518 0.027 6.84 3.34 11.91
5/9/2021 10:30:00 AM 7.59 45.662 0.027 6.85 3.22 11.88
5/9/2021 10:45:00 AM 7.66 45.788 0.027 6.85 3.18 11.86
5/9/2021 11:00:00 AM 7.73 45.914 0.027 6.86 3.16 11.84
5/9/2021 11:15:00 AM 7.79 46.022 0.027 6.85 3.24 11.81
5/9/2021 11:30:00 AM 7.86 46.148 0.027 6.86 3.28 11.8
5/9/2021 11:45:00 AM 7.93 46.274 0.027 6.86 3.23 11.77
5/9/2021 12:00:00 PM 8 46.4 0.027 6.85 3.49 11.76
5/9/2021 12:15:00 PM 8.06 46.508 0.027 6.84 3.31 11.74
5/9/2021 12:30:00 PM 8.09 46.562 0.027 6.84 3.23 11.72
5/9/2021 12:45:00 PM 8.12 46.616 0.027 6.84 3.26 11.68
5/9/2021 1:00:00 PM 8.12 46.616 0.027 6.82 3.24 11.65
5/9/2021 1:15:00 PM 8.11 46.598 0.027 6.81 3.4 11.65
5/9/2021 1:30:00 PM 8.09 46.562 0.027 6.8 3.35 11.62
5/9/2021 1:45:00 PM 8.07 46.526 0.027 6.78 3.4 11.62
5/9/2021 2:00:00 PM 8.04 46.472 0.027 6.78 3.4 11.61
5/9/2021 2:15:00 PM 8.02 46.436 0.027 6.77 3.49 11.62
5/9/2021 2:30:00 PM 7.99 46.382 0.027 6.78 3.42 11.63
5/9/2021 2:45:00 PM 7.97 46.346 0.027 6.79 3.4 11.63
5/9/2021 3:00:00 PM 7.95 46.31 0.027 6.78 3.32 11.63
5/9/2021 3:15:00 PM 7.92 46.256 0.027 6.77 3.34 11.64
5/9/2021 3:30:00 PM 7.9 46.22 0.027 6.77 3.55 11.62
5/9/2021 3:45:00 PM 7.87 46.166 0.027 6.77 3.46 11.61
5/9/2021 4:00:00 PM 7.85 46.13 0.027 6.77 3.5 11.62
5/9/2021 4:15:00 PM 7.83 46.094 0.027 6.77 3.58 11.62
5/9/2021 4:30:00 PM 7.8 46.04 0.027 6.78 3.48 11.61
5/9/2021 4:45:00 PM 7.78 46.004 0.027 6.8 3.72 11.62
5/9/2021 5:00:00 PM 7.77 45.986 0.027 6.79 3.62 11.61
5/9/2021 5:15:00 PM 7.74 45.932 0.027 6.79 3.8 11.61
5/9/2021 5:30:00 PM 7.71 45.878 0.027 6.79 4.1 11.61
5/9/2021 5:45:00 PM 7.69 45.842 0.027 6.78 4.32 11.61
5/9/2021 6:00:00 PM 7.67 45.806 0.027 6.8 4.16 11.61
5/9/2021 6:15:00 PM 7.66 45.788 0.027 6.8 4.44 11.62
5/9/2021 6:30:00 PM 7.64 45.752 0.027 6.78 4.64 11.61
5/9/2021 6:45:00 PM 7.63 45.734 0.027 6.8 4.93 11.6
5/9/2021 7:00:00 PM 7.61 45.698 0.027 6.79 4.95 11.6
5/9/2021 7:15:00 PM 7.6 45.68 0.027 6.8 6.21 11.6
5/9/2021 7:30:00 PM 7.58 45.644 0.027 6.78 6.32 11.6
5/9/2021 7:45:00 PM 7.57 45.626 0.027 6.77 7.02 11.6
5/9/2021 8:00:00 PM 7.56 45.608 0.027 6.79 6.85 11.6
5/9/2021 8:15:00 PM 7.55 45.59 0.027 6.78 7.68 11.6
5/9/2021 8:30:00 PM 7.54 45.572 0.027 6.77 8.3 11.61
5/9/2021 8:45:00 PM 7.53 45.554 0.027 6.8 120.32 11.61
5/9/2021 9:00:00 PM 7.52 45.536 0.027 6.81 10.27 11.61
5/9/2021 9:15:00 PM 7.51 45.518 0.027 6.8 9.42 11.63
5/9/2021 9:30:00 PM 7.5 45.5 0.027 6.79 10.21 11.63
5/9/2021 9:45:00 PM 7.5 45.5 0.027 6.79 9.08 11.63
5/9/2021 10:00:00 PM 7.49 45.482 0.027 6.81 9.59 11.64
5/9/2021 10:15:00 PM 7.48 45.464 0.027 6.82 9.01 11.65
5/9/2021 10:30:00 PM 7.48 45.464 0.027 6.8 9.2 11.64
5/9/2021 10:45:00 PM 7.47 45.446 0.027 6.81 9.38 11.65
5/9/2021 11:00:00 PM 7.47 45.446 0.027 6.8 8.94 11.64
5/9/2021 11:15:00 PM 7.47 45.446 0.026 6.79 8.82 11.65
5/9/2021 11:30:00 PM 7.46 45.428 0.026 6.76 9.33 11.64
5/9/2021 11:45:00 PM 7.46 45.428 0.026 6.77 8.68 11.64
5/10/2021 12:00:00 AM 7.46 45.428 0.026 6.77 9.11 11.64
5/10/2021 12:15:00 AM 7.46 45.428 0.026 6.77 8.33 11.64
5/10/2021 12:30:00 AM 7.46 45.428 0.026 6.78 8.58 11.64
5/10/2021 12:45:00 AM 7.47 45.446 0.026 6.77 8.89 11.63
5/10/2021 1:00:00 AM 7.47 45.446 0.026 6.75 7.95 11.64
5/10/2021 1:15:00 AM 7.48 45.464 0.026 6.74 8.49 11.64
5/10/2021 1:30:00 AM 7.48 45.464 0.026 6.74 7.64 11.65
5/10/2021 1:45:00 AM 7.47 45.446 0.026 6.74 7.99 11.65
5/10/2021 2:00:00 AM 7.47 45.446 0.026 6.74 7.36 11.65
5/10/2021 2:15:00 AM 7.47 45.446 0.026 6.73 6.82 11.65
5/10/2021 2:30:00 AM 7.47 45.446 0.026 6.72 8.21 11.66
5/10/2021 2:45:00 AM 7.47 45.446 0.026 6.73 6.57 11.66
5/10/2021 3:00:00 AM 7.47 45.446 0.026 6.75 6.22 11.66
5/10/2021 3:15:00 AM 7.47 45.446 0.026 6.72 6.32 11.65
5/10/2021 3:30:00 AM 7.47 45.446 0.026 6.73 5.81 11.66
5/10/2021 3:45:00 AM 7.46 45.428 0.026 6.74 5.62 11.66
5/10/2021 4:00:00 AM 7.46 45.428 0.025 6.72 5.59 11.67
5/10/2021 4:15:00 AM 7.45 45.41 0.025 6.72 5.44 11.67
5/10/2021 4:30:00 AM 7.45 45.41 0.025 6.72 6.03 11.68
5/10/2021 4:45:00 AM 7.44 45.392 0.025 6.71 6.01 11.68
5/10/2021 5:00:00 AM 7.44 45.392 0.025 6.7 5.62 11.69
5/10/2021 5:15:00 AM 7.43 45.374 0.025 6.72 5.05 11.69
5/10/2021 5:30:00 AM 7.43 45.374 0.025 6.71 5.16 11.69
5/10/2021 5:45:00 AM 7.42 45.356 0.025 6.71 5.32 11.7
5/10/2021 6:00:00 AM 7.42 45.356 0.025 6.69 4.96 11.7
5/10/2021 6:15:00 AM 7.41 45.338 0.025 6.7 5.27 11.71
5/10/2021 6:30:00 AM 7.41 45.338 0.025 6.69 5 11.72
5/10/2021 6:45:00 AM 7.41 45.338 0.025 6.73 5.39 11.72
5/10/2021 7:00:00 AM 7.41 45.338 0.025 6.71 8.37 11.73
5/10/2021 7:15:00 AM 7.41 45.338 0.025 6.69 8.19 11.73
5/10/2021 7:30:00 AM 7.41 45.338 0.025 6.69 7.61 11.75
5/10/2021 7:45:00 AM 7.41 45.338 0.025 6.7 6.96 11.76
5/10/2021 8:00:00 AM 7.42 45.356 0.025 6.7 5.89 11.76
5/10/2021 8:15:00 AM 7.42 45.356 0.025 6.71 4.81 11.76
5/10/2021 8:30:00 AM 7.43 45.374 0.025 6.71 4.61 11.77
5/10/2021 8:45:00 AM 7.45 45.41 0.025 6.72 4.67 11.78
5/10/2021 9:00:00 AM 7.46 45.428 0.025 6.72 4.64 11.77
5/10/2021 9:15:00 AM 7.47 45.446 0.025 6.73 4.74 11.78
5/10/2021 9:30:00 AM 7.49 45.482 0.025 6.71 4.4 11.78
5/10/2021 9:45:00 AM 7.52 45.536 0.025 6.7 4.47 11.79
5/10/2021 10:00:00 AM 7.56 45.608 0.025 6.74 4.24 11.8
5/10/2021 10:15:00 AM 7.61 45.698 0.025 6.75 4.81 11.81
5/10/2021 10:30:00 AM 7.69 45.842 0.025 6.74 4.55 11.8
5/10/2021 10:45:00 AM 7.75 45.95 0.025 6.75 4.56 11.8
5/10/2021 11:00:00 AM 7.82 46.076 0.025 6.75 4.35 11.77
5/10/2021 11:15:00 AM 7.87 46.166 0.025 6.75 4.46 11.76
5/10/2021 11:30:00 AM 7.93 46.274 0.025 6.75 4.91 11.73
5/10/2021 11:45:00 AM 8.04 46.472 0.025 6.75 3.85 11.72
5/10/2021 12:00:00 PM 8.15 46.67 0.025 6.76 4.27 11.7
5/10/2021 12:15:00 PM 8.29 46.922 0.025 6.75 4.45 11.67
5/10/2021 12:30:00 PM 8.36 47.048 0.025 6.75 4.36 11.64
5/10/2021 12:45:00 PM 8.52 47.336 0.025 6.77 4.34 11.62
5/10/2021 1:00:00 PM 8.65 47.57 0.025 6.77 4.36 11.57
5/10/2021 1:15:00 PM 8.75 47.75 0.025 6.74 5.03 11.53
5/10/2021 1:30:00 PM 8.97 48.146 0.025 6.76 4.31 11.49
5/10/2021 1:45:00 PM 9.12 48.416 0.025 6.76 4.36 11.45
5/10/2021 2:00:00 PM 9.25 48.65 0.025 6.75 4.23 11.41
5/10/2021 2:15:00 PM 9.29 48.722 0.025 6.75 4.61 11.38
5/10/2021 2:30:00 PM 9.2 48.56 0.025 6.71 4.36 11.36
5/10/2021 2:45:00 PM 9.19 48.542 0.025 6.72 4.59 11.37
5/10/2021 3:00:00 PM 9.31 48.758 0.025 6.72 4.71 11.35
5/10/2021 3:15:00 PM 9.33 48.794 0.025 6.69 5.66 11.34
5/10/2021 3:30:00 PM 9.35 48.83 0.025 6.69 4.82 11.32
5/10/2021 3:45:00 PM 9.38 48.884 0.025 6.72 4.39 11.32
5/10/2021 4:00:00 PM 9.37 48.866 0.025 6.72 4.38 11.32
5/10/2021 4:15:00 PM 9.36 48.848 0.025 6.72 4.5 11.3
5/10/2021 4:30:00 PM 9.37 48.866 0.025 6.71 4.29 11.3
5/10/2021 4:45:00 PM 9.39 48.902 0.025 6.74 4.17 11.29
5/10/2021 5:00:00 PM 9.37 48.866 0.025 6.71 5.04 11.29
5/10/2021 5:15:00 PM 9.36 48.848 0.026 6.7 4.39 11.27
5/10/2021 5:30:00 PM 9.35 48.83 0.026 6.7 4.41 11.27
5/10/2021 5:45:00 PM 9.36 48.848 0.026 6.69 4.45 11.26
5/10/2021 6:00:00 PM 9.36 48.848 0.026 6.7 4.41 11.25
5/10/2021 6:15:00 PM 9.34 48.812 0.026 6.67 4.35 11.25
5/10/2021 6:30:00 PM 9.33 48.794 0.026 6.68 4.19 11.26
5/10/2021 6:45:00 PM 9.3 48.74 0.026 6.69 4.17 11.26
5/10/2021 7:00:00 PM 9.27 48.686 0.026 6.68 4.09 11.25
5/10/2021 7:15:00 PM 9.24 48.632 0.026 6.68 4.22 11.25
5/10/2021 7:30:00 PM 9.21 48.578 0.026 6.67 4.17 11.25
5/10/2021 7:45:00 PM 9.17 48.506 0.026 6.66 4.27 11.26
5/10/2021 8:00:00 PM 9.11 48.398 0.026 6.66 4.16 11.27
5/10/2021 8:15:00 PM 9.06 48.308 0.026 6.67 4.18 11.28
5/10/2021 8:30:00 PM 9 48.2 0.026 6.64 4.18 11.29
5/10/2021 8:45:00 PM 8.94 48.092 0.026 6.63 4.35 11.31
5/10/2021 9:00:00 PM 8.88 47.984 0.026 6.65 4.3 11.32
5/10/2021 9:15:00 PM 8.82 47.876 0.026 6.64 4.09 11.34
5/10/2021 9:30:00 PM 8.76 47.768 0.026 6.67 4.16 11.35
5/10/2021 9:45:00 PM 8.7 47.66 0.026 6.67 4.13 11.37
5/10/2021 10:00:00 PM 8.65 47.57 0.026 6.66 4.27 11.39
5/10/2021 10:15:00 PM 8.6 47.48 0.026 6.67 4.18 11.41
5/10/2021 10:30:00 PM 8.55 47.39 0.026 6.67 4.03 11.42
5/10/2021 10:45:00 PM 8.5 47.3 0.026 6.67 4.29 11.44
5/10/2021 11:00:00 PM 8.45 47.21 0.026 6.68 4.09 11.45
5/10/2021 11:15:00 PM 8.4 47.12 0.026 6.67 4.25 11.47
5/10/2021 11:30:00 PM 8.35 47.03 0.026 6.66 4.11 11.48
5/10/2021 11:45:00 PM 8.3 46.94 0.026 6.66 4.06 11.5
5/11/2021 12:00:00 AM 8.26 46.868 0.026 6.67 4.15 11.51
5/11/2021 12:15:00 AM 8.22 46.796 0.026 6.67 4.55 11.52
5/11/2021 12:30:00 AM 8.18 46.724 0.026 6.68 9.09 11.54
5/11/2021 12:45:00 AM 8.14 46.652 0.026 6.67 3.92 11.55
5/11/2021 1:00:00 AM 8.1 46.58 0.026 6.67 3.99 11.56
5/11/2021 1:15:00 AM 8.05 46.49 0.026 6.66 3.99 11.57
5/11/2021 1:30:00 AM 8 46.4 0.026 6.65 4 11.59
5/11/2021 1:45:00 AM 7.95 46.31 0.026 6.64 3.95 11.6
5/11/2021 2:00:00 AM 7.91 46.238 0.026 6.66 3.93 11.62
5/11/2021 2:15:00 AM 7.87 46.166 0.026 6.65 4.07 11.63
5/11/2021 2:30:00 AM 7.83 46.094 0.026 6.67 3.98 11.65
5/11/2021 2:45:00 AM 7.8 46.04 0.026 6.66 3.87 11.65
5/11/2021 3:00:00 AM 7.77 45.986 0.026 6.67 4.45 11.66
5/11/2021 3:15:00 AM 7.74 45.932 0.026 6.66 4.2 11.67
5/11/2021 3:30:00 AM 7.71 45.878 0.026 6.66 4.13 11.68
5/11/2021 3:45:00 AM 7.68 45.824 0.026 6.66 4.14 11.69
5/11/2021 4:00:00 AM 7.64 45.752 0.026 6.64 3.91 11.7
5/11/2021 4:15:00 AM 7.6 45.68 0.026 6.67 3.88 11.71
5/11/2021 4:30:00 AM 7.57 45.626 0.026 6.68 3.95 11.72
5/11/2021 4:45:00 AM 7.54 45.572 0.026 6.65 4.16 11.73
5/11/2021 5:00:00 AM 7.52 45.536 0.026 6.66 4.03 11.73
5/11/2021 5:15:00 AM 7.49 45.482 0.026 6.65 4.17 11.75
5/11/2021 5:30:00 AM 7.47 45.446 0.026 6.66 3.99 11.76
5/11/2021 5:45:00 AM 7.44 45.392 0.026 6.65 4.15 11.76
5/11/2021 6:00:00 AM 7.41 45.338 0.026 6.65 3.92 11.77
5/11/2021 6:15:00 AM 7.37 45.266 0.026 6.65 4.02 11.79
5/11/2021 6:30:00 AM 7.33 45.194 0.026 6.65 3.95 11.8
5/11/2021 6:45:00 AM 7.3 45.14 0.026 6.67 3.93 11.82
5/11/2021 7:00:00 AM 7.27 45.086 0.026 6.65 3.95 11.84
5/11/2021 7:15:00 AM 7.24 45.032 0.026 6.66 3.85 11.85
5/11/2021 7:30:00 AM 7.21 44.978 0.026 6.68 4 11.86
5/11/2021 7:45:00 AM 7.2 44.96 0.026 6.67 5.81 11.88
5/11/2021 8:00:00 AM 7.19 44.942 0.026 6.67 3.83 11.89
5/11/2021 8:15:00 AM 7.2 44.96 0.026 6.69 3.81 11.89
5/11/2021 8:30:00 AM 7.22 44.996 0.026 6.71 3.81 11.89
5/11/2021 8:45:00 AM 7.25 45.05 0.026 6.7 3.76 11.9
5/11/2021 9:00:00 AM 7.3 45.14 0.026 6.71 3.7 11.89
5/11/2021 9:15:00 AM 7.37 45.266 0.026 6.7 4.01 11.88
5/11/2021 9:30:00 AM 7.44 45.392 0.026 6.72 3.7 11.87
5/11/2021 9:45:00 AM 7.53 45.554 0.026 6.71 3.76 11.86
5/11/2021 10:00:00 AM 7.63 45.734 0.026 6.73 3.94 11.85
5/11/2021 10:15:00 AM 7.7 45.86 0.026 6.72 3.82 11.82
5/11/2021 10:30:00 AM 7.77 45.986 0.026 6.72 3.77 11.8
5/11/2021 10:45:00 AM 7.83 46.094 0.026 6.72 4.01 11.78
5/11/2021 11:00:00 AM 7.9 46.22 0.026 6.71 4.05 11.76
5/11/2021 11:15:00 AM 7.98 46.364 0.026 6.72 3.9 11.74
5/11/2021 11:30:00 AM 8.05 46.49 0.026 6.73 3.85 11.72
5/11/2021 11:45:00 AM 8.16 46.688 0.026 6.73 3.95 11.7
5/11/2021 12:00:00 PM 8.19 46.742 0.026 6.72 3.75 11.67
5/11/2021 12:15:00 PM 8.26 46.868 0.026 6.72 3.86 11.68
5/11/2021 12:30:00 PM 8.3 46.94 0.026 6.73 3.79 11.67
5/11/2021 12:45:00 PM 8.42 47.156 0.026 6.74 4 11.65
5/11/2021 1:00:00 PM 8.44 47.192 0.026 6.71 4.11 11.6
5/11/2021 1:15:00 PM 8.44 47.192 0.026 6.71 3.87 11.59
5/11/2021 1:30:00 PM 8.5 47.3 0.026 6.73 3.91 11.59
5/11/2021 1:45:00 PM 8.57 47.426 0.026 6.73 3.79 11.59
5/11/2021 2:00:00 PM 8.63 47.534 0.026 6.72 3.83 11.58
5/11/2021 2:15:00 PM 8.71 47.678 0.026 6.73 3.91 11.56
5/11/2021 2:30:00 PM 8.71 47.678 0.026 6.72 3.88 11.54
5/11/2021 2:45:00 PM 8.77 47.786 0.026 6.72 3.92 11.54
5/11/2021 3:00:00 PM 8.81 47.858 0.026 6.72 3.76 11.51
5/11/2021 3:15:00 PM 8.9 48.02 0.026 6.73 3.97 11.49
5/11/2021 3:30:00 PM 8.94 48.092 0.026 6.71 4.13 11.47
5/11/2021 3:45:00 PM 8.94 48.092 0.026 6.71 3.76 11.44
5/11/2021 4:00:00 PM 8.94 48.092 0.026 6.72 3.98 11.45
5/11/2021 4:15:00 PM 8.97 48.146 0.026 6.72 3.86 11.45
5/11/2021 4:30:00 PM 8.99 48.182 0.026 6.72 3.78 11.42
5/11/2021 4:45:00 PM 8.99 48.182 0.026 6.7 3.93 11.42
5/11/2021 5:00:00 PM 8.99 48.182 0.026 6.7 3.88 11.41
5/11/2021 5:15:00 PM 8.97 48.146 0.026 6.69 3.73 11.4
5/11/2021 5:30:00 PM 8.96 48.128 0.026 6.7 3.65 11.4
5/11/2021 5:45:00 PM 8.94 48.092 0.026 6.7 3.92 11.4
5/11/2021 6:00:00 PM 8.92 48.056 0.026 6.69 3.84 11.41
5/11/2021 6:15:00 PM 8.91 48.038 0.026 6.69 4.2 11.4
5/11/2021 6:30:00 PM 8.9 48.02 0.026 6.69 3.98 11.4
5/11/2021 6:45:00 PM 8.88 47.984 0.026 6.69 3.81 11.41
5/11/2021 7:00:00 PM 8.85 47.93 0.026 6.68 3.79 11.4
5/11/2021 7:15:00 PM 8.82 47.876 0.026 6.69 3.96 11.4
5/11/2021 7:30:00 PM 8.77 47.786 0.026 6.67 3.81 11.4
5/11/2021 7:45:00 PM 8.73 47.714 0.026 6.66 4.12 11.42
5/11/2021 8:00:00 PM 8.7 47.66 0.026 6.66 4.01 11.42
5/11/2021 8:15:00 PM 8.65 47.57 0.026 6.66 3.91 11.43
5/11/2021 8:30:00 PM 8.61 47.498 0.026 6.65 3.71 11.44
5/11/2021 8:45:00 PM 8.56 47.408 0.026 6.67 3.87 11.45
5/11/2021 9:00:00 PM 8.5 47.3 0.026 6.64 3.81 11.47
5/11/2021 9:15:00 PM 8.44 47.192 0.026 6.65 4.01 11.49
5/11/2021 9:30:00 PM 8.39 47.102 0.026 6.65 3.96 11.51
5/11/2021 9:45:00 PM 8.32 46.976 0.026 6.64 3.72 11.53
5/11/2021 10:00:00 PM 8.26 46.868 0.026 6.66 3.8 11.55
5/11/2021 10:15:00 PM 8.19 46.742 0.026 6.66 3.93 11.57
5/11/2021 10:30:00 PM 8.12 46.616 0.026 6.65 3.89 11.59
5/11/2021 10:45:00 PM 8.06 46.508 0.026 6.65 3.94 11.61
5/11/2021 11:00:00 PM 8 46.4 0.026 6.65 3.92 11.62
5/11/2021 11:15:00 PM 7.94 46.292 0.026 6.65 3.97 11.64
5/11/2021 11:30:00 PM 7.89 46.202 0.026 6.65 3.93 11.66
5/11/2021 11:45:00 PM 7.84 46.112 0.026 6.64 3.86 11.67
5/12/2021 12:00:00 AM 7.79 46.022 0.026 6.64 4.01 11.69
5/12/2021 12:15:00 AM 7.73 45.914 0.026 6.64 3.79 11.71
5/12/2021 12:30:00 AM 7.67 45.806 0.026 6.64 3.97 11.73
5/12/2021 12:45:00 AM 7.61 45.698 0.026 6.65 3.84 11.75
5/12/2021 1:00:00 AM 7.55 45.59 0.026 6.67 3.81 11.77
5/12/2021 1:15:00 AM 7.49 45.482 0.026 6.67 3.8 11.78
5/12/2021 1:30:00 AM 7.45 45.41 0.026 6.65 3.9 11.8
5/12/2021 1:45:00 AM 7.4 45.32 0.026 6.65 3.71 11.8
5/12/2021 2:00:00 AM 7.36 45.248 0.026 6.66 3.76 11.82
5/12/2021 2:15:00 AM 7.32 45.176 0.026 6.66 3.69 11.83
5/12/2021 2:30:00 AM 7.27 45.086 0.026 6.66 3.81 11.84
5/12/2021 2:45:00 AM 7.22 44.996 0.026 6.66 4.16 11.86
5/12/2021 3:00:00 AM 7.17 44.906 0.026 6.66 3.63 11.87
5/12/2021 3:15:00 AM 7.12 44.816 0.026 6.68 4.21 11.88
5/12/2021 3:30:00 AM 7.08 44.744 0.026 6.65 3.98 11.9
5/12/2021 3:45:00 AM 7.05 44.69 0.026 6.65 3.71 11.91
5/12/2021 4:00:00 AM 7.01 44.618 0.026 6.66 3.83 11.92
5/12/2021 4:15:00 AM 6.98 44.564 0.026 6.67 3.71 11.93
5/12/2021 4:30:00 AM 6.95 44.51 0.026 6.67 3.76 11.94
5/12/2021 4:45:00 AM 6.9 44.42 0.026 6.66 3.72 11.95
5/12/2021 5:00:00 AM 6.86 44.348 0.026 6.65 3.8 11.96
5/12/2021 5:15:00 AM 6.82 44.276 0.026 6.65 3.75 11.98
5/12/2021 5:30:00 AM 6.8 44.24 0.026 6.65 3.68 11.99
5/12/2021 5:45:00 AM 6.78 44.204 0.026 6.66 3.71 12
5/12/2021 6:00:00 AM 6.76 44.168 0.026 6.67 4.17 12.01
5/12/2021 6:15:00 AM 6.75 44.15 0.026 6.67 3.7 12.02
5/12/2021 6:30:00 AM 6.73 44.114 0.026 6.65 3.85 12.03
5/12/2021 6:45:00 AM 6.72 44.096 0.026 6.66 3.79 12.04
5/12/2021 7:00:00 AM 6.69 44.042 0.026 6.65 3.85 12.05
5/12/2021 7:15:00 AM 6.67 44.006 0.026 6.67 3.82 12.07
5/12/2021 7:30:00 AM 6.66 43.988 0.026 6.66 3.69 12.08
5/12/2021 7:45:00 AM 6.65 43.97 0.026 6.68 3.65 12.1
5/12/2021 8:00:00 AM 6.64 43.952 0.026 6.68 3.92 12.11
5/12/2021 8:15:00 AM 6.65 43.97 0.026 6.68 3.56 12.12
5/12/2021 8:30:00 AM 6.67 44.006 0.026 6.69 3.69 12.12
5/12/2021 8:45:00 AM 6.7 44.06 0.026 6.68 3.92 12.12
5/12/2021 9:00:00 AM 6.75 44.15 0.026 6.71 3.59 12.12
5/12/2021 9:15:00 AM 6.83 44.294 0.026 6.7 3.65 12.11
5/12/2021 9:30:00 AM 6.91 44.438 0.026 6.72 3.51 12.1
5/12/2021 9:45:00 AM 7.01 44.618 0.026 6.71 3.63 12.08
5/12/2021 10:00:00 AM 7.11 44.798 0.026 6.73 3.64 12.05
5/12/2021 10:15:00 AM 7.23 45.014 0.026 6.7 3.66 12.03
5/12/2021 10:30:00 AM 7.37 45.266 0.026 6.72 3.67 11.99
5/12/2021 10:45:00 AM 7.53 45.554 0.026 6.72 3.65 11.95
5/12/2021 11:00:00 AM 7.69 45.842 0.026 6.72 3.79 11.93
5/12/2021 11:15:00 AM 7.83 46.094 0.026 6.73 3.66 11.87
5/12/2021 11:30:00 AM 7.99 46.382 0.026 6.74 3.59 11.84
5/12/2021 11:45:00 AM 8.11 46.598 0.026 6.73 3.58 11.79
5/12/2021 12:00:00 PM 8.24 46.832 0.026 6.72 3.71 11.76
5/12/2021 12:15:00 PM 8.35 47.03 0.026 6.72 3.83 11.72
5/12/2021 12:30:00 PM 8.49 47.282 0.026 6.71 3.69 11.69
5/12/2021 12:45:00 PM 8.65 47.57 0.026 6.72 3.63 11.65
5/12/2021 1:00:00 PM 8.69 47.642 0.026 6.72 3.73 11.62
5/12/2021 1:15:00 PM 8.92 48.056 0.026 6.72 3.59 11.6
5/12/2021 1:30:00 PM 8.99 48.182 0.026 6.71 3.84 11.56
5/12/2021 1:45:00 PM 9.09 48.362 0.026 6.72 3.71 11.53
5/12/2021 2:00:00 PM 9.18 48.524 0.026 6.71 3.77 11.49
5/12/2021 2:15:00 PM 9.22 48.596 0.026 6.7 3.65 11.48
5/12/2021 2:30:00 PM 9.28 48.704 0.026 6.71 3.6 11.48
5/12/2021 2:45:00 PM 9.32 48.776 0.026 6.72 3.59 11.46
5/12/2021 3:00:00 PM 9.4 48.92 0.026 6.71 3.83 11.44
5/12/2021 3:15:00 PM 9.41 48.938 0.026 6.69 3.72 11.41
5/12/2021 3:30:00 PM 9.43 48.974 0.026 6.68 3.81 11.41
5/12/2021 3:45:00 PM 9.45 49.01 0.026 6.68 3.72 11.39
5/12/2021 4:00:00 PM 9.47 49.046 0.026 6.69 3.6 11.38
5/12/2021 4:15:00 PM 9.47 49.046 0.026 6.7 3.73 11.36
5/12/2021 4:30:00 PM 9.46 49.028 0.026 6.69 3.71 11.35
5/12/2021 4:45:00 PM 9.46 49.028 0.026 6.67 3.8 11.34
5/12/2021 5:00:00 PM 9.47 49.046 0.026 6.67 3.67 11.35
5/12/2021 5:15:00 PM 9.49 49.082 0.026 6.68 3.84 11.34
5/12/2021 5:30:00 PM 9.51 49.118 0.026 6.68 3.71 11.32
5/12/2021 5:45:00 PM 9.5 49.1 0.026 6.67 3.87 11.31
5/12/2021 6:00:00 PM 9.5 49.1 0.026 6.66 3.74 11.3
5/12/2021 6:15:00 PM 9.48 49.064 0.026 6.65 3.78 11.29
5/12/2021 6:30:00 PM 9.46 49.028 0.026 6.66 3.83 11.29
5/12/2021 6:45:00 PM 9.44 48.992 0.026 6.65 3.67 11.28
5/12/2021 7:00:00 PM 9.42 48.956 0.026 6.66 3.82 11.27
5/12/2021 7:15:00 PM 9.41 48.938 0.026 6.64 3.73 11.28
5/12/2021 7:30:00 PM 9.38 48.884 0.026 6.63 3.7 11.28
5/12/2021 7:45:00 PM 9.35 48.83 0.026 6.63 3.75 11.28
5/12/2021 8:00:00 PM 9.33 48.794 0.026 6.62 3.72 11.28
5/12/2021 8:15:00 PM 9.3 48.74 0.026 6.63 3.65 11.29
5/12/2021 8:30:00 PM 9.26 48.668 0.026 6.64 3.66 11.28
5/12/2021 8:45:00 PM 9.21 48.578 0.026 6.64 3.72 11.3
5/12/2021 9:00:00 PM 9.16 48.488 0.026 6.63 3.66 11.31
5/12/2021 9:15:00 PM 9.1 48.38 0.026 6.63 3.88 11.33
5/12/2021 9:30:00 PM 9.04 48.272 0.026 6.64 3.68 11.35
5/12/2021 9:45:00 PM 8.98 48.164 0.026 6.63 3.95 11.37
5/12/2021 10:00:00 PM 8.92 48.056 0.026 6.62 3.99 11.39
5/12/2021 10:15:00 PM 8.86 47.948 0.026 6.63 3.82 11.4
5/12/2021 10:30:00 PM 8.79 47.822 0.026 6.64 3.81 11.42
5/12/2021 10:45:00 PM 8.72 47.696 0.026 6.61 3.72 11.44
5/12/2021 11:00:00 PM 8.66 47.588 0.026 6.62 3.73 11.46
5/12/2021 11:15:00 PM 8.59 47.462 0.026 6.61 3.87 11.48
5/12/2021 11:30:00 PM 8.53 47.354 0.026 6.61 3.87 11.5
5/12/2021 11:45:00 PM 8.47 47.246 0.026 6.62 3.74 11.52
5/13/2021 12:00:00 AM 8.41 47.138 0.026 6.62 4.76 11.53
5/13/2021 12:15:00 AM 8.35 47.03 0.026 6.63 6.53 11.56
5/13/2021 12:30:00 AM 8.29 46.922 0.026 6.64 3.65 11.58
5/13/2021 12:45:00 AM 8.23 46.814 0.026 6.64 3.7 11.6
5/13/2021 1:00:00 AM 8.17 46.706 0.026 6.63 3.7 11.61
5/13/2021 1:15:00 AM 8.1 46.58 0.026 6.65 3.75 11.62
5/13/2021 1:30:00 AM 8.05 46.49 0.026 6.64 3.71 11.64
5/13/2021 1:45:00 AM 7.99 46.382 0.026 6.63 3.69 11.65
5/13/2021 2:00:00 AM 7.93 46.274 0.026 6.64 3.76 11.67
5/13/2021 2:15:00 AM 7.87 46.166 0.026 6.65 3.73 11.69
5/13/2021 2:30:00 AM 7.82 46.076 0.026 6.63 3.86 11.71
5/13/2021 2:45:00 AM 7.76 45.968 0.026 6.64 3.78 11.72
5/13/2021 3:00:00 AM 7.71 45.878 0.026 6.66 3.64 11.73
5/13/2021 3:15:00 AM 7.67 45.806 0.026 6.64 3.76 11.75
5/13/2021 3:30:00 AM 7.61 45.698 0.026 6.66 3.76 11.76
5/13/2021 3:45:00 AM 7.56 45.608 0.026 6.64 3.96 11.77
5/13/2021 4:00:00 AM 7.51 45.518 0.026 6.65 3.67 11.79
5/13/2021 4:15:00 AM 7.45 45.41 0.026 6.64 3.62 11.81
5/13/2021 4:30:00 AM 7.41 45.338 0.026 6.65 4.01 11.82
5/13/2021 4:45:00 AM 7.36 45.248 0.026 6.64 3.67 11.84
5/13/2021 5:00:00 AM 7.32 45.176 0.026 6.66 3.9 11.85
5/13/2021 5:15:00 AM 7.28 45.104 0.026 6.65 3.54 11.86
5/13/2021 5:30:00 AM 7.24 45.032 0.026 6.65 3.76 11.87
5/13/2021 5:45:00 AM 7.19 44.942 0.026 6.66 3.63 11.89
5/13/2021 6:00:00 AM 7.16 44.888 0.026 6.66 3.4 11.9
5/13/2021 6:15:00 AM 7.13 44.834 0.026 6.66 3.6 11.92
5/13/2021 6:30:00 AM 7.09 44.762 0.026 6.68 3.68 11.93
5/13/2021 6:45:00 AM 7.06 44.708 0.026 6.68 3.63 11.95
5/13/2021 7:00:00 AM 7.04 44.672 0.026 6.66 3.64 11.97
5/13/2021 7:15:00 AM 7.01 44.618 0.026 6.67 3.66 11.98
5/13/2021 7:30:00 AM 7 44.6 0.026 6.68 3.7 11.99
5/13/2021 7:45:00 AM 6.99 44.582 0.026 6.68 3.74 12
5/13/2021 8:00:00 AM 7 44.6 0.026 6.7 3.8 12.01
5/13/2021 8:15:00 AM 7.03 44.654 0.026 6.71 3.65 12.01
5/13/2021 8:30:00 AM 7.06 44.708 0.026 6.69 3.69 12.01
5/13/2021 8:45:00 AM 7.1 44.78 0.026 6.69 3.63 12.01
5/13/2021 9:00:00 AM 7.16 44.888 0.026 6.7 3.37 12.01
5/13/2021 9:15:00 AM 7.23 45.014 0.026 6.71 3.61 12
5/13/2021 9:30:00 AM 7.31 45.158 0.026 6.72 3.53 11.98
5/13/2021 9:45:00 AM 7.42 45.356 0.026 6.73 3.57 11.97
5/13/2021 10:00:00 AM 7.54 45.572 0.026 6.73 3.55 11.94
5/13/2021 10:15:00 AM 7.67 45.806 0.026 6.73 3.68 11.91
5/13/2021 10:30:00 AM 7.82 46.076 0.026 6.73 3.62 11.89
5/13/2021 10:45:00 AM 7.94 46.292 0.026 6.72 3.73 11.85
5/13/2021 11:00:00 AM 8.08 46.544 0.026 6.74 3.92 11.82
5/13/2021 11:15:00 AM 8.22 46.796 0.026 6.75 3.55 11.79
5/13/2021 11:30:00 AM 8.31 46.958 0.026 6.73 3.75 11.74
5/13/2021 11:45:00 AM 8.53 47.354 0.026 6.73 3.72 11.73
5/13/2021 12:00:00 PM 8.66 47.588 0.026 6.74 3.61 11.68
5/13/2021 12:15:00 PM 8.77 47.786 0.026 6.75 3.61 11.63
5/13/2021 12:30:00 PM 8.93 48.074 0.026 6.74 3.72 11.6
5/13/2021 12:45:00 PM 8.9 48.02 0.026 6.71 3.8 11.54
5/13/2021 1:00:00 PM 9.14 48.452 0.026 6.74 3.76 11.54
5/13/2021 1:15:00 PM 9.24 48.632 0.026 6.72 3.73 11.49
5/13/2021 1:30:00 PM 9.45 49.01 0.026 6.73 3.74 11.45
5/13/2021 1:45:00 PM 9.5 49.1 0.026 6.72 3.55 11.41
5/13/2021 2:00:00 PM 9.5 49.1 0.026 6.71 3.58 11.35
5/13/2021 2:15:00 PM 9.5 49.1 0.026 6.7 3.84 11.35
5/13/2021 2:30:00 PM 9.54 49.172 0.026 6.71 3.67 11.36
5/13/2021 2:45:00 PM 9.59 49.262 0.026 6.72 3.82 11.38
5/13/2021 3:00:00 PM 9.65 49.37 0.026 6.71 3.65 11.38
5/13/2021 3:15:00 PM 9.71 49.478 0.026 6.73 3.59 11.35
5/13/2021 3:30:00 PM 9.72 49.496 0.026 6.72 4.16 11.33
5/13/2021 3:45:00 PM 9.71 49.478 0.026 6.71 3.71 11.32
5/13/2021 4:00:00 PM 9.73 49.514 0.026 6.71 3.85 11.31
5/13/2021 4:15:00 PM 9.75 49.55 0.026 6.72 3.7 11.29
5/13/2021 4:30:00 PM 9.75 49.55 0.026 6.71 3.56 11.27
5/13/2021 4:45:00 PM 9.75 49.55 0.026 6.72 3.57 11.26
5/13/2021 5:00:00 PM 9.75 49.55 0.026 6.7 3.59 11.25
5/13/2021 5:15:00 PM 9.75 49.55 0.026 6.69 3.55 11.24
5/13/2021 5:30:00 PM 9.76 49.568 0.026 6.71 3.57 11.24
5/13/2021 5:45:00 PM 9.75 49.55 0.026 6.68 3.75 11.22
5/13/2021 6:00:00 PM 9.74 49.532 0.026 6.67 3.64 11.21
5/13/2021 6:15:00 PM 9.73 49.514 0.026 6.67 3.83 11.21
5/13/2021 6:30:00 PM 9.73 49.514 0.026 6.67 3.67 11.2
5/13/2021 6:45:00 PM 9.71 49.478 0.026 6.67 3.67 11.2
5/13/2021 7:00:00 PM 9.69 49.442 0.026 6.69 3.61 11.19
5/13/2021 7:15:00 PM 9.68 49.424 0.026 6.67 3.91 11.19
5/13/2021 7:30:00 PM 9.66 49.388 0.026 6.66 3.8 11.19
5/13/2021 7:45:00 PM 9.63 49.334 0.026 6.66 3.73 11.2
5/13/2021 8:00:00 PM 9.6 49.28 0.027 6.65 3.55 11.2
5/13/2021 8:15:00 PM 9.56 49.208 0.026 6.64 3.9 11.2
5/13/2021 8:30:00 PM 9.53 49.154 0.026 6.63 3.58 11.2
5/13/2021 8:45:00 PM 9.49 49.082 0.026 6.65 3.73 11.21
5/13/2021 9:00:00 PM 9.44 48.992 0.026 6.63 3.76 11.22
5/13/2021 9:15:00 PM 9.39 48.902 0.026 6.63 3.79 11.23
5/13/2021 9:30:00 PM 9.34 48.812 0.026 6.65 3.55 11.25
5/13/2021 9:45:00 PM 9.28 48.704 0.026 6.64 3.71 11.27
5/13/2021 10:00:00 PM 9.22 48.596 0.026 6.64 3.5 11.28
5/13/2021 10:15:00 PM 9.17 48.506 0.026 6.66 3.51 11.3
5/13/2021 10:30:00 PM 9.11 48.398 0.026 6.66 3.74 11.32
5/13/2021 10:45:00 PM 9.05 48.29 0.026 6.64 3.6 11.34
5/13/2021 11:00:00 PM 8.98 48.164 0.026 6.65 3.88 11.36
5/13/2021 11:15:00 PM 8.92 48.056 0.026 6.66 3.66 11.38
5/13/2021 11:30:00 PM 8.87 47.966 0.026 6.64 3.75 11.39
5/13/2021 11:45:00 PM 8.81 47.858 0.026 6.65 3.73 11.41
5/14/2021 12:00:00 AM 8.76 47.768 0.026 6.65 3.6 11.42
5/14/2021 12:15:00 AM 8.7 47.66 0.026 6.66 3.66 11.43
5/14/2021 12:30:00 AM 8.64 47.552 0.026 6.65 3.59 11.45
5/14/2021 12:45:00 AM 8.59 47.462 0.026 6.64 3.69 11.47
5/14/2021 1:00:00 AM 8.53 47.354 0.026 6.64 3.64 11.48
5/14/2021 1:15:00 AM 8.48 47.264 0.026 6.62 3.68 11.5
5/14/2021 1:30:00 AM 8.43 47.174 0.026 6.64 3.61 11.52
5/14/2021 1:45:00 AM 8.37 47.066 0.026 6.64 3.7 11.53
5/14/2021 2:00:00 AM 8.32 46.976 0.026 6.65 3.57 11.55
5/14/2021 2:15:00 AM 8.27 46.886 0.027 6.65 3.52 11.56
5/14/2021 2:30:00 AM 8.22 46.796 0.026 6.67 3.68 11.57
5/14/2021 2:45:00 AM 8.17 46.706 0.026 6.65 3.77 11.59
5/14/2021 3:00:00 AM 8.12 46.616 0.026 6.67 3.84 11.6
5/14/2021 3:15:00 AM 8.07 46.526 0.026 6.67 3.59 11.62
5/14/2021 3:30:00 AM 8.02 46.436 0.026 6.67 3.66 11.63
5/14/2021 3:45:00 AM 7.97 46.346 0.026 6.67 3.66 11.64
5/14/2021 4:00:00 AM 7.93 46.274 0.026 6.67 3.7 11.66
5/14/2021 4:15:00 AM 7.88 46.184 0.026 6.67 3.64 11.67
5/14/2021 4:30:00 AM 7.83 46.094 0.026 6.67 3.63 11.69
5/14/2021 4:45:00 AM 7.79 46.022 0.026 6.65 3.53 11.71
5/14/2021 5:00:00 AM 7.74 45.932 0.026 6.66 3.83 11.72
5/14/2021 5:15:00 AM 7.7 45.86 0.026 6.66 3.57 11.73
5/14/2021 5:30:00 AM 7.66 45.788 0.026 6.66 3.49 11.74
5/14/2021 5:45:00 AM 7.62 45.716 0.026 6.67 3.57 11.76
5/14/2021 6:00:00 AM 7.58 45.644 0.026 6.66 3.62 11.77
5/14/2021 6:15:00 AM 7.54 45.572 0.026 6.66 3.6 11.78
5/14/2021 6:30:00 AM 7.51 45.518 0.026 6.65 3.53 11.8
5/14/2021 6:45:00 AM 7.48 45.464 0.026 6.67 3.56 11.81
5/14/2021 7:00:00 AM 7.45 45.41 0.026 6.67 3.54 11.83
5/14/2021 7:15:00 AM 7.42 45.356 0.026 6.66 3.46 11.85
5/14/2021 7:30:00 AM 7.4 45.32 0.026 6.66 3.51 11.86
5/14/2021 7:45:00 AM 7.39 45.302 0.026 6.69 3.45 11.87
5/14/2021 8:00:00 AM 7.39 45.302 0.026 6.69 3.54 11.88
5/14/2021 8:15:00 AM 7.4 45.32 0.026 6.7 3.52 11.89
5/14/2021 8:30:00 AM 7.43 45.374 0.026 6.7 3.55 11.89
5/14/2021 8:45:00 AM 7.46 45.428 0.026 6.7 3.46 11.9
5/14/2021 9:00:00 AM 7.51 45.518 0.026 6.71 3.58 11.9
5/14/2021 9:15:00 AM 7.57 45.626 0.026 6.71 3.52 11.88
5/14/2021 9:30:00 AM 7.65 45.77 0.026 6.71 3.47 11.87
5/14/2021 9:45:00 AM 7.73 45.914 0.026 6.73 3.53 11.86
5/14/2021 10:00:00 AM 7.84 46.112 0.026 6.74 3.78 11.84
5/14/2021 10:15:00 AM 7.95 46.31 0.026 6.74 3.44 11.82
5/14/2021 10:30:00 AM 8.09 46.562 0.026 6.75 3.45 11.79
5/14/2021 10:45:00 AM 8.23 46.814 0.026 6.74 3.55 11.76
5/14/2021 11:00:00 AM 8.34 47.012 0.026 6.74 3.52 11.73
5/14/2021 11:15:00 AM 8.5 47.3 0.026 6.74 3.51 11.69
5/14/2021 11:30:00 AM 8.56 47.408 0.026 6.75 3.53 11.64
5/14/2021 11:45:00 AM 8.64 47.552 0.026 6.73 3.55 11.61
5/14/2021 12:00:00 PM 8.92 48.056 0.026 6.74 3.46 11.59
5/14/2021 12:15:00 PM 9.01 48.218 0.026 6.72 3.67 11.54
5/14/2021 12:30:00 PM 9.05 48.29 0.026 6.71 3.54 11.53
5/14/2021 12:45:00 PM 9.22 48.596 0.026 6.76 3.64 11.53
5/14/2021 1:00:00 PM 9.27 48.686 0.026 6.74 3.68 11.51
5/14/2021 1:15:00 PM 9.18 48.524 0.026 6.72 3.55 11.49
5/14/2021 1:30:00 PM 9.16 48.488 0.026 6.72 3.64 11.48
5/14/2021 1:45:00 PM 9.18 48.524 0.026 6.72 3.51 11.48
5/14/2021 2:00:00 PM 9.18 48.524 0.026 6.74 3.46 11.48
5/14/2021 2:15:00 PM 9.21 48.578 0.026 6.73 3.55 11.47
5/14/2021 2:30:00 PM 9.26 48.668 0.026 6.74 3.9 11.47
5/14/2021 2:45:00 PM 9.32 48.776 0.026 6.73 3.48 11.46
5/14/2021 3:00:00 PM 9.39 48.902 0.026 6.73 3.53 11.45
5/14/2021 3:15:00 PM 9.46 49.028 0.026 6.75 3.54 11.41
5/14/2021 3:30:00 PM 9.51 49.118 0.026 6.73 3.48 11.39
5/14/2021 3:45:00 PM 9.52 49.136 0.026 6.74 3.53 11.37
5/14/2021 4:00:00 PM 9.55 49.19 0.026 6.72 3.51 11.35
5/14/2021 4:15:00 PM 9.59 49.262 0.026 6.72 3.58 11.34
5/14/2021 4:30:00 PM 9.66 49.388 0.026 6.74 3.52 11.33
5/14/2021 4:45:00 PM 9.72 49.496 0.026 6.74 3.53 11.31
5/14/2021 5:00:00 PM 9.73 49.514 0.026 6.73 3.47 11.3
5/14/2021 5:15:00 PM 9.73 49.514 0.026 6.71 3.68 11.29
5/14/2021 5:30:00 PM 9.73 49.514 0.026 6.72 3.62 11.26
5/14/2021 5:45:00 PM 9.73 49.514 0.026 6.7 3.5 11.25
5/14/2021 6:00:00 PM 9.76 49.568 0.026 6.7 3.66 11.24
5/14/2021 6:15:00 PM 9.79 49.622 0.026 6.71 3.62 11.22
5/14/2021 6:30:00 PM 9.82 49.676 0.026 6.7 3.67 11.21
5/14/2021 6:45:00 PM 9.83 49.694 0.026 6.7 3.75 11.2
5/14/2021 7:00:00 PM 9.84 49.712 0.026 6.69 3.62 11.18
5/14/2021 7:15:00 PM 9.84 49.712 0.026 6.69 3.48 11.17
5/14/2021 7:30:00 PM 9.83 49.694 0.026 6.67 3.48 11.16
5/14/2021 7:45:00 PM 9.83 49.694 0.026 6.67 3.59 11.15
5/14/2021 8:00:00 PM 9.81 49.658 0.026 6.67 3.52 11.14
5/14/2021 8:15:00 PM 9.79 49.622 0.026 6.67 3.49 11.13
5/14/2021 8:30:00 PM 9.77 49.586 0.027 6.66 3.56 11.13
5/14/2021 8:45:00 PM 9.74 49.532 0.027 6.66 3.73 11.14
5/14/2021 9:00:00 PM 9.71 49.478 0.027 6.65 3.64 11.14
5/14/2021 9:15:00 PM 9.67 49.406 0.027 6.67 3.8 11.15
5/14/2021 9:30:00 PM 9.63 49.334 0.027 6.67 3.72 11.17
5/14/2021 9:45:00 PM 9.59 49.262 0.027 6.66 3.93 11.18
5/14/2021 10:00:00 PM 9.54 49.172 0.027 6.64 3.75 11.19
5/14/2021 10:15:00 PM 9.5 49.1 0.027 6.65 3.64 11.2
5/14/2021 10:30:00 PM 9.45 49.01 0.027 6.68 3.69 11.21
5/14/2021 10:45:00 PM 9.4 48.92 0.027 6.66 3.84 11.22
5/14/2021 11:00:00 PM 9.35 48.83 0.027 6.66 3.86 11.24
5/14/2021 11:15:00 PM 9.3 48.74 0.027 6.67 3.65 11.25
5/14/2021 11:30:00 PM 9.25 48.65 0.027 6.66 3.82 11.27
5/14/2021 11:45:00 PM 9.2 48.56 0.027 6.65 3.7 11.28
5/15/2021 12:00:00 AM 9.14 48.452 0.027 6.66 3.86 11.29
5/15/2021 12:15:00 AM 9.09 48.362 0.027 6.68 3.79 11.31
5/15/2021 12:30:00 AM 9.04 48.272 0.027 6.68 3.69 11.32
5/15/2021 12:45:00 AM 9 48.2 0.027 6.68 3.65 11.34
5/15/2021 1:00:00 AM 8.96 48.128 0.027 6.68 3.62 11.35
5/15/2021 1:15:00 AM 8.93 48.074 0.027 6.68 3.8 11.36
5/15/2021 1:30:00 AM 8.89 48.002 0.027 6.67 3.72 11.37
5/15/2021 1:45:00 AM 8.85 47.93 0.027 6.68 3.96 11.38
5/15/2021 2:00:00 AM 8.82 47.876 0.027 6.66 3.64 11.39
5/15/2021 2:15:00 AM 8.78 47.804 0.027 6.65 3.67 11.4
5/15/2021 2:30:00 AM 8.74 47.732 0.027 6.68 3.54 11.41
5/15/2021 2:45:00 AM 8.71 47.678 0.027 6.69 3.65 11.42
5/15/2021 3:00:00 AM 8.67 47.606 0.027 6.65 3.55 11.43
5/15/2021 3:15:00 AM 8.64 47.552 0.027 6.68 3.71 11.44
5/15/2021 3:30:00 AM 8.6 47.48 0.027 6.68 3.71 11.45
5/15/2021 3:45:00 AM 8.56 47.408 0.027 6.68 3.88 11.46
5/15/2021 4:00:00 AM 8.52 47.336 0.027 6.67 3.64 11.48
5/15/2021 4:15:00 AM 8.49 47.282 0.027 6.66 3.8 11.49
5/15/2021 4:30:00 AM 8.45 47.21 0.027 6.66 3.75 11.5
5/15/2021 4:45:00 AM 8.41 47.138 0.027 6.66 3.6 11.51
5/15/2021 5:00:00 AM 8.37 47.066 0.027 6.65 3.83 11.52
5/15/2021 5:15:00 AM 8.34 47.012 0.027 6.68 3.86 11.53
5/15/2021 5:30:00 AM 8.31 46.958 0.027 6.68 3.68 11.54
5/15/2021 5:45:00 AM 8.27 46.886 0.027 6.68 3.58 11.55
5/15/2021 6:00:00 AM 8.23 46.814 0.027 6.68 3.69 11.57
5/15/2021 6:15:00 AM 8.2 46.76 0.027 6.68 3.68 11.58
5/15/2021 6:30:00 AM 8.17 46.706 0.028 6.68 5.39 11.6
5/15/2021 6:45:00 AM 8.14 46.652 0.027 6.7 3.73 11.62
5/15/2021 7:00:00 AM 8.11 46.598 0.027 6.69 3.65 11.63
5/15/2021 7:15:00 AM 8.08 46.544 0.027 6.69 3.63 11.64
5/15/2021 7:30:00 AM 8.07 46.526 0.027 6.71 3.48 11.65
5/15/2021 7:45:00 AM 8.06 46.508 0.027 6.71 3.47 11.67
5/15/2021 8:00:00 AM 8.06 46.508 0.027 6.72 3.54 11.67
5/15/2021 8:15:00 AM 8.07 46.526 0.027 6.71 3.58 11.69
5/15/2021 8:30:00 AM 8.09 46.562 0.027 6.72 3.46 11.69
5/15/2021 8:45:00 AM 8.12 46.616 0.027 6.72 3.5 11.7
5/15/2021 9:00:00 AM 8.16 46.688 0.026 6.71 3.58 11.69
5/15/2021 9:15:00 AM 8.21 46.778 0.027 6.73 3.45 11.69
5/15/2021 9:30:00 AM 8.28 46.904 0.026 6.73 3.5 11.68
5/15/2021 9:45:00 AM 8.35 47.03 0.026 6.74 3.54 11.67
5/15/2021 10:00:00 AM 8.44 47.192 0.026 6.72 3.45 11.66
5/15/2021 10:15:00 AM 8.54 47.372 0.026 6.74 3.47 11.64
5/15/2021 10:30:00 AM 8.66 47.588 0.026 6.75 3.56 11.62
5/15/2021 10:45:00 AM 8.79 47.822 0.026 6.76 3.58 11.6
5/15/2021 11:00:00 AM 8.93 48.074 0.026 6.77 3.52 11.57
5/15/2021 11:15:00 AM 9.08 48.344 0.026 6.76 3.75 11.54
5/15/2021 11:30:00 AM 9.28 48.704 0.026 6.77 3.61 11.52
5/15/2021 11:45:00 AM 9.32 48.776 0.026 6.76 3.61 11.45
5/15/2021 12:00:00 PM 9.36 48.848 0.026 6.74 3.69 11.4
5/15/2021 12:15:00 PM 9.4 48.92 0.026 6.74 3.63 11.37
5/15/2021 12:30:00 PM 9.45 49.01 0.026 6.71 3.86 11.33
5/15/2021 12:45:00 PM 9.48 49.064 0.026 6.7 3.68 11.31
5/15/2021 1:00:00 PM 9.51 49.118 0.026 6.7 3.73 11.3
5/15/2021 1:15:00 PM 9.53 49.154 0.026 6.71 3.64 11.31
5/15/2021 1:30:00 PM 9.56 49.208 0.026 6.71 3.71 11.32
5/15/2021 1:45:00 PM 9.59 49.262 0.026 6.73 3.58 11.33
5/15/2021 2:00:00 PM 9.64 49.352 0.026 6.73 3.59 11.35
5/15/2021 2:15:00 PM 9.68 49.424 0.026 6.75 3.74 11.36
5/15/2021 2:30:00 PM 9.72 49.496 0.026 6.75 3.65 11.36
5/15/2021 2:45:00 PM 9.77 49.586 0.026 6.77 3.52 11.35
5/15/2021 3:00:00 PM 9.88 49.784 0.026 6.78 3.61 11.33
5/15/2021 3:15:00 PM 9.97 49.946 0.026 6.77 3.55 11.29
5/15/2021 3:30:00 PM 10.05 50.09 0.026 6.77 3.53 11.26
5/15/2021 3:45:00 PM 10.1 50.18 0.026 6.77 3.62 11.24
5/15/2021 4:00:00 PM 10.16 50.288 0.026 6.77 3.51 11.23
5/15/2021 4:15:00 PM 10.19 50.342 0.026 6.76 3.53 11.19
5/15/2021 4:30:00 PM 10.21 50.378 0.026 6.76 3.75 11.18
5/15/2021 4:45:00 PM 10.23 50.414 0.026 6.77 3.64 11.17
5/15/2021 5:00:00 PM 10.24 50.432 0.026 6.74 3.57 11.15
5/15/2021 5:15:00 PM 10.25 50.45 0.026 6.74 3.57 11.13
5/15/2021 5:30:00 PM 10.26 50.468 0.026 6.74 3.61 11.12
5/15/2021 5:45:00 PM 10.27 50.486 0.026 6.74 3.69 11.11
5/15/2021 6:00:00 PM 10.28 50.504 0.026 6.7 3.59 11.1
5/15/2021 6:15:00 PM 10.27 50.486 0.026 6.7 3.59 11.08
5/15/2021 6:30:00 PM 10.26 50.468 0.026 6.7 3.59 11.07
5/15/2021 6:45:00 PM 10.25 50.45 0.027 6.68 3.49 11.07
5/15/2021 7:00:00 PM 10.24 50.432 0.027 6.69 3.63 11.07
5/15/2021 7:15:00 PM 10.23 50.414 0.027 6.69 3.55 11.06
5/15/2021 7:30:00 PM 10.21 50.378 0.027 6.68 3.49 11.05
5/15/2021 7:45:00 PM 10.19 50.342 0.027 6.67 3.61 11.04
5/15/2021 8:00:00 PM 10.17 50.306 0.027 6.66 3.55 11.03
5/15/2021 8:15:00 PM 10.14 50.252 0.027 6.66 3.68 11.03
5/15/2021 8:30:00 PM 10.11 50.198 0.027 6.66 3.62 11.03
5/15/2021 8:45:00 PM 10.08 50.144 0.027 6.64 3.59 11.04
5/15/2021 9:00:00 PM 10.04 50.072 0.027 6.67 3.63 11.04
5/15/2021 9:15:00 PM 10.01 50.018 0.027 6.67 3.59 11.05
5/15/2021 9:30:00 PM 9.98 49.964 0.027 6.68 3.54 11.05
5/15/2021 9:45:00 PM 9.95 49.91 0.027 6.67 3.66 11.06
5/15/2021 10:00:00 PM 9.91 49.838 0.027 6.66 3.87 11.08
5/15/2021 10:15:00 PM 9.87 49.766 0.027 6.67 4.3 11.08
5/15/2021 10:30:00 PM 9.83 49.694 0.027 6.69 3.6 11.1
5/15/2021 10:45:00 PM 9.79 49.622 0.027 6.69 3.63 11.11
5/15/2021 11:00:00 PM 9.74 49.532 0.027 6.69 3.69 11.12
5/15/2021 11:15:00 PM 9.7 49.46 0.027 6.67 3.66 11.13
5/15/2021 11:30:00 PM 9.65 49.37 0.027 6.68 3.77 11.15
5/15/2021 11:45:00 PM 9.61 49.298 0.027 6.68 3.69 11.16
5/16/2021 12:00:00 AM 9.56 49.208 0.027 6.67 3.75 11.17
5/16/2021 12:15:00 AM 9.52 49.136 0.027 6.67 3.73 11.18
5/16/2021 12:30:00 AM 9.49 49.082 0.027 6.66 3.58 11.19
5/16/2021 12:45:00 AM 9.45 49.01 0.027 6.67 3.66 11.2
5/16/2021 1:00:00 AM 9.41 48.938 0.027 6.67 3.72 11.22
5/16/2021 1:15:00 AM 9.38 48.884 0.027 6.69 3.65 11.23
5/16/2021 1:30:00 AM 9.35 48.83 0.027 6.68 3.57 11.23
5/16/2021 1:45:00 AM 9.32 48.776 0.027 6.68 3.71 11.24
5/16/2021 2:00:00 AM 9.29 48.722 0.027 6.7 3.68 11.25
5/16/2021 2:15:00 AM 9.26 48.668 0.027 6.68 3.8 11.25
5/16/2021 2:30:00 AM 9.23 48.614 0.027 6.69 3.83 11.26
5/16/2021 2:45:00 AM 9.19 48.542 0.027 6.68 3.93 11.28
5/16/2021 3:00:00 AM 9.16 48.488 0.027 6.67 3.65 11.28
5/16/2021 3:15:00 AM 9.12 48.416 0.027 6.68 4.18 11.29
5/16/2021 3:30:00 AM 9.09 48.362 0.027 6.67 3.83 11.3
5/16/2021 3:45:00 AM 9.05 48.29 0.027 6.68 3.68 11.31
5/16/2021 4:00:00 AM 9.01 48.218 0.027 6.7 3.7 11.33
5/16/2021 4:15:00 AM 8.97 48.146 0.027 6.7 3.56 11.33
5/16/2021 4:30:00 AM 8.93 48.074 0.027 6.7 3.83 11.34
5/16/2021 4:45:00 AM 8.89 48.002 0.027 6.69 3.78 11.36
5/16/2021 5:00:00 AM 8.85 47.93 0.027 6.68 3.79 11.37
5/16/2021 5:15:00 AM 8.81 47.858 0.027 6.69 3.55 11.38
5/16/2021 5:30:00 AM 8.77 47.786 0.027 6.69 3.57 11.39
5/16/2021 5:45:00 AM 8.73 47.714 0.027 6.69 4.01 11.4
5/16/2021 6:00:00 AM 8.7 47.66 0.027 6.69 3.59 11.42
5/16/2021 6:15:00 AM 8.67 47.606 0.027 6.7 3.67 11.43
5/16/2021 6:30:00 AM 8.64 47.552 0.027 6.68 3.7 11.45
5/16/2021 6:45:00 AM 8.62 47.516 0.027 6.69 3.63 11.47
5/16/2021 7:00:00 AM 8.6 47.48 0.027 6.7 3.67 11.49
5/16/2021 7:15:00 AM 8.58 47.444 0.027 6.72 3.46 11.5
5/16/2021 7:30:00 AM 8.58 47.444 0.027 6.73 3.76 11.52
5/16/2021 7:45:00 AM 8.59 47.462 0.027 6.73 3.76 11.53
5/16/2021 8:00:00 AM 8.59 47.462 0.027 6.73 3.56 11.53
5/16/2021 8:15:00 AM 8.6 47.48 0.027 6.7 3.51 11.53
5/16/2021 8:30:00 AM 8.6 47.48 0.027 6.73 3.7 11.52
5/16/2021 8:45:00 AM 8.62 47.516 0.027 6.71 3.57 11.53
5/16/2021 9:00:00 AM 8.64 47.552 0.027 6.72 3.51 11.53
5/16/2021 9:15:00 AM 8.67 47.606 0.027 6.73 3.62 11.56
5/16/2021 9:30:00 AM 8.71 47.678 0.027 6.73 3.53 11.57
5/16/2021 9:45:00 AM 8.76 47.768 0.027 6.75 3.54 11.57
5/16/2021 10:00:00 AM 8.81 47.858 0.027 6.75 3.7 11.56
5/16/2021 10:15:00 AM 8.86 47.948 0.027 6.78 3.55 11.56
5/16/2021 10:30:00 AM 8.93 48.074 0.027 6.77 3.56 11.56
5/16/2021 10:45:00 AM 8.99 48.182 0.027 6.76 3.49 11.55
5/16/2021 11:00:00 AM 9.05 48.29 0.026 6.77 3.39 11.53
5/16/2021 11:15:00 AM 9.13 48.434 0.026 6.78 3.48 11.53
5/16/2021 11:30:00 AM 9.22 48.596 0.026 6.76 4.36 11.51
5/16/2021 11:45:00 AM 9.32 48.776 0.026 6.78 3.57 11.5
5/16/2021 12:00:00 PM 9.4 48.92 0.026 6.79 3.48 11.47
5/16/2021 12:15:00 PM 9.48 49.064 0.026 6.78 3.6 11.44
5/16/2021 12:30:00 PM 9.54 49.172 0.026 6.79 3.63 11.42
5/16/2021 12:45:00 PM 9.59 49.262 0.026 6.79 3.51 11.4
5/16/2021 1:00:00 PM 9.63 49.334 0.026 6.76 3.61 11.37
5/16/2021 1:15:00 PM 9.68 49.424 0.026 6.77 3.61 11.34
5/16/2021 1:30:00 PM 9.72 49.496 0.026 6.78 3.46 11.32
5/16/2021 1:45:00 PM 9.77 49.586 0.026 6.77 3.45 11.32
5/16/2021 2:00:00 PM 9.86 49.748 0.026 6.79 3.57 11.32
5/16/2021 2:15:00 PM 9.92 49.856 0.026 6.79 3.51 11.31
5/16/2021 2:30:00 PM 9.96 49.928 0.026 6.78 3.47 11.29
5/16/2021 2:45:00 PM 9.99 49.982 0.026 6.78 3.52 11.28
5/16/2021 3:00:00 PM 10.03 50.054 0.026 6.78 3.46 11.27
5/16/2021 3:15:00 PM 10.06 50.108 0.026 6.77 3.46 11.26
5/16/2021 3:30:00 PM 10.09 50.162 0.026 6.77 3.44 11.24
5/16/2021 3:45:00 PM 10.11 50.198 0.026 6.79 3.44 11.23
5/16/2021 4:00:00 PM 10.14 50.252 0.026 6.78 3.39 11.21
5/16/2021 4:15:00 PM 10.17 50.306 0.026 6.78 3.38 11.2
5/16/2021 4:30:00 PM 10.2 50.36 0.026 6.77 3.61 11.18
5/16/2021 4:45:00 PM 10.22 50.396 0.026 6.77 3.48 11.16
5/16/2021 5:00:00 PM 10.23 50.414 0.026 6.78 3.48 11.15
5/16/2021 5:15:00 PM 10.24 50.432 0.026 6.76 3.56 11.12
5/16/2021 5:30:00 PM 10.25 50.45 0.026 6.75 3.52 11.11
5/16/2021 5:45:00 PM 10.25 50.45 0.027 6.75 3.49 11.09
5/16/2021 6:00:00 PM 10.24 50.432 0.027 6.74 3.48 11.09
5/16/2021 6:15:00 PM 10.22 50.396 0.027 6.74 3.52 11.07
5/16/2021 6:30:00 PM 10.21 50.378 0.027 6.73 3.63 11.06
5/16/2021 6:45:00 PM 10.2 50.36 0.027 6.73 3.62 11.06
5/16/2021 7:00:00 PM 10.2 50.36 0.027 6.71 3.66 11.06
5/16/2021 7:15:00 PM 10.2 50.36 0.027 6.71 3.5 11.07
5/16/2021 7:30:00 PM 10.2 50.36 0.027 6.71 3.47 11.06
5/16/2021 7:45:00 PM 10.18 50.324 0.027 6.7 3.49 11.05
5/16/2021 8:00:00 PM 10.16 50.288 0.027 6.7 3.59 11.04
5/16/2021 8:15:00 PM 10.14 50.252 0.027 6.71 3.51 11.04
5/16/2021 8:30:00 PM 10.12 50.216 0.027 6.7 3.58 11.04
5/16/2021 8:45:00 PM 10.1 50.18 0.027 6.71 3.52 11.03
5/16/2021 9:00:00 PM 10.07 50.126 0.027 6.71 3.56 11.04
5/16/2021 9:15:00 PM 10.04 50.072 0.027 6.7 3.75 11.05
5/16/2021 9:30:00 PM 10.01 50.018 0.027 6.7 3.75 11.05
5/16/2021 9:45:00 PM 9.97 49.946 0.027 6.7 3.62 11.06
5/16/2021 10:00:00 PM 9.94 49.892 0.027 6.69 3.75 11.07
5/16/2021 10:15:00 PM 9.91 49.838 0.027 6.7 3.64 11.08
5/16/2021 10:30:00 PM 9.88 49.784 0.027 6.7 3.68 11.09
5/16/2021 10:45:00 PM 9.85 49.73 0.027 6.68 3.62 11.1
5/16/2021 11:00:00 PM 9.81 49.658 0.027 6.67 3.63 11.11
5/16/2021 11:15:00 PM 9.77 49.586 0.027 6.66 3.64 11.13
5/16/2021 11:30:00 PM 9.72 49.496 0.027 6.65 3.59 11.14
5/16/2021 11:45:00 PM 9.68 49.424 0.027 6.69 3.65 11.14
5/17/2021 12:00:00 AM 9.65 49.37 0.027 6.69 3.65 11.16
5/17/2021 12:15:00 AM 9.61 49.298 0.027 6.71 3.74 11.17
5/17/2021 12:30:00 AM 9.57 49.226 0.027 6.7 3.74 11.18
5/17/2021 12:45:00 AM 9.53 49.154 0.027 6.7 3.78 11.19
5/17/2021 1:00:00 AM 9.48 49.064 0.027 6.68 3.61 11.2
5/17/2021 1:15:00 AM 9.44 48.992 0.027 6.7 3.7 11.21
5/17/2021 1:30:00 AM 9.4 48.92 0.027 6.7 3.61 11.22
5/17/2021 1:45:00 AM 9.36 48.848 0.027 6.69 3.65 11.23
5/17/2021 2:00:00 AM 9.31 48.758 0.027 6.69 3.7 11.25
5/17/2021 2:15:00 AM 9.27 48.686 0.027 6.7 3.64 11.26
5/17/2021 2:30:00 AM 9.23 48.614 0.027 6.69 3.68 11.27
5/17/2021 2:45:00 AM 9.19 48.542 0.027 6.7 3.69 11.28
5/17/2021 3:00:00 AM 9.14 48.452 0.027 6.69 3.72 11.29
5/17/2021 3:15:00 AM 9.1 48.38 0.027 6.72 3.68 11.31
5/17/2021 3:30:00 AM 9.06 48.308 0.027 6.71 3.6 11.31
5/17/2021 3:45:00 AM 9.01 48.218 0.027 6.68 3.66 11.33
5/17/2021 4:00:00 AM 8.97 48.146 0.027 6.7 3.72 11.34
5/17/2021 4:15:00 AM 8.93 48.074 0.027 6.71 3.63 11.35
5/17/2021 4:30:00 AM 8.88 47.984 0.027 6.7 3.71 11.36
5/17/2021 4:45:00 AM 8.84 47.912 0.027 6.7 3.64 11.37
5/17/2021 5:00:00 AM 8.8 47.84 0.027 6.71 3.73 11.39
5/17/2021 5:15:00 AM 8.76 47.768 0.027 6.72 3.84 11.41
5/17/2021 5:30:00 AM 8.72 47.696 0.027 6.72 3.74 11.41
5/17/2021 5:45:00 AM 8.68 47.624 0.027 6.71 3.71 11.42
5/17/2021 6:00:00 AM 8.64 47.552 0.027 6.72 3.74 11.44
5/17/2021 6:15:00 AM 8.6 47.48 0.027 6.72 3.63 11.45
5/17/2021 6:30:00 AM 8.56 47.408 0.027 6.73 3.57 11.47
5/17/2021 6:45:00 AM 8.52 47.336 0.027 6.73 3.59 11.49
5/17/2021 7:00:00 AM 8.49 47.282 0.027 6.72 3.67 11.51
5/17/2021 7:15:00 AM 8.46 47.228 0.027 6.74 3.54 11.53
5/17/2021 7:30:00 AM 8.43 47.174 0.027 6.73 3.54 11.54
5/17/2021 7:45:00 AM 8.42 47.156 0.027 6.73 3.77 11.56
5/17/2021 8:00:00 AM 8.42 47.156 0.027 6.75 3.46 11.57
5/17/2021 8:15:00 AM 8.43 47.174 0.027 6.74 3.41 11.58
5/17/2021 8:30:00 AM 8.45 47.21 0.027 6.75 3.59 11.58
5/17/2021 8:45:00 AM 8.47 47.246 0.027 6.76 3.7 11.59
5/17/2021 9:00:00 AM 8.51 47.318 0.027 6.72 3.57 11.59
5/17/2021 9:15:00 AM 8.56 47.408 0.027 6.77 3.52 11.58
5/17/2021 9:30:00 AM 8.61 47.498 0.027 6.76 3.59 11.58
5/17/2021 9:45:00 AM 8.68 47.624 0.027 6.76 3.57 11.57
5/17/2021 10:00:00 AM 8.76 47.768 0.027 6.78 3.6 11.56
5/17/2021 10:15:00 AM 8.85 47.93 0.027 6.79 3.55 11.54
5/17/2021 10:30:00 AM 8.96 48.128 0.027 6.78 3.55 11.53
5/17/2021 10:45:00 AM 9.07 48.326 0.027 6.78 3.5 11.51
5/17/2021 11:00:00 AM 9.2 48.56 0.027 6.78 3.55 11.49
5/17/2021 11:15:00 AM 9.33 48.794 0.027 6.79 3.62 11.46
5/17/2021 11:30:00 AM 9.48 49.064 0.027 6.79 3.52 11.43
5/17/2021 11:45:00 AM 9.63 49.334 0.027 6.79 3.64 11.4
5/17/2021 12:00:00 PM 9.8 49.64 0.027 6.76 3.64 11.36
5/17/2021 12:15:00 PM 9.99 49.982 0.027 6.81 3.6 11.32
5/17/2021 12:30:00 PM 10.17 50.306 0.026 6.8 3.52 11.28
5/17/2021 12:45:00 PM 10.37 50.666 0.026 6.79 3.52 11.23
5/17/2021 1:00:00 PM 10.56 51.008 0.026 6.81 3.49 11.19
5/17/2021 1:15:00 PM 10.74 51.332 0.026 6.8 3.67 11.14
5/17/2021 1:30:00 PM 10.91 51.638 0.026 6.79 3.59 11.1
5/17/2021 1:45:00 PM 11.07 51.926 0.026 6.8 3.45 11.05
5/17/2021 2:00:00 PM 11.2 52.16 0.026 6.8 3.59 11
5/17/2021 2:15:00 PM 11.31 52.358 0.026 6.8 3.51 10.96
5/17/2021 2:30:00 PM 11.41 52.538 0.027 6.8 3.51 10.93
5/17/2021 2:45:00 PM 11.47 52.646 0.026 6.8 3.49 10.9
5/17/2021 3:00:00 PM 11.52 52.736 0.026 6.78 3.6 10.88
5/17/2021 3:15:00 PM 11.54 52.772 0.026 6.75 3.44 10.85
5/17/2021 3:30:00 PM 11.51 52.718 0.027 6.74 3.55 10.83
5/17/2021 3:45:00 PM 11.49 52.682 0.027 6.73 3.45 10.83
5/17/2021 4:00:00 PM 11.51 52.718 0.027 6.78 3.59 10.84
5/17/2021 4:15:00 PM 11.49 52.682 0.027 6.77 3.53 10.83
5/17/2021 4:30:00 PM 11.45 52.61 0.027 6.76 3.53 10.81
5/17/2021 4:45:00 PM 11.41 52.538 0.027 6.77 3.46 10.82
5/17/2021 5:00:00 PM 11.38 52.484 0.027 6.77 3.52 10.81
5/17/2021 5:15:00 PM 11.35 52.43 0.027 6.76 3.44 10.81
5/17/2021 5:30:00 PM 11.33 52.394 0.027 6.74 3.47 10.8
5/17/2021 5:45:00 PM 11.32 52.376 0.027 6.76 3.46 10.79
5/17/2021 6:00:00 PM 11.31 52.358 0.027 6.76 3.52 10.78
5/17/2021 6:15:00 PM 11.31 52.358 0.027 6.74 3.4 10.77
5/17/2021 6:30:00 PM 11.31 52.358 0.027 6.73 3.51 10.77
5/17/2021 6:45:00 PM 11.3 52.34 0.027 6.75 3.49 10.76
5/17/2021 7:00:00 PM 11.29 52.322 0.027 6.73 3.53 10.75
5/17/2021 7:15:00 PM 11.28 52.304 0.027 6.71 3.52 10.75
5/17/2021 7:30:00 PM 11.26 52.268 0.027 6.73 3.51 10.75
5/17/2021 7:45:00 PM 11.24 52.232 0.027 6.7 3.6 10.75
5/17/2021 8:00:00 PM 11.22 52.196 0.027 6.72 3.52 10.74
5/17/2021 8:15:00 PM 11.2 52.16 0.027 6.71 3.54 10.74
5/17/2021 8:30:00 PM 11.18 52.124 0.027 6.73 3.59 10.74
5/17/2021 8:45:00 PM 11.15 52.07 0.027 6.7 3.54 10.75
5/17/2021 9:00:00 PM 11.12 52.016 0.027 6.72 3.69 10.76
5/17/2021 9:15:00 PM 11.08 51.944 0.027 6.72 3.72 10.77
5/17/2021 9:30:00 PM 11.05 51.89 0.027 6.7 3.69 10.77
5/17/2021 9:45:00 PM 11.01 51.818 0.027 6.73 3.59 10.78
5/17/2021 10:00:00 PM 10.97 51.746 0.027 6.72 3.68 10.79
5/17/2021 10:15:00 PM 10.93 51.674 0.027 6.72 3.57 10.81
5/17/2021 10:30:00 PM 10.88 51.584 0.027 6.72 3.83 10.82
5/17/2021 10:45:00 PM 10.83 51.494 0.027 6.72 3.55 10.84
5/17/2021 11:00:00 PM 10.78 51.404 0.027 6.7 3.61 10.85
5/17/2021 11:15:00 PM 10.73 51.314 0.027 6.67 3.59 10.86
5/17/2021 11:30:00 PM 10.68 51.224 0.027 6.68 3.6 10.88
5/17/2021 11:45:00 PM 10.64 51.152 0.027 6.7 3.66 10.88
5/18/2021 12:00:00 AM 10.59 51.062 0.027 6.7 3.67 10.9
5/18/2021 12:15:00 AM 10.55 50.99 0.027 6.71 3.71 10.9
5/18/2021 12:30:00 AM 10.5 50.9 0.027 6.71 3.62 10.92
5/18/2021 12:45:00 AM 10.45 50.81 0.027 6.69 3.71 10.93
5/18/2021 1:00:00 AM 10.4 50.72 0.027 6.71 3.64 10.95
5/18/2021 1:15:00 AM 10.35 50.63 0.027 6.71 3.62 10.96
5/18/2021 1:30:00 AM 10.3 50.54 0.027 6.7 3.62 10.98
5/18/2021 1:45:00 AM 10.25 50.45 0.027 6.71 3.59 10.99
5/18/2021 2:00:00 AM 10.19 50.342 0.027 6.71 3.69 11
5/18/2021 2:15:00 AM 10.14 50.252 0.027 6.72 3.54 11.02
5/18/2021 2:30:00 AM 10.09 50.162 0.027 6.72 3.62 11.04
5/18/2021 2:45:00 AM 10.04 50.072 0.027 6.71 3.71 11.05
5/18/2021 3:00:00 AM 9.99 49.982 0.027 6.71 3.61 11.06
5/18/2021 3:15:00 AM 9.94 49.892 0.027 6.71 3.66 11.08
5/18/2021 3:30:00 AM 9.89 49.802 0.027 6.72 3.7 11.09
5/18/2021 3:45:00 AM 9.85 49.73 0.027 6.72 3.59 11.1
5/18/2021 4:00:00 AM 9.8 49.64 0.027 6.7 3.61 11.11
5/18/2021 4:15:00 AM 9.75 49.55 0.027 6.71 3.62 11.13
5/18/2021 4:30:00 AM 9.71 49.478 0.027 6.72 3.59 11.14
5/18/2021 4:45:00 AM 9.66 49.388 0.027 6.74 3.55 11.16
5/18/2021 5:00:00 AM 9.62 49.316 0.027 6.7 3.52 11.17
5/18/2021 5:15:00 AM 9.57 49.226 0.027 6.74 3.57 11.18
5/18/2021 5:30:00 AM 9.53 49.154 0.027 6.74 3.62 11.19
5/18/2021 5:45:00 AM 9.49 49.082 0.027 6.74 3.59 11.2
5/18/2021 6:00:00 AM 9.44 48.992 0.027 6.73 3.59 11.22
5/18/2021 6:15:00 AM 9.4 48.92 0.027 6.74 3.62 11.24
5/18/2021 6:30:00 AM 9.36 48.848 0.027 6.75 3.56 11.25
5/18/2021 6:45:00 AM 9.32 48.776 0.027 6.74 3.56 11.27
5/18/2021 7:00:00 AM 9.29 48.722 0.027 6.74 3.68 11.29
5/18/2021 7:15:00 AM 9.26 48.668 0.027 6.73 3.64 11.3
5/18/2021 7:30:00 AM 9.24 48.632 0.027 6.74 3.51 11.32
5/18/2021 7:45:00 AM 9.23 48.614 0.027 6.73 3.53 11.33
5/18/2021 8:00:00 AM 9.22 48.596 0.027 6.76 3.66 11.35
5/18/2021 8:15:00 AM 9.22 48.596 0.027 6.78 3.46 11.36
5/18/2021 8:30:00 AM 9.24 48.632 0.027 6.77 3.61 11.36
5/18/2021 8:45:00 AM 9.26 48.668 0.027 6.75 3.51 11.37
5/18/2021 9:00:00 AM 9.29 48.722 0.027 6.76 3.48 11.37
5/18/2021 9:15:00 AM 9.33 48.794 0.027 6.73 3.49 11.37
5/18/2021 9:30:00 AM 9.37 48.866 0.027 6.74 3.47 11.37
5/18/2021 9:45:00 AM 9.43 48.974 0.027 6.79 3.57 11.36
5/18/2021 10:00:00 AM 9.5 49.1 0.027 6.79 3.56 11.36
5/18/2021 10:15:00 AM 9.58 49.244 0.027 6.8 3.51 11.35
5/18/2021 10:30:00 AM 9.67 49.406 0.027 6.77 3.58 11.34
5/18/2021 10:45:00 AM 9.78 49.604 0.027 6.82 3.57 11.32
5/18/2021 11:00:00 AM 9.9 49.82 0.027 6.8 3.45 11.3
5/18/2021 11:15:00 AM 10.03 50.054 0.027 6.83 3.49 11.28
5/18/2021 11:30:00 AM 10.14 50.252 0.027 6.8 3.49 11.25
5/18/2021 11:45:00 AM 10.25 50.45 0.027 6.83 3.64 11.24
5/18/2021 12:00:00 PM 10.37 50.666 0.027 6.8 3.56 11.21
5/18/2021 12:15:00 PM 10.49 50.882 0.027 6.83 3.56 11.18
5/18/2021 12:30:00 PM 10.75 51.35 0.027 6.84 3.48 11.15
5/18/2021 12:45:00 PM 10.82 51.476 0.027 6.83 3.51 11.09
5/18/2021 1:00:00 PM 10.96 51.728 0.027 6.81 3.4 11.05
5/18/2021 1:15:00 PM 11.15 52.07 0.027 6.83 3.45 11.03
5/18/2021 1:30:00 PM 11.19 52.142 0.027 6.83 3.4 10.98
5/18/2021 1:45:00 PM 11.32 52.376 0.027 6.79 3.5 10.96
5/18/2021 2:00:00 PM 11.43 52.574 0.027 6.81 3.45 10.92
5/18/2021 2:15:00 PM 11.46 52.628 0.027 6.8 3.49 10.87
5/18/2021 2:30:00 PM 11.49 52.682 0.027 6.78 3.66 10.86
5/18/2021 2:45:00 PM 11.52 52.736 0.027 6.8 3.53 10.84
5/18/2021 3:00:00 PM 11.59 52.862 0.027 6.78 3.66 10.84
5/18/2021 3:15:00 PM 11.66 52.988 0.027 6.81 3.56 10.83
5/18/2021 3:30:00 PM 11.74 53.132 0.027 6.82 3.56 10.82
5/18/2021 3:45:00 PM 11.81 53.258 0.027 6.83 3.37 10.81
5/18/2021 4:00:00 PM 11.84 53.312 0.027 6.82 3.5 10.77
5/18/2021 4:15:00 PM 11.85 53.33 0.027 6.81 3.39 10.74
5/18/2021 4:30:00 PM 11.91 53.438 0.027 6.8 3.36 10.73
5/18/2021 4:45:00 PM 11.95 53.51 0.027 6.81 3.48 10.72
5/18/2021 5:00:00 PM 11.97 53.546 0.027 6.8 3.42 10.7
5/18/2021 5:15:00 PM 11.98 53.564 0.027 6.8 3.44 10.67
5/18/2021 5:30:00 PM 11.95 53.51 0.027 6.79 3.43 10.65
5/18/2021 5:45:00 PM 11.93 53.474 0.027 6.73 3.47 10.64
5/18/2021 6:00:00 PM 11.91 53.438 0.027 6.75 3.43 10.62
5/18/2021 6:15:00 PM 11.9 53.42 0.027 6.73 3.45 10.63
5/18/2021 6:30:00 PM 11.89 53.402 0.027 6.75 3.54 10.62
5/18/2021 6:45:00 PM 11.85 53.33 0.027 6.74 3.5 10.62
5/18/2021 7:00:00 PM 11.8 53.24 0.027 6.74 3.36 10.63
5/18/2021 7:15:00 PM 11.75 53.15 0.027 6.69 3.39 10.63
5/18/2021 7:30:00 PM 11.71 53.078 0.027 6.72 3.41 10.63
5/18/2021 7:45:00 PM 11.68 53.024 0.027 6.74 3.5 10.63
5/18/2021 8:00:00 PM 11.67 53.006 0.027 6.73 3.68 10.63
5/18/2021 8:15:00 PM 11.65 52.97 0.027 6.74 3.5 10.63
5/18/2021 8:30:00 PM 11.63 52.934 0.027 6.72 3.52 10.63
5/18/2021 8:45:00 PM 11.62 52.916 0.027 6.72 3.36 10.62
5/18/2021 9:00:00 PM 11.6 52.88 0.027 6.71 3.62 10.62
5/18/2021 9:15:00 PM 11.58 52.844 0.027 6.71 3.59 10.63
5/18/2021 9:30:00 PM 11.56 52.808 0.027 6.74 3.59 10.63
5/18/2021 9:45:00 PM 11.53 52.754 0.027 6.72 3.46 10.63
5/18/2021 10:00:00 PM 11.51 52.718 0.027 6.71 3.43 10.64
5/18/2021 10:15:00 PM 11.48 52.664 0.027 6.71 3.54 10.65
5/18/2021 10:30:00 PM 11.44 52.592 0.027 6.72 3.61 10.66
5/18/2021 10:45:00 PM 11.4 52.52 0.027 6.69 3.66 10.67
5/18/2021 11:00:00 PM 11.35 52.43 0.027 6.74 3.52 10.69
5/18/2021 11:15:00 PM 11.3 52.34 0.027 6.73 3.54 10.7
5/18/2021 11:30:00 PM 11.24 52.232 0.027 6.72 3.55 10.72
5/18/2021 11:45:00 PM 11.19 52.142 0.027 6.72 3.62 10.73
5/19/2021 12:00:00 AM 11.14 52.052 0.027 6.69 3.45 10.75
5/19/2021 12:15:00 AM 11.09 51.962 0.027 6.7 3.52 10.76
5/19/2021 12:30:00 AM 11.03 51.854 0.027 6.73 3.5 10.78
5/19/2021 12:45:00 AM 10.98 51.764 0.027 6.74 3.55 10.79
5/19/2021 1:00:00 AM 10.93 51.674 0.027 6.73 3.53 10.8
5/19/2021 1:15:00 AM 10.88 51.584 0.027 6.72 3.63 10.82
5/19/2021 1:30:00 AM 10.82 51.476 0.027 6.73 3.5 10.83
5/19/2021 1:45:00 AM 10.78 51.404 0.027 6.73 3.57 10.84
5/19/2021 2:00:00 AM 10.73 51.314 0.027 6.74 3.51 10.85
5/19/2021 2:15:00 AM 10.68 51.224 0.027 6.71 3.52 10.86
5/19/2021 2:30:00 AM 10.63 51.134 0.027 6.74 3.61 10.88
5/19/2021 2:45:00 AM 10.59 51.062 0.027 6.73 3.73 10.88
5/19/2021 3:00:00 AM 10.54 50.972 0.027 6.72 3.61 10.9
5/19/2021 3:15:00 AM 10.49 50.882 0.027 6.73 3.65 10.91
5/19/2021 3:30:00 AM 10.45 50.81 0.027 6.72 3.64 10.93
5/19/2021 3:45:00 AM 10.4 50.72 0.027 6.74 3.54 10.94
5/19/2021 4:00:00 AM 10.36 50.648 0.027 6.75 3.61 10.95
5/19/2021 4:15:00 AM 10.32 50.576 0.027 6.71 3.53 10.96
5/19/2021 4:30:00 AM 10.27 50.486 0.027 6.73 3.68 10.98
5/19/2021 4:45:00 AM 10.23 50.414 0.027 6.73 3.56 10.99
5/19/2021 5:00:00 AM 10.19 50.342 0.027 6.76 3.71 11
5/19/2021 5:15:00 AM 10.14 50.252 0.027 6.76 3.9 11.02
5/19/2021 5:30:00 AM 10.1 50.18 0.027 6.76 3.61 11.03
5/19/2021 5:45:00 AM 10.06 50.108 0.027 6.76 3.75 11.04
5/19/2021 6:00:00 AM 10.02 50.036 0.027 6.75 3.61 11.06
5/19/2021 6:15:00 AM 9.98 49.964 0.027 6.76 3.6 11.07
5/19/2021 6:30:00 AM 9.94 49.892 0.027 6.77 3.61 11.08
5/19/2021 6:45:00 AM 9.91 49.838 0.027 6.76 3.6 11.1
5/19/2021 7:00:00 AM 9.88 49.784 0.027 6.77 3.74 11.12
5/19/2021 7:15:00 AM 9.86 49.748 0.027 6.79 3.52 11.13
5/19/2021 7:30:00 AM 9.84 49.712 0.027 6.77 3.55 11.15
5/19/2021 7:45:00 AM 9.83 49.694 0.027 6.77 3.56 11.16
5/19/2021 8:00:00 AM 9.83 49.694 0.027 6.79 3.47 11.17
5/19/2021 8:15:00 AM 9.83 49.694 0.027 6.77 3.59 11.18
5/19/2021 8:30:00 AM 9.84 49.712 0.027 6.79 3.48 11.19
5/19/2021 8:45:00 AM 9.86 49.748 0.027 6.78 3.45 11.19
5/19/2021 9:00:00 AM 9.89 49.802 0.027 6.78 3.49 11.19
5/19/2021 9:15:00 AM 9.93 49.874 0.027 6.79 3.57 11.19
5/19/2021 9:30:00 AM 9.97 49.946 0.027 6.79 3.6 11.2
5/19/2021 9:45:00 AM 10.02 50.036 0.027 6.79 3.43 11.19
5/19/2021 10:00:00 AM 10.08 50.144 0.027 6.8 3.37 11.19
5/19/2021 10:15:00 AM 10.16 50.288 0.027 6.79 3.45 11.18
5/19/2021 10:30:00 AM 10.24 50.432 0.027 6.82 3.5 11.17
5/19/2021 10:45:00 AM 10.35 50.63 0.027 6.81 3.5 11.15
5/19/2021 11:00:00 AM 10.46 50.828 0.027 6.82 3.44 11.14
5/19/2021 11:15:00 AM 10.58 51.044 0.027 6.83 3.43 11.12
5/19/2021 11:30:00 AM 10.72 51.296 0.027 6.83 3.58 11.09
5/19/2021 11:45:00 AM 10.88 51.584 0.027 6.85 3.39 11.07
5/19/2021 12:00:00 PM 11.03 51.854 0.027 6.84 3.47 11.03
5/19/2021 12:15:00 PM 11.22 52.196 0.027 6.83 3.5 11
5/19/2021 12:30:00 PM 11.41 52.538 0.027 6.84 3.34 10.96
5/19/2021 12:45:00 PM 11.61 52.898 0.027 6.86 3.51 10.91
5/19/2021 1:00:00 PM 11.81 53.258 0.027 6.85 3.58 10.87
5/19/2021 1:15:00 PM 12.01 53.618 0.027 6.85 3.58 10.82
5/19/2021 1:30:00 PM 12.19 53.942 0.027 6.83 3.46 10.77
5/19/2021 1:45:00 PM 12.37 54.266 0.027 6.82 3.62 10.73
5/19/2021 2:00:00 PM 12.48 54.464 0.027 6.81 3.46 10.68
5/19/2021 2:15:00 PM 12.63 54.734 0.027 6.84 3.4 10.64
5/19/2021 2:30:00 PM 12.73 54.914 0.027 6.83 3.43 10.6
5/19/2021 2:45:00 PM 12.71 54.878 0.027 6.82 3.48 10.54
5/19/2021 3:00:00 PM 12.68 54.824 0.027 6.79 3.42 10.51
5/19/2021 3:15:00 PM 12.69 54.842 0.027 6.79 3.47 10.53
5/19/2021 3:30:00 PM 12.7 54.86 0.027 6.82 3.46 10.54
5/19/2021 3:45:00 PM 12.77 54.986 0.027 6.8 3.47 10.54
5/19/2021 4:00:00 PM 12.84 55.112 0.027 6.82 3.58 10.52
5/19/2021 4:15:00 PM 12.88 55.184 0.027 6.82 3.41 10.52
5/19/2021 4:30:00 PM 12.88 55.184 0.027 6.79 3.47 10.5
5/19/2021 4:45:00 PM 12.85 55.13 0.027 6.81 3.51 10.5
5/19/2021 5:00:00 PM 12.83 55.094 0.027 6.8 3.4 10.49
5/19/2021 5:15:00 PM 12.83 55.094 0.027 6.79 3.58 10.5
5/19/2021 5:30:00 PM 12.83 55.094 0.027 6.79 3.5 10.49
5/19/2021 5:45:00 PM 12.82 55.076 0.027 6.79 3.58 10.46
5/19/2021 6:00:00 PM 12.8 55.04 0.027 6.79 3.52 10.44
5/19/2021 6:15:00 PM 12.77 54.986 0.027 6.77 3.47 10.43
5/19/2021 6:30:00 PM 12.73 54.914 0.027 6.75 3.51 10.42
5/19/2021 6:45:00 PM 12.7 54.86 0.027 6.75 3.38 10.42
5/19/2021 7:00:00 PM 12.67 54.806 0.027 6.73 3.82 10.43
5/19/2021 7:15:00 PM 12.63 54.734 0.027 6.73 3.67 10.42
5/19/2021 7:30:00 PM 12.6 54.68 0.027 6.71 3.51 10.42
5/19/2021 7:45:00 PM 12.56 54.608 0.028 6.73 3.71 10.42
5/19/2021 8:00:00 PM 12.53 54.554 0.028 6.74 3.67 10.42
5/19/2021 8:15:00 PM 12.49 54.482 0.028 6.74 3.57 10.42
5/19/2021 8:30:00 PM 12.46 54.428 0.028 6.75 3.77 10.42
5/19/2021 8:45:00 PM 12.44 54.392 0.028 6.72 3.56 10.41
5/19/2021 9:00:00 PM 12.42 54.356 0.028 6.74 3.59 10.41
5/19/2021 9:15:00 PM 12.41 54.338 0.028 6.73 3.5 10.41
5/19/2021 9:30:00 PM 12.37 54.266 0.028 6.71 3.08 10.42
5/19/2021 9:45:00 PM 12.34 54.212 0.028 6.74 3.69 10.43
5/19/2021 10:00:00 PM 12.3 54.14 0.028 6.74 3.76 10.44
5/19/2021 10:15:00 PM 12.26 54.068 0.028 6.75 3.74 10.45
5/19/2021 10:30:00 PM 12.23 54.014 0.028 6.75 3.61 10.46
5/19/2021 10:45:00 PM 12.19 53.942 0.028 6.75 3.61 10.48
5/19/2021 11:00:00 PM 12.16 53.888 0.028 6.75 3.71 10.48
5/19/2021 11:15:00 PM 12.12 53.816 0.028 6.75 3.63 10.49
5/19/2021 11:30:00 PM 12.09 53.762 0.028 6.75 3.71 10.5
5/19/2021 11:45:00 PM 12.05 53.69 0.028 6.75 3.67 10.51
5/20/2021 12:00:00 AM 12.02 53.636 0.028 6.75 3.66 10.52
5/20/2021 12:15:00 AM 11.98 53.564 0.028 6.76 3.57 10.53
5/20/2021 12:30:00 AM 11.94 53.492 0.028 6.74 3.58 10.54
5/20/2021 12:45:00 AM 11.89 53.402 0.028 6.75 3.73 10.55
5/20/2021 1:00:00 AM 11.84 53.312 0.028 6.77 3.65 10.57
5/20/2021 1:15:00 AM 11.79 53.222 0.028 6.77 3.68 10.57
5/20/2021 1:30:00 AM 11.73 53.114 0.028 6.77 3.69 10.58
5/20/2021 1:45:00 AM 11.68 53.024 0.028 6.77 3.73 10.61
5/20/2021 2:00:00 AM 11.63 52.934 0.028 6.77 3.76 10.61
5/20/2021 2:15:00 AM 11.58 52.844 0.028 6.77 3.67 10.63
5/20/2021 2:30:00 AM 11.53 52.754 0.028 6.77 3.76 10.64
5/20/2021 2:45:00 AM 11.48 52.664 0.028 6.75 3.66 10.66
5/20/2021 3:00:00 AM 11.43 52.574 0.028 6.74 3.62 10.67
5/20/2021 3:15:00 AM 11.39 52.502 0.028 6.73 3.7 10.69
5/20/2021 3:30:00 AM 11.34 52.412 0.028 6.75 3.89 10.69
5/20/2021 3:45:00 AM 11.3 52.34 0.028 6.73 3.67 10.71
5/20/2021 4:00:00 AM 11.25 52.25 0.028 6.77 3.73 10.72
5/20/2021 4:15:00 AM 11.21 52.178 0.028 6.74 3.62 10.73
5/20/2021 4:30:00 AM 11.17 52.106 0.028 6.73 3.71 10.74
5/20/2021 4:45:00 AM 11.12 52.016 0.028 6.72 3.57 10.76
5/20/2021 5:00:00 AM 11.09 51.962 0.028 6.74 3.52 10.76
5/20/2021 5:15:00 AM 11.05 51.89 0.028 6.78 3.58 10.78
5/20/2021 5:30:00 AM 11.02 51.836 0.028 6.76 3.52 10.79
5/20/2021 5:45:00 AM 10.98 51.764 0.028 6.77 3.52 10.8
5/20/2021 6:00:00 AM 10.95 51.71 0.028 6.73 3.61 10.82
5/20/2021 6:15:00 AM 10.92 51.656 0.028 6.75 3.5 10.83
5/20/2021 6:30:00 AM 10.9 51.62 0.028 6.77 3.53 10.85
5/20/2021 6:45:00 AM 10.88 51.584 0.028 6.78 3.54 10.86
5/20/2021 7:00:00 AM 10.86 51.548 0.028 6.79 3.63 10.87
5/20/2021 7:15:00 AM 10.84 51.512 0.028 6.8 3.67 10.89
5/20/2021 7:30:00 AM 10.83 51.494 0.028 6.8 3.55 10.9
5/20/2021 7:45:00 AM 10.83 51.494 0.028 6.78 3.73 10.93
5/20/2021 8:00:00 AM 10.84 51.512 0.027 6.77 3.58 10.94
5/20/2021 8:15:00 AM 10.85 51.53 0.027 6.79 3.57 10.95
5/20/2021 8:30:00 AM 10.86 51.548 0.028 6.81 3.67 10.95
5/20/2021 8:45:00 AM 10.87 51.566 0.027 6.8 3.55 10.96
5/20/2021 9:00:00 AM 10.88 51.584 0.027 6.8 3.5 10.95
5/20/2021 9:15:00 AM 10.9 51.62 0.028 6.79 3.64 10.95
5/20/2021 9:30:00 AM 10.93 51.674 0.027 6.79 3.48 10.96
5/20/2021 9:45:00 AM 10.95 51.71 0.027 6.79 3.47 10.96
5/20/2021 10:00:00 AM 11 51.8 0.027 6.81 3.96 10.96
5/20/2021 10:15:00 AM 11.06 51.908 0.027 6.8 3.47 10.96
5/20/2021 10:30:00 AM 11.12 52.016 0.027 6.82 3.62 10.96
5/20/2021 10:45:00 AM 11.18 52.124 0.027 6.8 3.5 10.94
5/20/2021 11:00:00 AM 11.26 52.268 0.027 6.84 3.35 10.92
5/20/2021 11:15:00 AM 11.36 52.448 0.027 6.83 3.43 10.92
5/20/2021 11:30:00 AM 11.48 52.664 0.027 6.84 3.49 10.9
5/20/2021 11:45:00 AM 11.6 52.88 0.027 6.82 3.45 10.88
5/20/2021 12:00:00 PM 11.76 53.168 0.027 6.84 3.67 10.86
5/20/2021 12:15:00 PM 11.92 53.456 0.027 6.86 3.54 10.82
5/20/2021 12:30:00 PM 12.09 53.762 0.027 6.87 3.47 10.8
5/20/2021 12:45:00 PM 12.28 54.104 0.027 6.85 3.44 10.76
5/20/2021 1:00:00 PM 12.45 54.41 0.027 6.84 3.42 10.72
5/20/2021 1:15:00 PM 12.63 54.734 0.027 6.85 3.54 10.67
5/20/2021 1:30:00 PM 12.81 55.058 0.027 6.85 3.49 10.64
5/20/2021 1:45:00 PM 12.97 55.346 0.027 6.83 3.53 10.59
5/20/2021 2:00:00 PM 13.09 55.562 0.027 6.86 3.51 10.55
5/20/2021 2:15:00 PM 13.18 55.724 0.027 6.87 3.56 10.51
5/20/2021 2:30:00 PM 13.3 55.94 0.027 6.84 3.4 10.48
5/20/2021 2:45:00 PM 13.37 56.066 0.027 6.84 3.56 10.45
5/20/2021 3:00:00 PM 13.44 56.192 0.027 6.84 3.55 10.42
5/20/2021 3:15:00 PM 13.5 56.3 0.027 6.83 3.51 10.38
5/20/2021 3:30:00 PM 13.55 56.39 0.027 6.84 3.59 10.36
5/20/2021 3:45:00 PM 13.58 56.444 0.027 6.82 3.7 10.34
5/20/2021 4:00:00 PM 13.59 56.462 0.027 6.84 3.52 10.33
5/20/2021 4:15:00 PM 13.6 56.48 0.027 6.83 3.49 10.31
5/20/2021 4:30:00 PM 13.59 56.462 0.027 6.82 3.47 10.3
5/20/2021 4:45:00 PM 13.57 56.426 0.027 6.8 3.56 10.3
5/20/2021 5:00:00 PM 13.54 56.372 0.027 6.8 3.45 10.3
5/20/2021 5:15:00 PM 13.5 56.3 0.027 6.82 3.66 10.29
5/20/2021 5:30:00 PM 13.47 56.246 0.027 6.81 3.51 10.3
5/20/2021 5:45:00 PM 13.44 56.192 0.027 6.82 3.53 10.31
5/20/2021 6:00:00 PM 13.42 56.156 0.027 6.82 3.71 10.31
5/20/2021 6:15:00 PM 13.39 56.102 0.028 6.82 3.63 10.3
5/20/2021 6:30:00 PM 13.37 56.066 0.028 6.8 3.66 10.29
5/20/2021 6:45:00 PM 13.35 56.03 0.028 6.8 3.55 10.28
5/20/2021 7:00:00 PM 13.33 55.994 0.028 6.79 3.62 10.26
5/20/2021 7:15:00 PM 13.3 55.94 0.028 6.78 3.59 10.25
5/20/2021 7:30:00 PM 13.28 55.904 0.028 6.79 3.5 10.25
5/20/2021 7:45:00 PM 13.25 55.85 0.028 6.79 3.6 10.25
5/20/2021 8:00:00 PM 13.22 55.796 0.028 6.78 3.4 10.24
5/20/2021 8:15:00 PM 13.2 55.76 0.028 6.76 3.46 10.24
5/20/2021 8:30:00 PM 13.18 55.724 0.028 6.75 3.47 10.24
5/20/2021 8:45:00 PM 13.15 55.67 0.028 6.75 3.52 10.24
5/20/2021 9:00:00 PM 13.13 55.634 0.028 6.74 3.5 10.25
5/20/2021 9:15:00 PM 13.1 55.58 0.028 6.75 3.42 10.26
5/20/2021 9:30:00 PM 13.07 55.526 0.028 6.74 3.67 10.26
5/20/2021 9:45:00 PM 13.04 55.472 0.028 6.74 3.48 10.28
5/20/2021 10:00:00 PM 13 55.4 0.028 6.75 3.58 10.28
5/20/2021 10:15:00 PM 12.97 55.346 0.028 6.77 3.77 10.29
5/20/2021 10:30:00 PM 12.94 55.292 0.028 6.78 3.62 10.3
5/20/2021 10:45:00 PM 12.9 55.22 0.028 6.78 3.53 10.3
5/20/2021 11:00:00 PM 12.87 55.166 0.028 6.76 3.68 10.32
5/20/2021 11:15:00 PM 12.84 55.112 0.028 6.77 3.56 10.32
5/20/2021 11:30:00 PM 12.81 55.058 0.028 6.74 3.59 10.33
5/20/2021 11:45:00 PM 12.78 55.004 0.028 6.77 3.68 10.34
5/21/2021 12:00:00 AM 12.76 54.968 0.028 6.77 3.64 10.35
5/21/2021 12:15:00 AM 12.73 54.914 0.028 6.77 3.68 10.35
5/21/2021 12:30:00 AM 12.7 54.86 0.028 6.77 3.59 10.36
5/21/2021 12:45:00 AM 12.66 54.788 0.028 6.78 3.75 10.37
5/21/2021 1:00:00 AM 12.63 54.734 0.028 6.78 3.63 10.38
5/21/2021 1:15:00 AM 12.59 54.662 0.028 6.77 3.74 10.39
5/21/2021 1:30:00 AM 12.56 54.608 0.028 6.79 3.86 10.4
5/21/2021 1:45:00 AM 12.52 54.536 0.028 6.79 3.61 10.41
5/21/2021 2:00:00 AM 12.47 54.446 0.028 6.78 3.6 10.41
5/21/2021 2:15:00 AM 12.43 54.374 0.028 6.79 3.74 10.43
5/21/2021 2:30:00 AM 12.39 54.302 0.028 6.78 3.65 10.44
5/21/2021 2:45:00 AM 12.35 54.23 0.028 6.76 3.63 10.45
5/21/2021 3:00:00 AM 12.31 54.158 0.028 6.78 3.9 10.46
5/21/2021 3:15:00 AM 12.26 54.068 0.028 6.77 3.64 10.47
5/21/2021 3:30:00 AM 12.22 53.996 0.028 6.77 3.66 10.48
5/21/2021 3:45:00 AM 12.17 53.906 0.028 6.77 3.71 10.49
5/21/2021 4:00:00 AM 12.12 53.816 0.028 6.77 3.71 10.51
5/21/2021 4:15:00 AM 12.07 53.726 0.028 6.78 3.75 10.52
5/21/2021 4:30:00 AM 12.02 53.636 0.028 6.79 3.66 10.53
5/21/2021 4:45:00 AM 11.97 53.546 0.028 6.77 3.58 10.54
5/21/2021 5:00:00 AM 11.92 53.456 0.028 6.78 3.73 10.56
5/21/2021 5:15:00 AM 11.87 53.366 0.028 6.78 3.71 10.57
5/21/2021 5:30:00 AM 11.81 53.258 0.028 6.79 3.63 10.59
5/21/2021 5:45:00 AM 11.76 53.168 0.028 6.79 3.7 10.6
5/21/2021 6:00:00 AM 11.71 53.078 0.028 6.81 3.58 10.62
5/21/2021 6:15:00 AM 11.67 53.006 0.028 6.79 3.64 10.63
5/21/2021 6:30:00 AM 11.62 52.916 0.028 6.79 3.69 10.65
5/21/2021 6:45:00 AM 11.57 52.826 0.028 6.81 3.75 10.67
5/21/2021 7:00:00 AM 11.53 52.754 0.028 6.8 3.55 10.7
5/21/2021 7:15:00 AM 11.5 52.7 0.028 6.82 3.69 10.71
5/21/2021 7:30:00 AM 11.47 52.646 0.028 6.81 3.64 10.73
5/21/2021 7:45:00 AM 11.45 52.61 0.028 6.82 3.58 10.74
5/21/2021 8:00:00 AM 11.44 52.592 0.028 6.84 3.66 10.76
5/21/2021 8:15:00 AM 11.43 52.574 0.028 6.83 3.52 10.77
5/21/2021 8:30:00 AM 11.43 52.574 0.028 6.84 3.64 10.77
5/21/2021 8:45:00 AM 11.43 52.574 0.028 6.84 3.53 10.78
5/21/2021 9:00:00 AM 11.44 52.592 0.028 6.82 3.55 10.79
5/21/2021 9:15:00 AM 11.45 52.61 0.028 6.82 3.6 10.79
5/21/2021 9:30:00 AM 11.48 52.664 0.028 6.83 3.54 10.8
5/21/2021 9:45:00 AM 11.51 52.718 0.028 6.83 3.57 10.8
5/21/2021 10:00:00 AM 11.55 52.79 0.028 6.84 3.53 10.79
5/21/2021 10:15:00 AM 11.62 52.916 0.028 6.83 3.47 10.8
5/21/2021 10:30:00 AM 11.7 53.06 0.028 6.86 3.58 10.79
5/21/2021 10:45:00 AM 11.79 53.222 0.028 6.86 3.59 10.78
5/21/2021 11:00:00 AM 11.88 53.384 0.028 6.87 3.55 10.76
5/21/2021 11:15:00 AM 11.98 53.564 0.028 6.88 3.44 10.76
5/21/2021 11:30:00 AM 12.09 53.762 0.028 6.88 3.45 10.74
5/21/2021 11:45:00 AM 12.22 53.996 0.028 6.88 3.72 10.73
5/21/2021 12:00:00 PM 12.35 54.23 0.028 6.88 3.59 10.7
5/21/2021 12:15:00 PM 12.51 54.518 0.028 6.9 3.57 10.68
5/21/2021 12:30:00 PM 12.67 54.806 0.027 6.9 3.42 10.65
5/21/2021 12:45:00 PM 12.85 55.13 0.027 6.89 3.49 10.62
5/21/2021 1:00:00 PM 13.03 55.454 0.027 6.89 3.56 10.58
5/21/2021 1:15:00 PM 13.21 55.778 0.027 6.88 3.47 10.54
5/21/2021 1:30:00 PM 13.36 56.048 0.027 6.89 3.57 10.5
5/21/2021 1:45:00 PM 13.52 56.336 0.027 6.9 3.52 10.46
5/21/2021 2:00:00 PM 13.64 56.552 0.027 6.9 3.54 10.42
5/21/2021 2:15:00 PM 13.75 56.75 0.027 6.88 3.54 10.38
5/21/2021 2:30:00 PM 13.83 56.894 0.027 6.86 3.52 10.35
5/21/2021 2:45:00 PM 13.9 57.02 0.027 6.87 3.57 10.32
5/21/2021 3:00:00 PM 13.94 57.092 0.027 6.87 3.56 10.29
5/21/2021 3:15:00 PM 13.99 57.182 0.027 6.86 3.7 10.25
5/21/2021 3:30:00 PM 14.05 57.29 0.027 6.85 3.58 10.23
5/21/2021 3:45:00 PM 14.08 57.344 0.027 6.84 3.49 10.21
5/21/2021 4:00:00 PM 14.12 57.416 0.027 6.84 3.61 10.19
5/21/2021 4:15:00 PM 14.14 57.452 0.028 6.85 3.59 10.17
5/21/2021 4:30:00 PM 14.16 57.488 0.028 6.85 3.66 10.17
5/21/2021 4:45:00 PM 14.15 57.47 0.028 6.84 3.61 10.15
5/21/2021 5:00:00 PM 14.13 57.434 0.028 6.84 3.66 10.13
5/21/2021 5:15:00 PM 14.1 57.38 0.028 6.81 3.65 10.13
5/21/2021 5:30:00 PM 14.07 57.326 0.028 6.84 5.08 10.12
5/21/2021 5:45:00 PM 14.04 57.272 0.028 6.83 3.53 10.12
5/21/2021 6:00:00 PM 14 57.2 0.028 6.8 3.53 10.11
5/21/2021 6:15:00 PM 13.95 57.11 0.028 6.79 3.83 10.11
5/21/2021 6:30:00 PM 13.91 57.038 0.028 6.77 3.8 10.12
5/21/2021 6:45:00 PM 13.87 56.966 0.028 6.8 3.68 10.12
5/21/2021 7:00:00 PM 13.82 56.876 0.028 6.78 3.5 10.12
5/21/2021 7:15:00 PM 13.79 56.822 0.028 6.8 3.58 10.11
5/21/2021 7:30:00 PM 13.75 56.75 0.028 6.78 3.66 10.12
5/21/2021 7:45:00 PM 13.7 56.66 0.028 6.75 3.76 10.12
5/21/2021 8:00:00 PM 13.66 56.588 0.028 6.76 3.64 10.12
5/21/2021 8:15:00 PM 13.62 56.516 0.028 6.77 3.55 10.12
5/21/2021 8:30:00 PM 13.58 56.444 0.028 6.75 3.5 10.12
5/21/2021 8:45:00 PM 13.54 56.372 0.028 6.77 3.58 10.12
5/21/2021 9:00:00 PM 13.5 56.3 0.028 6.76 3.73 10.13
5/21/2021 9:15:00 PM 13.46 56.228 0.028 6.77 3.66 10.14
5/21/2021 9:30:00 PM 13.43 56.174 0.028 6.76 3.57 10.14
5/21/2021 9:45:00 PM 13.39 56.102 0.028 6.76 3.69 10.15
5/21/2021 10:00:00 PM 13.36 56.048 0.028 6.77 3.67 10.16
5/21/2021 10:15:00 PM 13.34 56.012 0.028 6.78 3.86 10.17
5/21/2021 10:30:00 PM 13.31 55.958 0.028 6.77 3.57 10.17
5/21/2021 10:45:00 PM 13.29 55.922 0.028 6.78 3.59 10.18
5/21/2021 11:00:00 PM 13.27 55.886 0.028 6.8 3.76 10.18
5/21/2021 11:15:00 PM 13.25 55.85 0.028 6.78 3.51 10.18
5/21/2021 11:30:00 PM 13.24 55.832 0.028 6.78 3.67 10.19
5/21/2021 11:45:00 PM 13.21 55.778 0.028 6.79 3.61 10.19
5/22/2021 12:00:00 AM 13.19 55.742 0.028 6.79 3.68 10.2
5/22/2021 12:15:00 AM 13.16 55.688 0.028 6.8 3.71 10.2
5/22/2021 12:30:00 AM 13.12 55.616 0.028 6.8 3.73 10.21
5/22/2021 12:45:00 AM 13.09 55.562 0.028 6.79 3.72 10.22
5/22/2021 1:00:00 AM 13.05 55.49 0.028 6.8 3.69 10.22
5/22/2021 1:15:00 AM 13.02 55.436 0.028 6.8 3.69 10.24
5/22/2021 1:30:00 AM 12.98 55.364 0.028 6.8 3.73 10.25
5/22/2021 1:45:00 AM 12.95 55.31 0.028 6.8 3.67 10.26
5/22/2021 2:00:00 AM 12.91 55.238 0.028 6.78 3.66 10.27
5/22/2021 2:15:00 AM 12.87 55.166 0.028 6.81 4.1 10.27
5/22/2021 2:30:00 AM 12.84 55.112 0.028 6.8 4.01 10.28
5/22/2021 2:45:00 AM 12.8 55.04 0.028 6.8 3.95 10.29
5/22/2021 3:00:00 AM 12.77 54.986 0.028 6.81 3.82 10.29
5/22/2021 3:15:00 AM 12.73 54.914 0.028 6.8 3.94 10.3
5/22/2021 3:30:00 AM 12.7 54.86 0.028 6.8 3.8 10.31
5/22/2021 3:45:00 AM 12.67 54.806 0.028 6.8 3.8 10.32
5/22/2021 4:00:00 AM 12.63 54.734 0.028 6.79 4.13 10.33
5/22/2021 4:15:00 AM 12.6 54.68 0.028 6.78 3.96 10.33
5/22/2021 4:30:00 AM 12.57 54.626 0.028 6.8 3.94 10.34
5/22/2021 4:45:00 AM 12.53 54.554 0.028 6.81 3.97 10.35
5/22/2021 5:00:00 AM 12.5 54.5 0.028 6.8 4.02 10.35
5/22/2021 5:15:00 AM 12.47 54.446 0.028 6.78 3.75 10.36
5/22/2021 5:30:00 AM 12.44 54.392 0.028 6.81 3.74 10.37
5/22/2021 5:45:00 AM 12.4 54.32 0.028 6.81 3.67 10.38
5/22/2021 6:00:00 AM 12.37 54.266 0.028 6.81 3.68 10.39
5/22/2021 6:15:00 AM 12.34 54.212 0.028 6.81 3.72 10.41
5/22/2021 6:30:00 AM 12.31 54.158 0.028 6.83 3.64 10.42
5/22/2021 6:45:00 AM 12.29 54.122 0.028 6.82 3.61 10.45
5/22/2021 7:00:00 AM 12.27 54.086 0.028 6.82 3.57 10.46
5/22/2021 7:15:00 AM 12.25 54.05 0.028 6.83 3.54 10.48
5/22/2021 7:30:00 AM 12.24 54.032 0.028 6.83 3.65 10.5
5/22/2021 7:45:00 AM 12.23 54.014 0.028 6.83 3.77 10.51
5/22/2021 8:00:00 AM 12.21 53.978 0.028 6.85 3.67 10.51
5/22/2021 8:15:00 AM 12.21 53.978 0.028 6.84 3.66 10.53
5/22/2021 8:30:00 AM 12.21 53.978 0.028 6.84 3.75 10.54
5/22/2021 8:45:00 AM 12.21 53.978 0.028 6.84 3.48 10.55
5/22/2021 9:00:00 AM 12.21 53.978 0.028 6.85 3.64 10.54
5/22/2021 9:15:00 AM 12.22 53.996 0.028 6.84 3.49 10.55
5/22/2021 9:30:00 AM 12.22 53.996 0.028 6.82 3.56 10.55
5/22/2021 9:45:00 AM 12.25 54.05 0.028 6.83 3.49 10.56
5/22/2021 10:00:00 AM 12.29 54.122 0.028 6.86 3.57 10.57
5/22/2021 10:15:00 AM 12.33 54.194 0.028 6.87 3.5 10.58
5/22/2021 10:30:00 AM 12.35 54.23 0.028 6.88 3.49 10.56
5/22/2021 10:45:00 AM 12.4 54.32 0.028 6.9 3.58 10.57
5/22/2021 11:00:00 AM 12.44 54.392 0.028 6.87 3.46 10.57
5/22/2021 11:15:00 AM 12.49 54.482 0.028 6.87 3.66 10.57
5/22/2021 11:30:00 AM 12.51 54.518 0.028 6.86 3.39 10.55
5/22/2021 11:45:00 AM 12.55 54.59 0.028 6.9 3.43 10.55
5/22/2021 12:00:00 PM 12.58 54.644 0.028 6.88 3.56 10.53
5/22/2021 12:15:00 PM 12.65 54.77 0.028 6.87 3.63 10.53
5/22/2021 12:30:00 PM 12.7 54.86 0.028 6.88 3.51 10.53
5/22/2021 12:45:00 PM 12.74 54.932 0.028 6.87 3.47 10.51
5/22/2021 1:00:00 PM 12.84 55.112 0.028 6.9 3.49 10.5
5/22/2021 1:15:00 PM 12.94 55.292 0.028 6.91 3.57 10.49
5/22/2021 1:30:00 PM 13.12 55.616 0.028 6.93 3.61 10.47
5/22/2021 1:45:00 PM 13.2 55.76 0.028 6.89 3.4 10.44
5/22/2021 2:00:00 PM 13.32 55.976 0.028 6.92 3.64 10.42
5/22/2021 2:15:00 PM 13.35 56.03 0.028 6.92 3.5 10.38
5/22/2021 2:30:00 PM 13.38 56.084 0.028 6.91 3.48 10.34
5/22/2021 2:45:00 PM 13.4 56.12 0.028 6.89 3.47 10.33
5/22/2021 3:00:00 PM 13.44 56.192 0.028 6.91 3.6 10.32
5/22/2021 3:15:00 PM 13.49 56.282 0.028 6.91 3.55 10.31
5/22/2021 3:30:00 PM 13.57 56.426 0.028 6.9 3.62 10.3
5/22/2021 3:45:00 PM 13.62 56.516 0.028 6.91 3.51 10.28
5/22/2021 4:00:00 PM 13.68 56.624 0.028 6.9 13.32 10.24
5/22/2021 4:15:00 PM 13.71 56.678 0.028 6.89 7.15 10.21
5/22/2021 4:30:00 PM 13.72 56.696 0.028 6.87 4.96 10.19
5/22/2021 4:45:00 PM 13.75 56.75 0.028 6.88 5.18 10.18
5/22/2021 5:00:00 PM 13.77 56.786 0.028 6.86 4.98 10.17
5/22/2021 5:15:00 PM 13.78 56.804 0.028 6.87 5.06 10.16
5/22/2021 5:30:00 PM 13.77 56.786 0.028 6.87 5.02 10.14
5/22/2021 5:45:00 PM 13.76 56.768 0.028 6.88 5.09 10.11
5/22/2021 6:00:00 PM 13.77 56.786 0.028 6.86 5.01 10.09
5/22/2021 6:15:00 PM 13.77 56.786 0.028 6.85 4.87 10.09
5/22/2021 6:30:00 PM 13.77 56.786 0.028 6.85 4.94 10.08
5/22/2021 6:45:00 PM 13.76 56.768 0.028 6.82 4.92 10.08
5/22/2021 7:00:00 PM 13.75 56.75 0.028 6.83 4.97 10.07
5/22/2021 7:15:00 PM 13.74 56.732 0.028 6.83 4.8 10.05
5/22/2021 7:30:00 PM 13.73 56.714 0.028 6.8 4.89 10.04
5/22/2021 7:45:00 PM 13.72 56.696 0.028 6.83 4.9 10.04
5/22/2021 8:00:00 PM 13.7 56.66 0.028 6.82 4.94 10.03
5/22/2021 8:15:00 PM 13.68 56.624 0.028 6.8 4.97 10.02
5/22/2021 8:30:00 PM 13.65 56.57 0.028 6.8 5.04 10.02
5/22/2021 8:45:00 PM 13.64 56.552 0.028 6.78 4.87 10.01
5/22/2021 9:00:00 PM 13.62 56.516 0.028 6.78 4.92 10.01
5/22/2021 9:15:00 PM 13.61 56.498 0.028 6.81 5.62 10.02
5/22/2021 9:30:00 PM 13.57 56.426 0.028 6.8 5.2 10.03
5/22/2021 9:45:00 PM 13.55 56.39 0.028 6.8 5.23 10.04
5/22/2021 10:00:00 PM 13.51 56.318 0.028 6.81 5.22 10.04
5/22/2021 10:15:00 PM 13.48 56.264 0.028 6.78 5.06 10.04
5/22/2021 10:30:00 PM 13.45 56.21 0.028 6.81 5.02 10.05
5/22/2021 10:45:00 PM 13.42 56.156 0.028 6.79 5.07 10.06
5/22/2021 11:00:00 PM 13.39 56.102 0.028 6.78 5.15 10.07
5/22/2021 11:15:00 PM 13.35 56.03 0.028 6.8 4.96 10.07
5/22/2021 11:30:00 PM 13.32 55.976 0.028 6.8 5.18 10.09
5/22/2021 11:45:00 PM 13.28 55.904 0.028 6.77 5.07 10.09
5/23/2021 12:00:00 AM 13.25 55.85 0.028 6.8 5.28 10.09
5/23/2021 12:15:00 AM 13.22 55.796 0.028 6.79 5.34 10.1
5/23/2021 12:30:00 AM 13.18 55.724 0.028 6.79 5.14 10.11
5/23/2021 12:45:00 AM 13.15 55.67 0.028 6.76 5.2 10.11
5/23/2021 1:00:00 AM 13.12 55.616 0.028 6.79 4.98 10.12
5/23/2021 1:15:00 AM 13.09 55.562 0.028 6.79 5.03 10.13
5/23/2021 1:30:00 AM 13.05 55.49 0.028 6.79 5.01 10.13
5/23/2021 1:45:00 AM 13.02 55.436 0.028 6.76 5.07 10.13
5/23/2021 2:00:00 AM 12.99 55.382 0.028 6.76 5.01 10.14
5/23/2021 2:15:00 AM 12.97 55.346 0.028 6.77 5.22 10.14
5/23/2021 2:30:00 AM 12.95 55.31 0.028 6.76 5.07 10.15
5/23/2021 2:45:00 AM 12.93 55.274 0.028 6.78 5.05 10.15
5/23/2021 3:00:00 AM 12.9 55.22 0.028 6.78 3.94 10.17
5/23/2021 3:15:00 AM 12.87 55.166 0.028 6.81 4.03 10.18
5/23/2021 3:30:00 AM 12.83 55.094 0.028 6.78 3.97 10.19
5/23/2021 3:45:00 AM 12.8 55.04 0.028 6.77 3.92 10.19
5/23/2021 4:00:00 AM 12.77 54.986 0.028 6.78 4.02 10.2
5/23/2021 4:15:00 AM 12.74 54.932 0.028 6.81 3.92 10.21
5/23/2021 4:30:00 AM 12.71 54.878 0.028 6.79 4.19 10.21
5/23/2021 4:45:00 AM 12.68 54.824 0.028 6.82 3.89 10.22
5/23/2021 5:00:00 AM 12.65 54.77 0.028 6.79 4.23 10.22
5/23/2021 5:15:00 AM 12.62 54.716 0.028 6.8 4.32 10.23
5/23/2021 5:30:00 AM 12.59 54.662 0.028 6.81 4.19 10.24
5/23/2021 5:45:00 AM 12.56 54.608 0.028 6.83 4.33 10.24
5/23/2021 6:00:00 AM 12.53 54.554 0.028 6.82 4.22 10.26
5/23/2021 6:15:00 AM 12.5 54.5 0.028 6.82 4.45 10.27
5/23/2021 6:30:00 AM 12.47 54.446 0.028 6.82 4.64 10.29
5/23/2021 6:45:00 AM 12.45 54.41 0.028 6.8 4.34 10.3
5/23/2021 7:00:00 AM 12.43 54.374 0.028 6.83 4.44 10.31
5/23/2021 7:15:00 AM 12.4 54.32 0.028 6.83 4.33 10.32
5/23/2021 7:30:00 AM 12.39 54.302 0.028 6.81 4.41 10.33
5/23/2021 7:45:00 AM 12.37 54.266 0.028 6.81 4.38 10.34
5/23/2021 8:00:00 AM 12.36 54.248 0.028 6.82 4.41 10.34
5/23/2021 8:15:00 AM 12.36 54.248 0.028 6.82 4.3 10.35
5/23/2021 8:30:00 AM 12.36 54.248 0.028 6.82 4.51 10.35
5/23/2021 8:45:00 AM 12.37 54.266 0.028 6.83 4.26 10.36
5/23/2021 9:00:00 AM 12.4 54.32 0.028 6.84 4.3 10.36
5/23/2021 9:15:00 AM 12.44 54.392 0.028 6.82 4.35 10.36
5/23/2021 9:30:00 AM 12.47 54.446 0.028 6.83 4.35 10.36
5/23/2021 9:45:00 AM 12.52 54.536 0.028 6.87 4.59 10.36
5/23/2021 10:00:00 AM 12.58 54.644 0.028 6.87 4.43 10.37
5/23/2021 10:15:00 AM 12.65 54.77 0.028 6.89 4.26 10.37
5/23/2021 10:30:00 AM 12.75 54.95 0.028 6.9 4.35 10.37
5/23/2021 10:45:00 AM 12.82 55.076 0.028 6.9 4.43 10.35
5/23/2021 11:00:00 AM 12.94 55.292 0.028 6.89 4.29 10.34
5/23/2021 11:15:00 AM 13.03 55.454 0.028 6.89 4.2 10.32
5/23/2021 11:30:00 AM 13.2 55.76 0.028 6.91 4.27 10.31
5/23/2021 11:45:00 AM 13.3 55.94 0.028 6.88 4.32 10.29
5/23/2021 12:00:00 PM 13.47 56.246 0.028 6.88 4.24 10.28
5/23/2021 12:15:00 PM 13.59 56.462 0.028 6.87 4.4 10.25
5/23/2021 12:30:00 PM 13.63 56.534 0.028 6.91 4.4 10.22
5/23/2021 12:45:00 PM 13.73 56.714 0.028 6.92 4.22 10.2
5/23/2021 1:00:00 PM 13.85 56.93 0.028 6.9 4.31 10.18
5/23/2021 1:15:00 PM 14.03 57.254 0.028 6.92 4.25 10.16
5/23/2021 1:30:00 PM 13.99 57.182 0.028 6.89 4.53 10.12
5/23/2021 1:45:00 PM 13.95 57.11 0.028 6.87 4.35 10.07
5/23/2021 2:00:00 PM 14.13 57.434 0.028 6.9 4.34 10.09
5/23/2021 2:15:00 PM 14.24 57.632 0.028 6.89 4.31 10.07
5/23/2021 2:30:00 PM 14.31 57.758 0.028 6.88 4.29 10.04
5/23/2021 2:45:00 PM 14.37 57.866 0.028 6.87 4.29 10.01
5/23/2021 3:00:00 PM 14.4 57.92 0.028 6.86 4.45 9.99
5/23/2021 3:15:00 PM 14.46 58.028 0.028 6.89 4.35 9.96
5/23/2021 3:30:00 PM 14.54 58.172 0.028 6.85 4.41 9.94
5/23/2021 3:45:00 PM 14.61 58.298 0.028 6.88 4.27 9.94
5/23/2021 4:00:00 PM 14.68 58.424 0.028 6.89 4.26 9.91
5/23/2021 4:15:00 PM 14.76 58.568 0.028 6.88 4.25 9.9
5/23/2021 4:30:00 PM 14.83 58.694 0.028 6.88 4.31 9.88
5/23/2021 4:45:00 PM 14.88 58.784 0.028 6.87 4.46 9.86
5/23/2021 5:00:00 PM 14.89 58.802 0.028 6.89 4.34 9.82
5/23/2021 5:15:00 PM 14.89 58.802 0.028 6.87 4.39 9.79
5/23/2021 5:30:00 PM 14.88 58.784 0.028 6.86 4.38 9.79
5/23/2021 5:45:00 PM 14.86 58.748 0.028 6.85 4.33 9.79
5/23/2021 6:00:00 PM 14.85 58.73 0.028 6.86 4.31 9.79
5/23/2021 6:15:00 PM 14.83 58.694 0.028 6.86 4.48 9.79
5/23/2021 6:30:00 PM 14.8 58.64 0.028 6.84 4.42 9.78
5/23/2021 6:45:00 PM 14.79 58.622 0.028 6.85 4.42 9.78
5/23/2021 7:00:00 PM 14.77 58.586 0.028 6.82 4.35 9.77
5/23/2021 7:15:00 PM 14.73 58.514 0.028 6.81 4.45 9.76
5/23/2021 7:30:00 PM 14.71 58.478 0.028 6.82 4.48 9.76
5/23/2021 7:45:00 PM 14.69 58.442 0.028 6.81 4.28 9.76
5/23/2021 8:00:00 PM 14.66 58.388 0.028 6.82 4.32 9.75
5/23/2021 8:15:00 PM 14.63 58.334 0.028 6.8 4.32 9.75
5/23/2021 8:30:00 PM 14.58 58.244 0.028 6.8 4.31 9.76
5/23/2021 8:45:00 PM 14.53 58.154 0.028 6.8 4.78 9.76
5/23/2021 9:00:00 PM 14.49 58.082 0.028 6.8 4.44 9.77
5/23/2021 9:15:00 PM 14.44 57.992 0.028 6.79 4.42 9.78
5/23/2021 9:30:00 PM 14.39 57.902 0.028 6.8 4.54 9.79
5/23/2021 9:45:00 PM 14.33 57.794 0.028 6.79 4.06 9.81
5/23/2021 10:00:00 PM 14.28 57.704 0.028 6.82 3.96 9.82
5/23/2021 10:15:00 PM 14.22 57.596 0.028 6.79 3.72 9.84
5/23/2021 10:30:00 PM 14.16 57.488 0.028 6.79 3.83 9.86
5/23/2021 10:45:00 PM 14.11 57.398 0.028 6.83 3.98 9.87
5/23/2021 11:00:00 PM 14.06 57.308 0.028 6.84 3.93 9.89
5/23/2021 11:15:00 PM 14 57.2 0.028 6.84 3.92 9.9
5/23/2021 11:30:00 PM 13.94 57.092 0.028 6.81 3.93 9.91
5/23/2021 11:45:00 PM 13.89 57.002 0.028 6.8 3.97 9.92
5/24/2021 12:00:00 AM 13.83 56.894 0.028 6.8 3.95 9.93
5/24/2021 12:15:00 AM 13.78 56.804 0.028 6.8 3.88 9.95
5/24/2021 12:30:00 AM 13.72 56.696 0.028 6.82 4.06 9.97
5/24/2021 12:45:00 AM 13.65 56.57 0.028 6.84 4.07 9.98
5/24/2021 1:00:00 AM 13.59 56.462 0.028 6.84 3.98 10
5/24/2021 1:15:00 AM 13.52 56.336 0.028 6.85 3.93 10.02
5/24/2021 1:30:00 AM 13.46 56.228 0.028 6.84 4.01 10.04
5/24/2021 1:45:00 AM 13.39 56.102 0.028 6.86 3.9 10.05
5/24/2021 2:00:00 AM 13.33 55.994 0.028 6.85 4.07 10.06
5/24/2021 2:15:00 AM 13.26 55.868 0.028 6.81 3.95 10.09
5/24/2021 2:30:00 AM 13.2 55.76 0.028 6.85 3.86 10.09
5/24/2021 2:45:00 AM 13.14 55.652 0.028 6.8 3.93 10.11
5/24/2021 3:00:00 AM 13.08 55.544 0.028 6.86 3.81 10.12
5/24/2021 3:15:00 AM 13.02 55.436 0.028 6.86 4.06 10.14
5/24/2021 3:30:00 AM 12.96 55.328 0.028 6.81 3.9 10.15
5/24/2021 3:45:00 AM 12.9 55.22 0.028 6.82 3.91 10.17
5/24/2021 4:00:00 AM 12.84 55.112 0.028 6.84 3.93 10.18
5/24/2021 4:15:00 AM 12.78 55.004 0.028 6.86 4.11 10.2
5/24/2021 4:30:00 AM 12.72 54.896 0.028 6.83 3.97 10.2
5/24/2021 4:45:00 AM 12.67 54.806 0.028 6.85 3.92 10.22
5/24/2021 5:00:00 AM 12.61 54.698 0.028 6.84 3.94 10.23
5/24/2021 5:15:00 AM 12.56 54.608 0.028 6.87 3.87 10.25
5/24/2021 5:30:00 AM 12.5 54.5 0.028 6.85 3.85 10.26
5/24/2021 5:45:00 AM 12.45 54.41 0.028 6.87 3.93 10.27
5/24/2021 6:00:00 AM 12.4 54.32 0.028 6.87 3.82 10.3
5/24/2021 6:15:00 AM 12.35 54.23 0.028 6.83 4.16 10.32
5/24/2021 6:30:00 AM 12.32 54.176 0.028 6.85 4.08 10.34
5/24/2021 6:45:00 AM 12.29 54.122 0.028 6.87 6.27 10.36
5/24/2021 7:00:00 AM 12.27 54.086 0.028 6.87 5.41 10.39
5/24/2021 7:15:00 AM 12.25 54.05 0.028 6.87 4.14 10.41
5/24/2021 7:30:00 AM 12.24 54.032 0.028 6.89 3.81 10.42
5/24/2021 7:45:00 AM 12.23 54.014 0.028 6.91 4.05 10.43
5/24/2021 8:00:00 AM 12.23 54.014 0.028 6.92 3.86 10.45
5/24/2021 8:15:00 AM 12.23 54.014 0.028 6.88 3.68 10.47
5/24/2021 8:30:00 AM 12.23 54.014 0.028 6.89 3.92 10.47
5/24/2021 8:45:00 AM 12.23 54.014 0.028 6.9 3.65 10.47
5/24/2021 9:00:00 AM 12.24 54.032 0.028 6.9 3.78 10.49
5/24/2021 9:15:00 AM 12.26 54.068 0.028 6.93 4.03 10.5
5/24/2021 9:30:00 AM 12.29 54.122 0.028 6.94 3.94 10.52
5/24/2021 9:45:00 AM 12.33 54.194 0.028 6.94 4.38 10.52
5/24/2021 10:00:00 AM 12.37 54.266 0.028 6.93 3.78 10.53
5/24/2021 10:15:00 AM 12.4 54.32 0.028 6.94 3.66 10.52
5/24/2021 10:30:00 AM 12.46 54.428 0.028 6.92 3.75 10.53
5/24/2021 10:45:00 AM 12.47 54.446 0.028 6.93 3.66 10.51
5/24/2021 11:00:00 AM 12.53 54.554 0.028 6.95 3.79 10.51
5/24/2021 11:15:00 AM 12.58 54.644 0.028 6.94 3.65 10.51
5/24/2021 11:30:00 AM 12.65 54.77 0.028 6.94 3.6 10.5
5/24/2021 11:45:00 AM 12.71 54.878 0.028 6.96 3.75 10.5
5/24/2021 12:00:00 PM 12.71 54.878 0.028 6.91 3.74 10.47
5/24/2021 12:15:00 PM 12.72 54.896 0.028 6.94 3.71 10.45
5/24/2021 12:30:00 PM 12.73 54.914 0.028 6.91 3.62 10.44
5/24/2021 12:45:00 PM 12.74 54.932 0.028 6.92 3.66 10.43
5/24/2021 1:00:00 PM 12.74 54.932 0.028 6.92 3.64 10.42
5/24/2021 1:15:00 PM 12.74 54.932 0.028 6.93 3.86 10.41
5/24/2021 1:30:00 PM 12.73 54.914 0.028 6.94 3.83 10.4
5/24/2021 1:45:00 PM 12.72 54.896 0.028 6.92 3.8 10.39
5/24/2021 2:00:00 PM 12.71 54.878 0.028 6.93 3.63 10.38
5/24/2021 2:15:00 PM 12.7 54.86 0.028 6.93 4.55 10.38
5/24/2021 2:30:00 PM 12.68 54.824 0.028 6.93 3.72 10.38
5/24/2021 2:45:00 PM 12.67 54.806 0.028 6.92 3.92 10.38
5/24/2021 3:00:00 PM 12.65 54.77 0.028 6.89 4.25 10.39
5/24/2021 3:15:00 PM 12.64 54.752 0.028 6.91 3.73 10.38
5/24/2021 3:30:00 PM 12.63 54.734 0.028 6.9 3.76 10.38
5/24/2021 3:45:00 PM 12.61 54.698 0.028 6.89 3.79 10.38
5/24/2021 4:00:00 PM 12.59 54.662 0.028 6.93 3.82 10.37
5/24/2021 4:15:00 PM 12.58 54.644 0.028 6.9 3.67 10.36
5/24/2021 4:30:00 PM 12.56 54.608 0.028 6.9 3.58 10.37
5/24/2021 4:45:00 PM 12.54 54.572 0.028 6.9 3.87 10.36
5/24/2021 5:00:00 PM 12.52 54.536 0.028 6.88 3.71 10.36
5/24/2021 5:15:00 PM 12.5 54.5 0.028 6.88 3.74 10.36
5/24/2021 5:30:00 PM 12.49 54.482 0.028 6.89 3.61 10.36
5/24/2021 5:45:00 PM 12.47 54.446 0.028 6.85 3.62 10.36
5/24/2021 6:00:00 PM 12.45 54.41 0.028 6.87 3.65 10.35
5/24/2021 6:15:00 PM 12.44 54.392 0.028 6.9 3.61 10.36
5/24/2021 6:30:00 PM 12.42 54.356 0.028 6.91 3.77 10.36
5/24/2021 6:45:00 PM 12.4 54.32 0.028 6.87 3.69 10.35
5/24/2021 7:00:00 PM 12.38 54.284 0.028 6.9 3.68 10.35
5/24/2021 7:15:00 PM 12.36 54.248 0.028 6.87 3.72 10.34
5/24/2021 7:30:00 PM 12.34 54.212 0.028 6.88 3.66 10.35
5/24/2021 7:45:00 PM 12.33 54.194 0.028 6.88 3.72 10.35
5/24/2021 8:00:00 PM 12.31 54.158 0.028 6.9 3.73 10.35
5/24/2021 8:15:00 PM 12.3 54.14 0.028 6.9 3.63 10.35
5/24/2021 8:30:00 PM 12.28 54.104 0.028 6.9 3.72 10.35
5/24/2021 8:45:00 PM 12.26 54.068 0.028 6.9 3.77 10.36
5/24/2021 9:00:00 PM 12.25 54.05 0.028 6.85 3.77 10.35
5/24/2021 9:15:00 PM 12.23 54.014 0.028 6.9 3.69 10.36
5/24/2021 9:30:00 PM 12.22 53.996 0.028 6.89 3.81 10.36
5/24/2021 9:45:00 PM 12.21 53.978 0.028 6.9 3.67 10.37
5/24/2021 10:00:00 PM 12.19 53.942 0.028 6.86 3.88 10.37
5/24/2021 10:15:00 PM 12.18 53.924 0.028 6.88 3.72 10.37
5/24/2021 10:30:00 PM 12.16 53.888 0.028 6.9 3.77 10.38
5/24/2021 10:45:00 PM 12.15 53.87 0.028 6.9 3.75 10.38
5/24/2021 11:00:00 PM 12.13 53.834 0.028 6.85 3.73 10.39
5/24/2021 11:15:00 PM 12.12 53.816 0.028 6.88 3.75 10.39
5/24/2021 11:30:00 PM 12.11 53.798 0.028 6.88 3.69 10.39
5/24/2021 11:45:00 PM 12.09 53.762 0.028 6.87 3.7 10.4
5/25/2021 12:00:00 AM 12.08 53.744 0.028 6.88 3.77 10.4
5/25/2021 12:15:00 AM 12.06 53.708 0.028 6.89 3.81 10.4
5/25/2021 12:30:00 AM 12.05 53.69 0.028 6.88 3.77 10.41
5/25/2021 12:45:00 AM 12.03 53.654 0.028 6.89 3.81 10.41
5/25/2021 1:00:00 AM 12.02 53.636 0.028 6.88 3.8 10.41
5/25/2021 1:15:00 AM 12 53.6 0.028 6.89 3.82 10.42
5/25/2021 1:30:00 AM 11.99 53.582 0.028 6.9 3.79 10.42
5/25/2021 1:45:00 AM 11.97 53.546 0.028 6.9 3.65 10.42
5/25/2021 2:00:00 AM 11.95 53.51 0.028 6.87 3.73 10.42
5/25/2021 2:15:00 AM 11.94 53.492 0.028 6.88 3.63 10.43
5/25/2021 2:30:00 AM 11.92 53.456 0.028 6.86 3.83 10.43
5/25/2021 2:45:00 AM 11.91 53.438 0.029 6.88 3.62 10.43
5/25/2021 3:00:00 AM 11.89 53.402 0.028 6.87 3.73 10.44
5/25/2021 3:15:00 AM 11.88 53.384 0.029 6.88 4.57 10.44
5/25/2021 3:30:00 AM 11.86 53.348 0.028 6.89 3.75 10.45
5/25/2021 3:45:00 AM 11.85 53.33 0.028 6.89 3.79 10.45
5/25/2021 4:00:00 AM 11.84 53.312 0.028 6.9 3.81 10.45
5/25/2021 4:15:00 AM 11.83 53.294 0.028 6.88 3.77 10.46
5/25/2021 4:30:00 AM 11.81 53.258 0.028 6.9 3.84 10.46
5/25/2021 4:45:00 AM 11.8 53.24 0.028 6.88 3.65 10.46
5/25/2021 5:00:00 AM 11.79 53.222 0.028 6.86 3.68 10.46
5/25/2021 5:15:00 AM 11.78 53.204 0.028 6.9 3.67 10.46
5/25/2021 5:30:00 AM 11.76 53.168 0.028 6.89 3.7 10.47
5/25/2021 5:45:00 AM 11.75 53.15 0.029 6.9 3.69 10.48
5/25/2021 6:00:00 AM 11.74 53.132 0.029 6.9 3.61 10.49
5/25/2021 6:15:00 AM 11.73 53.114 0.028 6.88 3.81 10.49
5/25/2021 6:30:00 AM 11.72 53.096 0.028 6.89 3.94 10.49
5/25/2021 6:45:00 AM 11.71 53.078 0.028 6.9 3.72 10.51
5/25/2021 7:00:00 AM 11.7 53.06 0.028 6.89 3.65 10.51
5/25/2021 7:15:00 AM 11.69 53.042 0.028 6.89 3.69 10.52
5/25/2021 7:30:00 AM 11.69 53.042 0.028 6.89 3.74 10.53
5/25/2021 7:45:00 AM 11.68 53.024 0.028 6.88 3.64 10.54
5/25/2021 8:00:00 AM 11.67 53.006 0.028 6.9 3.71 10.53
5/25/2021 8:15:00 AM 11.67 53.006 0.028 6.86 3.72 10.55
5/25/2021 8:30:00 AM 11.67 53.006 0.028 6.91 3.86 10.57
5/25/2021 8:45:00 AM 11.67 53.006 0.028 6.91 3.71 10.58
5/25/2021 9:00:00 AM 11.67 53.006 0.028 6.9 3.52 10.58
5/25/2021 9:15:00 AM 11.68 53.024 0.028 6.92 3.54 10.6
5/25/2021 9:30:00 AM 11.68 53.024 0.028 6.92 3.57 10.59
5/25/2021 9:45:00 AM 11.69 53.042 0.028 6.92 3.63 10.59
5/25/2021 10:00:00 AM 11.7 53.06 0.028 6.91 3.7 10.6
5/25/2021 10:15:00 AM 11.71 53.078 0.028 6.92 3.63 10.61
5/25/2021 10:30:00 AM 11.72 53.096 0.028 6.94 3.6 10.62
5/25/2021 10:45:00 AM 11.74 53.132 0.028 6.92 3.63 10.62
5/25/2021 11:00:00 AM 11.76 53.168 0.028 6.95 3.57 10.63
5/25/2021 11:15:00 AM 11.78 53.204 0.028 6.94 3.69 10.63
5/25/2021 11:30:00 AM 11.8 53.24 0.028 6.95 3.63 10.62
5/25/2021 11:45:00 AM 11.82 53.276 0.028 6.93 3.58 10.62
5/25/2021 12:00:00 PM 11.84 53.312 0.028 6.94 3.59 10.62
5/25/2021 12:15:00 PM 11.86 53.348 0.028 6.94 3.68 10.61
5/25/2021 12:30:00 PM 11.88 53.384 0.028 6.95 3.69 10.62
5/25/2021 12:45:00 PM 11.91 53.438 0.028 6.92 3.64 10.62
5/25/2021 1:00:00 PM 11.93 53.474 0.028 6.96 3.68 10.61
5/25/2021 1:15:00 PM 11.95 53.51 0.028 6.94 3.7 10.6
5/25/2021 1:30:00 PM 11.98 53.564 0.028 6.94 3.59 10.6
5/25/2021 1:45:00 PM 12.01 53.618 0.028 6.94 3.62 10.6
5/25/2021 2:00:00 PM 12.04 53.672 0.028 6.94 3.59 10.59
5/25/2021 2:15:00 PM 12.06 53.708 0.028 6.95 3.67 10.58
5/25/2021 2:30:00 PM 12.08 53.744 0.028 6.96 3.65 10.57
5/25/2021 2:45:00 PM 12.1 53.78 0.028 6.92 3.72 10.57
5/25/2021 3:00:00 PM 12.13 53.834 0.028 6.93 3.64 10.56
5/25/2021 3:15:00 PM 12.17 53.906 0.028 6.94 3.57 10.56
5/25/2021 3:30:00 PM 12.19 53.942 0.028 6.95 3.72 10.55
5/25/2021 3:45:00 PM 12.21 53.978 0.028 6.93 3.71 10.54
5/25/2021 4:00:00 PM 12.25 54.05 0.028 6.93 3.62 10.53
5/25/2021 4:15:00 PM 12.27 54.086 0.028 6.92 3.57 10.51
5/25/2021 4:30:00 PM 12.29 54.122 0.028 6.92 3.67 10.49
5/25/2021 4:45:00 PM 12.32 54.176 0.028 6.95 3.62 10.48
5/25/2021 5:00:00 PM 12.35 54.23 0.028 6.89 3.64 10.45
5/25/2021 5:15:00 PM 12.4 54.32 0.028 6.92 3.64 10.43
5/25/2021 5:30:00 PM 12.43 54.374 0.028 6.91 3.61 10.42
5/25/2021 5:45:00 PM 12.46 54.428 0.028 6.94 3.65 10.4
5/25/2021 6:00:00 PM 12.47 54.446 0.028 6.9 3.69 10.38
5/25/2021 6:15:00 PM 12.48 54.464 0.028 6.9 3.62 10.37
5/25/2021 6:30:00 PM 12.49 54.482 0.028 6.91 3.65 10.36
5/25/2021 6:45:00 PM 12.5 54.5 0.028 6.9 3.62 10.35
5/25/2021 7:00:00 PM 12.48 54.464 0.028 6.91 4.53 10.33
5/25/2021 7:15:00 PM 12.47 54.446 0.028 6.91 3.71 10.32
5/25/2021 7:30:00 PM 12.47 54.446 0.028 6.9 3.68 10.32
5/25/2021 7:45:00 PM 12.46 54.428 0.028 6.88 3.62 10.31
5/25/2021 8:00:00 PM 12.45 54.41 0.028 6.9 3.57 10.3
5/25/2021 8:15:00 PM 12.45 54.41 0.028 6.9 3.63 10.29
5/25/2021 8:30:00 PM 12.44 54.392 0.029 6.87 3.62 10.28
5/25/2021 8:45:00 PM 12.43 54.374 0.028 6.86 3.69 10.28
5/25/2021 9:00:00 PM 12.42 54.356 0.029 6.82 3.67 10.28
5/25/2021 9:15:00 PM 12.4 54.32 0.029 6.84 3.56 10.28
5/25/2021 9:30:00 PM 12.38 54.284 0.029 6.87 3.86 10.29
5/25/2021 9:45:00 PM 12.36 54.248 0.029 6.83 3.87 10.29
5/25/2021 10:00:00 PM 12.33 54.194 0.029 6.86 3.69 10.29
5/25/2021 10:15:00 PM 12.31 54.158 0.029 6.85 3.66 10.3
5/25/2021 10:30:00 PM 12.29 54.122 0.029 6.84 3.74 10.31
5/25/2021 10:45:00 PM 12.27 54.086 0.029 6.85 3.72 10.31
5/25/2021 11:00:00 PM 12.26 54.068 0.029 6.86 3.75 10.31
5/25/2021 11:15:00 PM 12.24 54.032 0.029 6.84 3.83 10.31
5/25/2021 11:30:00 PM 12.22 53.996 0.029 6.87 3.74 10.32
5/25/2021 11:45:00 PM 12.21 53.978 0.029 6.87 3.74 10.32
5/26/2021 12:00:00 AM 12.19 53.942 0.029 6.83 3.76 10.32
5/26/2021 12:15:00 AM 12.17 53.906 0.029 6.86 3.71 10.32
5/26/2021 12:30:00 AM 12.16 53.888 0.029 6.87 3.8 10.33
5/26/2021 12:45:00 AM 12.14 53.852 0.029 6.85 3.87 10.33
5/26/2021 1:00:00 AM 12.12 53.816 0.029 6.87 3.65 10.33
5/26/2021 1:15:00 AM 12.1 53.78 0.029 6.87 3.7 10.34
5/26/2021 1:30:00 AM 12.08 53.744 0.029 6.84 3.71 10.35
5/26/2021 1:45:00 AM 12.06 53.708 0.029 6.86 3.68 10.35
5/26/2021 2:00:00 AM 12.04 53.672 0.029 6.88 3.85 10.35
5/26/2021 2:15:00 AM 12.02 53.636 0.029 6.87 3.73 10.35
5/26/2021 2:30:00 AM 12 53.6 0.029 6.86 3.67 10.36
5/26/2021 2:45:00 AM 11.98 53.564 0.029 6.86 3.69 10.36
5/26/2021 3:00:00 AM 11.96 53.528 0.029 6.87 3.74 10.37
5/26/2021 3:15:00 AM 11.94 53.492 0.029 6.88 3.68 10.37
5/26/2021 3:30:00 AM 11.92 53.456 0.029 6.85 3.63 10.37
5/26/2021 3:45:00 AM 11.91 53.438 0.029 6.85 7.94 10.38
5/26/2021 4:00:00 AM 11.89 53.402 0.029 6.85 3.71 10.38
5/26/2021 4:15:00 AM 11.87 53.366 0.029 6.88 3.78 10.39
5/26/2021 4:30:00 AM 11.86 53.348 0.029 6.87 3.5 10.39
5/26/2021 4:45:00 AM 11.85 53.33 0.029 6.87 3.54 10.4
5/26/2021 5:00:00 AM 11.83 53.294 0.029 6.87 3.7 10.4
5/26/2021 5:15:00 AM 11.82 53.276 0.029 6.86 3.65 10.39
5/26/2021 5:30:00 AM 11.8 53.24 0.029 6.88 3.71 10.4
5/26/2021 5:45:00 AM 11.79 53.222 0.029 6.87 3.6 10.4
5/26/2021 6:00:00 AM 11.78 53.204 0.029 6.86 3.51 10.42
5/26/2021 6:15:00 AM 11.77 53.186 0.029 6.87 3.77 10.42
5/26/2021 6:30:00 AM 11.76 53.168 0.029 6.85 3.49 10.43
5/26/2021 6:45:00 AM 11.75 53.15 0.029 6.86 3.46 10.45
5/26/2021 7:00:00 AM 11.75 53.15 0.029 6.84 3.77 10.45
5/26/2021 7:15:00 AM 11.75 53.15 0.029 6.88 3.49 10.47
5/26/2021 7:30:00 AM 11.75 53.15 0.029 6.87 3.56 10.48
5/26/2021 7:45:00 AM 11.76 53.168 0.029 6.88 3.59 10.49
5/26/2021 8:00:00 AM 11.76 53.168 0.029 6.88 3.48 10.51
5/26/2021 8:15:00 AM 11.78 53.204 0.029 6.87 3.42 10.52
5/26/2021 8:30:00 AM 11.8 53.24 0.029 6.86 3.36 10.53
5/26/2021 8:45:00 AM 11.83 53.294 0.029 6.85 3.37 10.55
5/26/2021 9:00:00 AM 11.85 53.33 0.029 6.87 3.23 10.55
5/26/2021 9:15:00 AM 11.88 53.384 0.029 6.88 3.64 10.54
5/26/2021 9:30:00 AM 11.94 53.492 0.029 6.89 3.37 10.54
5/26/2021 9:45:00 AM 11.97 53.546 0.029 6.89 3.33 10.53
5/26/2021 10:00:00 AM 12.02 53.636 0.029 6.9 3.27 10.51
5/26/2021 10:15:00 AM 12.08 53.744 0.029 6.92 3.46 10.51
5/26/2021 10:30:00 AM 12.15 53.87 0.029 6.93 3.31 10.5
5/26/2021 10:45:00 AM 12.25 54.05 0.028 6.92 3.78 10.49
5/26/2021 11:00:00 AM 12.36 54.248 0.029 6.95 3.55 10.47
5/26/2021 11:15:00 AM 12.47 54.446 0.028 6.93 3.29 10.45
5/26/2021 11:30:00 AM 12.59 54.662 0.028 6.95 3.25 10.43
5/26/2021 11:45:00 AM 12.73 54.914 0.028 6.92 3.35 10.42
5/26/2021 12:00:00 PM 12.88 55.184 0.028 6.95 3.32 10.38
5/26/2021 12:15:00 PM 13.04 55.472 0.028 6.93 3.34 10.36
5/26/2021 12:30:00 PM 13.21 55.778 0.028 6.93 3.38 10.32
5/26/2021 12:45:00 PM 13.41 56.138 0.028 6.95 3.29 10.29
5/26/2021 1:00:00 PM 13.5 56.3 0.028 6.95 3.26 10.24
5/26/2021 1:15:00 PM 13.68 56.624 0.028 6.93 3.35 10.22
5/26/2021 1:30:00 PM 13.86 56.948 0.028 6.93 3.33 10.19
5/26/2021 1:45:00 PM 14.04 57.272 0.028 6.91 3.34 10.14
5/26/2021 2:00:00 PM 14.14 57.452 0.028 6.91 3.38 10.09
5/26/2021 2:15:00 PM 14.12 57.416 0.028 6.92 3.33 10.04
5/26/2021 2:30:00 PM 14.12 57.416 0.028 6.91 3.3 10.01
5/26/2021 2:45:00 PM 14.1 57.38 0.028 6.91 3.41 9.95
5/26/2021 3:00:00 PM 14.16 57.488 0.028 6.89 3.3 9.96
5/26/2021 3:15:00 PM 14.2 57.56 0.028 6.9 3.37 9.96
5/26/2021 3:30:00 PM 14.22 57.596 0.028 6.91 3.36 9.96
5/26/2021 3:45:00 PM 14.3 57.74 0.028 6.93 3.24 9.95
5/26/2021 4:00:00 PM 14.35 57.83 0.029 6.89 4.46 9.92
5/26/2021 4:15:00 PM 14.38 57.884 0.028 6.91 3.47 9.9
5/26/2021 4:30:00 PM 14.42 57.956 0.028 6.9 3.4 9.89
5/26/2021 4:45:00 PM 14.44 57.992 0.028 6.89 3.49 9.88
5/26/2021 5:00:00 PM 14.44 57.992 0.028 6.88 3.41 9.86
5/26/2021 5:15:00 PM 14.43 57.974 0.029 6.91 3.32 9.84
5/26/2021 5:30:00 PM 14.37 57.866 0.029 6.88 3.45 9.8
5/26/2021 5:45:00 PM 14.37 57.866 0.029 6.89 3.75 9.82
5/26/2021 6:00:00 PM 14.3 57.74 0.029 6.88 3.37 9.82
5/26/2021 6:15:00 PM 14.25 57.65 0.029 6.88 3.37 9.79
5/26/2021 6:30:00 PM 14.24 57.632 0.029 6.85 3.5 9.79
5/26/2021 6:45:00 PM 14.2 57.56 0.029 6.86 3.43 9.83
5/26/2021 7:00:00 PM 14.16 57.488 0.029 6.87 3.45 9.83
5/26/2021 7:15:00 PM 14.11 57.398 0.029 6.85 3.38 9.82
5/26/2021 7:30:00 PM 14.06 57.308 0.029 6.82 3.46 9.82
5/26/2021 7:45:00 PM 14.02 57.236 0.029 6.83 3.4 9.84
5/26/2021 8:00:00 PM 13.99 57.182 0.029 6.84 3.38 9.85
5/26/2021 8:15:00 PM 13.97 57.146 0.029 6.81 3.71 9.83
5/26/2021 8:30:00 PM 13.96 57.128 0.029 6.8 3.47 9.82
5/26/2021 8:45:00 PM 13.98 57.164 0.029 6.81 3.38 9.81
5/26/2021 9:00:00 PM 13.98 57.164 0.029 6.81 3.59 9.81
5/26/2021 9:15:00 PM 13.99 57.182 0.029 6.78 3.49 9.8
5/26/2021 9:30:00 PM 13.98 57.164 0.029 6.81 3.55 9.79
5/26/2021 9:45:00 PM 13.97 57.146 0.029 6.78 3.49 9.8
5/26/2021 10:00:00 PM 13.95 57.11 0.029 6.78 3.48 9.8
5/26/2021 10:15:00 PM 13.93 57.074 0.029 6.79 3.48 9.8
5/26/2021 10:30:00 PM 13.9 57.02 0.029 6.79 3.42 9.82
5/26/2021 10:45:00 PM 13.86 56.948 0.029 6.79 3.41 9.82
5/26/2021 11:00:00 PM 13.81 56.858 0.029 6.8 3.56 9.83
5/26/2021 11:15:00 PM 13.78 56.804 0.029 6.77 4.05 9.85
5/26/2021 11:30:00 PM 13.74 56.732 0.029 6.8 3.37 9.86
5/26/2021 11:45:00 PM 13.7 56.66 0.029 6.81 3.44 9.87
5/27/2021 12:00:00 AM 13.66 56.588 0.029 6.82 3.53 9.88
5/27/2021 12:15:00 AM 13.62 56.516 0.029 6.84 3.45 9.9
5/27/2021 12:30:00 AM 13.58 56.444 0.029 6.85 3.38 9.91
5/27/2021 12:45:00 AM 13.54 56.372 0.029 6.83 3.32 9.92
5/27/2021 1:00:00 AM 13.49 56.282 0.029 6.84 3.37 9.93
5/27/2021 1:15:00 AM 13.46 56.228 0.029 6.85 3.41 9.94
5/27/2021 1:30:00 AM 13.42 56.156 0.029 6.87 3.55 9.95
5/27/2021 1:45:00 AM 13.38 56.084 0.029 6.87 3.45 9.96
5/27/2021 2:00:00 AM 13.34 56.012 0.029 6.86 3.34 9.97
5/27/2021 2:15:00 AM 13.3 55.94 0.029 6.87 3.39 9.98
5/27/2021 2:30:00 AM 13.26 55.868 0.029 6.88 3.31 9.99
5/27/2021 2:45:00 AM 13.22 55.796 0.029 6.88 3.41 10
5/27/2021 3:00:00 AM 13.18 55.724 0.029 6.85 3.35 10.01
5/27/2021 3:15:00 AM 13.13 55.634 0.029 6.87 3.5 10.02
5/27/2021 3:30:00 AM 13.09 55.562 0.029 6.88 3.49 10.02
5/27/2021 3:45:00 AM 13.05 55.49 0.029 6.86 3.41 10.04
5/27/2021 4:00:00 AM 13.01 55.418 0.029 6.86 3.52 10.04
5/27/2021 4:15:00 AM 12.97 55.346 0.029 6.88 3.43 10.06
5/27/2021 4:30:00 AM 12.93 55.274 0.029 6.89 3.42 10.07
5/27/2021 4:45:00 AM 12.89 55.202 0.029 6.86 3.4 10.08
5/27/2021 5:00:00 AM 12.84 55.112 0.029 6.88 3.34 10.09
5/27/2021 5:15:00 AM 12.8 55.04 0.029 6.85 3.38 10.1
5/27/2021 5:30:00 AM 12.76 54.968 0.029 6.88 3.32 10.11
5/27/2021 5:45:00 AM 12.71 54.878 0.029 6.88 3.47 10.12
5/27/2021 6:00:00 AM 12.67 54.806 0.029 6.86 3.28 10.14
5/27/2021 6:15:00 AM 12.63 54.734 0.029 6.88 3.36 10.15
5/27/2021 6:30:00 AM 12.59 54.662 0.029 6.89 3.27 10.17
5/27/2021 6:45:00 AM 12.55 54.59 0.029 6.89 3.26 10.18
5/27/2021 7:00:00 AM 12.5 54.5 0.029 6.88 3.45 10.2
5/27/2021 7:15:00 AM 12.47 54.446 0.029 6.88 3.17 10.22
5/27/2021 7:30:00 AM 12.44 54.392 0.029 6.86 3.25 10.23
5/27/2021 7:45:00 AM 12.42 54.356 0.029 6.88 3.23 10.24
5/27/2021 8:00:00 AM 12.4 54.32 0.029 6.91 3.36 10.25
5/27/2021 8:15:00 AM 12.39 54.302 0.029 6.89 3.17 10.27
5/27/2021 8:30:00 AM 12.39 54.302 0.029 6.9 3.16 10.27
5/27/2021 8:45:00 AM 12.4 54.32 0.029 6.91 3.22 10.28
5/27/2021 9:00:00 AM 12.4 54.32 0.029 6.92 3.29 10.29
5/27/2021 9:15:00 AM 12.4 54.32 0.029 6.93 3.19 10.31
5/27/2021 9:30:00 AM 12.42 54.356 0.029 6.91 3.3 10.31
5/27/2021 9:45:00 AM 12.44 54.392 0.029 6.9 3.22 10.31
5/27/2021 10:00:00 AM 12.47 54.446 0.029 6.93 3.21 10.31
5/27/2021 10:15:00 AM 12.52 54.536 0.029 6.91 3.31 10.31
5/27/2021 10:30:00 AM 12.58 54.644 0.029 6.89 3.27 10.32
5/27/2021 10:45:00 AM 12.64 54.752 0.029 6.94 3.44 10.31
5/27/2021 11:00:00 AM 12.71 54.878 0.029 6.92 3.53 10.31
5/27/2021 11:15:00 AM 12.79 55.022 0.029 6.94 3.16 10.3
5/27/2021 11:30:00 AM 12.89 55.202 0.029 6.96 3.23 10.3
5/27/2021 11:45:00 AM 13 55.4 0.029 6.95 3.26 10.29
5/27/2021 12:00:00 PM 13.1 55.58 0.029 6.95 3.53 10.27
5/27/2021 12:15:00 PM 13.23 55.814 0.03 6.86 4.6 10.25
5/27/2021 12:30:00 PM 13.39 56.102 0.029 6.94 3.55 10.24
5/27/2021 12:45:00 PM 13.54 56.372 0.029 6.96 3.46 10.21
5/27/2021 1:00:00 PM 13.69 56.642 0.029 6.95 3.39 10.18
5/27/2021 1:15:00 PM 13.84 56.912 0.029 6.96 3.34 10.15
5/27/2021 1:30:00 PM 13.97 57.146 0.029 6.96 3.49 10.13
5/27/2021 1:45:00 PM 14.06 57.308 0.029 6.95 3.42 10.1
5/27/2021 2:00:00 PM 14.15 57.47 0.029 6.92 3.39 10.07
5/27/2021 2:15:00 PM 14.15 57.47 0.029 6.91 3.3 10.05
5/27/2021 2:30:00 PM 14.2 57.56 0.029 6.91 3.27 10.03
5/27/2021 2:45:00 PM 14.2 57.56 0.029 6.92 3.35 10
5/27/2021 3:00:00 PM 14.22 57.596 0.029 6.9 3.36 9.98
5/27/2021 3:15:00 PM 14.24 57.632 0.029 6.9 3.33 9.95
5/27/2021 3:30:00 PM 14.25 57.65 0.029 6.9 3.41 9.94
5/27/2021 3:45:00 PM 14.3 57.74 0.029 6.94 3.33 9.95
5/27/2021 4:00:00 PM 14.3 57.74 0.029 6.94 3.42 9.93
5/27/2021 4:15:00 PM 14.3 57.74 0.029 6.93 3.3 9.9
5/27/2021 4:30:00 PM 14.3 57.74 0.029 6.9 3.3 9.87
5/27/2021 4:45:00 PM 14.29 57.722 0.029 6.92 3.35 9.87
5/27/2021 5:00:00 PM 14.28 57.704 0.029 6.88 3.37 9.86
5/27/2021 5:15:00 PM 14.27 57.686 0.029 6.92 3.33 9.88
5/27/2021 5:30:00 PM 14.25 57.65 0.029 6.93 3.44 9.89
5/27/2021 5:45:00 PM 14.21 57.578 0.029 6.92 3.46 9.86
5/27/2021 6:00:00 PM 14.16 57.488 0.029 6.9 3.34 9.86
5/27/2021 6:15:00 PM 14.11 57.398 0.029 6.9 3.47 9.86
5/27/2021 6:30:00 PM 14.06 57.308 0.029 6.88 3.34 9.86
5/27/2021 6:45:00 PM 14.02 57.236 0.029 6.88 3.31 9.86
5/27/2021 7:00:00 PM 13.98 57.164 0.029 6.88 3.45 9.87
5/27/2021 7:15:00 PM 13.93 57.074 0.029 6.88 3.41 9.87
5/27/2021 7:30:00 PM 13.88 56.984 0.029 6.89 3.92 9.88
5/27/2021 7:45:00 PM 13.84 56.912 0.029 6.89 3.78 9.88
5/27/2021 8:00:00 PM 13.8 56.84 0.029 6.88 3.39 9.89
5/27/2021 8:15:00 PM 13.76 56.768 0.029 6.87 3.41 9.89
5/27/2021 8:30:00 PM 13.72 56.696 0.029 6.85 3.39 9.9
5/27/2021 8:45:00 PM 13.69 56.642 0.029 6.88 3.43 9.9
5/27/2021 9:00:00 PM 13.65 56.57 0.029 6.89 3.46 9.9
5/27/2021 9:15:00 PM 13.61 56.498 0.029 6.88 3.43 9.91
5/27/2021 9:30:00 PM 13.57 56.426 0.029 6.88 3.51 9.92
5/27/2021 9:45:00 PM 13.53 56.354 0.029 6.86 3.63 9.93
5/27/2021 10:00:00 PM 13.49 56.282 0.029 6.9 3.56 9.94
5/27/2021 10:15:00 PM 13.45 56.21 0.029 6.89 3.83 9.95
5/27/2021 10:30:00 PM 13.41 56.138 0.029 6.89 3.69 9.97
5/27/2021 10:45:00 PM 13.37 56.066 0.029 6.91 3.7 9.98
5/27/2021 11:00:00 PM 13.32 55.976 0.029 6.9 3.66 9.99
5/27/2021 11:15:00 PM 13.28 55.904 0.029 6.9 3.72 9.99
5/27/2021 11:30:00 PM 13.23 55.814 0.029 6.9 3.74 10.01
5/27/2021 11:45:00 PM 13.18 55.724 0.029 6.91 4.51 10.02
5/28/2021 12:00:00 AM 13.13 55.634 0.029 6.91 5.02 10.03
5/28/2021 12:15:00 AM 13.07 55.526 0.029 6.9 3.97 10.04
5/28/2021 12:30:00 AM 13.02 55.436 0.029 6.91 3.62 10.06
5/28/2021 12:45:00 AM 12.96 55.328 0.029 6.89 3.59 10.07
5/28/2021 1:00:00 AM 12.91 55.238 0.029 6.89 3.57 10.09
5/28/2021 1:15:00 AM 12.84 55.112 0.029 6.89 3.51 10.1
5/28/2021 1:30:00 AM 12.78 55.004 0.029 6.89 3.61 10.11
5/28/2021 1:45:00 AM 12.71 54.878 0.029 6.87 3.64 10.12
5/28/2021 2:00:00 AM 12.65 54.77 0.029 6.89 3.72 10.14
5/28/2021 2:15:00 AM 12.6 54.68 0.029 6.9 3.65 10.15
5/28/2021 2:30:00 AM 12.54 54.572 0.029 6.92 3.62 10.16
5/28/2021 2:45:00 AM 12.49 54.482 0.029 6.9 3.52 10.18
5/28/2021 3:00:00 AM 12.43 54.374 0.029 6.89 3.58 10.19
5/28/2021 3:15:00 AM 12.38 54.284 0.029 6.92 3.63 10.21
5/28/2021 3:30:00 AM 12.34 54.212 0.029 6.89 3.54 10.21
5/28/2021 3:45:00 AM 12.29 54.122 0.029 6.9 3.89 10.23
5/28/2021 4:00:00 AM 12.24 54.032 0.029 6.91 3.69 10.24
5/28/2021 4:15:00 AM 12.19 53.942 0.029 6.92 3.63 10.25
5/28/2021 4:30:00 AM 12.15 53.87 0.029 6.92 3.63 10.26
5/28/2021 4:45:00 AM 12.1 53.78 0.029 6.91 3.49 10.27
5/28/2021 5:00:00 AM 12.04 53.672 0.029 6.92 3.76 10.28
5/28/2021 5:15:00 AM 11.99 53.582 0.029 6.91 3.57 10.3
5/28/2021 5:30:00 AM 11.93 53.474 0.029 6.91 3.72 10.31
5/28/2021 5:45:00 AM 11.88 53.384 0.029 6.91 3.57 10.33
5/28/2021 6:00:00 AM 11.83 53.294 0.029 6.92 3.54 10.34
5/28/2021 6:15:00 AM 11.78 53.204 0.029 6.93 3.41 10.37
5/28/2021 6:30:00 AM 11.74 53.132 0.029 6.92 3.5 10.38
5/28/2021 6:45:00 AM 11.7 53.06 0.029 6.92 3.47 10.39
5/28/2021 7:00:00 AM 11.67 53.006 0.029 6.93 3.49 10.41
5/28/2021 7:15:00 AM 11.64 52.952 0.029 6.91 3.48 10.43
5/28/2021 7:30:00 AM 11.62 52.916 0.029 6.94 3.4 10.44
5/28/2021 7:45:00 AM 11.6 52.88 0.029 6.93 3.49 10.45
5/28/2021 8:00:00 AM 11.57 52.826 0.029 6.92 3.5 10.46
5/28/2021 8:15:00 AM 11.56 52.808 0.029 6.95 3.5 10.47
5/28/2021 8:30:00 AM 11.54 52.772 0.029 6.96 3.5 10.49
5/28/2021 8:45:00 AM 11.54 52.772 0.029 6.95 3.42 10.5
5/28/2021 9:00:00 AM 11.53 52.754 0.029 6.96 3.47 10.5
5/28/2021 9:15:00 AM 11.53 52.754 0.029 6.97 3.53 10.51
5/28/2021 9:30:00 AM 11.54 52.772 0.029 6.98 3.47 10.54
5/28/2021 9:45:00 AM 11.55 52.79 0.029 6.97 3.51 10.54
5/28/2021 10:00:00 AM 11.56 52.808</